
Distance (Route):
Temperature : 14.1°C
Humidity : 0%
Pressure : 0hPa| Receiver | Frames | First received | Last received |
|---|---|---|---|
| PETON7-10 | 433 | 2026-09-01 05:13:46 | 2026-09-01 07:09:06 |
| OE3JTB-15 | 203 | 2026-09-01 05:14:10 | 2026-09-01 07:12:44 |
| OM5KV | 103 | 2026-09-01 06:08:39 | 2026-09-01 07:13:35 |
| OE5WHR-10 | 77 | 2026-09-01 05:59:15 | 2026-09-01 06:32:24 |
| SP9KGR-15 | 76 | 2026-09-01 06:30:51 | 2026-09-01 06:59:44 |
| DO3MHA-12 | 63 | 2026-09-01 06:31:04 | 2026-09-01 06:58:38 |
| OE5MMP-10 | 59 | 2026-09-01 06:44:50 | 2026-09-01 06:56:08 |
| OE5DXL-15 | 57 | 2026-09-01 06:15:33 | 2026-09-01 06:59:47 |
| GYPAP8-17 | 16 | 2026-09-01 06:02:55 | 2026-09-01 07:04:51 |
| SQ9EZE-15 | 16 | 2026-09-01 06:17:57 | 2026-09-01 07:00:34 |
| OE3OSB-13 | 10 | 2026-09-01 05:14:06 | 2026-09-01 07:09:33 |
| SQ9EZE-14 | 7 | 2026-09-01 06:39:27 | 2026-09-01 07:03:31 |
| ATIDSZ-14 | 4 | 2026-09-01 07:10:16 | 2026-09-01 07:11:21 |
| S52SK | 2 | 2026-09-01 05:42:52 | 2026-09-01 05:43:49 |
| Receiver | Date | Latitude | Longitude | Direction | Speed | Altitude | Climb | Temperature | Humidity | Pressure | Voltage | Killtimer | Uptime | BKT | XDATA |
|---|---|---|---|---|---|---|---|---|---|---|---|---|---|---|---|
| OM5KV | 2026-09-01 07:13:35 | 48.59232 | 18.91328 | 146° | 42km/h | 1207m | -13.1m/s | 14.1°C | 0% | 0hPa | 0V | 00:00:00 | 00:00:00 | 00:00:00 | |
| OM5KV | 2026-09-01 07:13:27 | 48.59292 | 18.91253 | 141° | 40km/h | 1299m | -13.2m/s | 13.2°C | 0% | 0hPa | 0V | 00:00:00 | 00:00:00 | 00:00:00 | |
| OM5KV | 2026-09-01 07:13:23 | 48.59330 | 18.91200 | 136° | 40km/h | 1365m | -13.0m/s | 12.8°C | 0% | 0hPa | 0V | 00:00:00 | 00:00:00 | 00:00:00 | |
| OM5KV | 2026-09-01 07:13:16 | 48.59372 | 18.91131 | 131° | 42km/h | 1441m | -12.7m/s | 12.2°C | 0% | 0hPa | 0V | 00:00:00 | 00:00:00 | 00:00:00 | |
| OM5KV | 2026-09-01 07:13:10 | 48.59410 | 18.91058 | 127° | 40km/h | 1518m | -12.8m/s | 11.6°C | 0% | 0hPa | 0V | 00:00:00 | 00:00:00 | 00:00:00 | |
| OM5KV | 2026-09-01 07:13:05 | 48.59442 | 18.90992 | 127° | 44km/h | 1581m | -12.6m/s | 11.0°C | 0% | 0hPa | 0V | 00:00:00 | 00:00:00 | 00:00:00 | |
| OM5KV | 2026-09-01 07:12:59 | 48.59480 | 18.90909 | 126° | 44km/h | 1656m | -12.6m/s | 10.2°C | 0% | 0hPa | 0V | 00:00:00 | 00:00:00 | 00:00:00 | |
| OM5KV | 2026-09-01 07:12:53 | 48.59516 | 18.90827 | 125° | 42km/h | 1731m | -12.5m/s | 9.6°C | 0% | 0hPa | 0V | 00:00:00 | 00:00:00 | 00:00:00 | |
| OM5KV | 2026-09-01 07:12:48 | 48.59544 | 18.90764 | 126° | 37km/h | 1792m | -12.3m/s | 9.1°C | 0% | 0hPa | 0V | 00:00:00 | 00:00:00 | 00:00:00 | |
| OE3JTB-15 | 2026-09-01 07:12:44 | 48.59565 | 18.90715 | 124° | 40km/h | 1891m | -12.2m/s | 0°C | 0% | 0hPa | 0V | 00:00:00 | 00:00:00 | 00:00:00 | |
| OM5KV | 2026-09-01 07:12:42 | 48.59577 | 18.90690 | 128° | 38km/h | 1867m | -12.3m/s | 8.6°C | 0% | 0hPa | 0V | 00:00:00 | 00:00:00 | 00:00:00 | |
| OE3JTB-15 | 2026-09-01 07:12:40 | 48.59588 | 18.90666 | 124° | 40km/h | 1903m | -12.3m/s | 0°C | 0% | 0hPa | 0V | 00:00:00 | 00:00:00 | 00:00:00 | |
| OE3JTB-15 | 2026-09-01 07:12:38 | 48.59599 | 18.90641 | 129° | 40km/h | 1928m | -12.5m/s | 0°C | 0% | 0hPa | 0V | 00:00:00 | 00:00:00 | 00:00:00 | |
| OM5KV | 2026-09-01 07:12:37 | 48.59605 | 18.90628 | 126° | 42km/h | 1928m | -12.5m/s | 8.0°C | 0% | 0hPa | 0V | 00:00:00 | 00:00:00 | 00:00:00 | |
| OE3JTB-15 | 2026-09-01 07:12:36 | 48.59611 | 18.90616 | 125° | 40km/h | 1953m | -12.4m/s | 0°C | 0% | 0hPa | 0V | 00:00:00 | 00:00:00 | 00:00:00 | |
| OE3JTB-15 | 2026-09-01 07:12:34 | 48.59623 | 18.90591 | 126° | 40km/h | 1978m | -12.3m/s | 0°C | 0% | 0hPa | 0V | 00:00:00 | 00:00:00 | 00:00:00 | |
| OE3JTB-15 | 2026-09-01 07:12:32 | 48.59634 | 18.90565 | 120° | 38km/h | 2003m | -12.2m/s | 0°C | 0% | 0hPa | 0V | 00:00:00 | 00:00:00 | 00:00:00 | |
| OM5KV | 2026-09-01 07:12:31 | 48.59638 | 18.90552 | 120° | 38km/h | 2003m | -12.2m/s | 7.6°C | 0% | 0hPa | 0V | 00:00:00 | 00:00:00 | 00:00:00 | |
| OE3JTB-15 | 2026-09-01 07:12:30 | 48.59643 | 18.90539 | 121° | 37km/h | 2028m | -12.2m/s | 0°C | 0% | 0hPa | 0V | 00:00:00 | 00:00:00 | 00:00:00 | |
| OE3JTB-15 | 2026-09-01 07:12:28 | 48.59652 | 18.90515 | 120° | 37km/h | 2052m | -12.2m/s | 0°C | 0% | 0hPa | 0V | 00:00:00 | 00:00:00 | 00:00:00 | |
| OM5KV | 2026-09-01 07:12:25 | 48.59666 | 18.90479 | 118° | 35km/h | 2077m | -12.4m/s | 7.0°C | 0% | 0hPa | 0V | 00:00:00 | 00:00:00 | 00:00:00 | |
| OM5KV | 2026-09-01 07:12:20 | 48.59685 | 18.90417 | 117° | 37km/h | 2138m | -12.4m/s | 6.5°C | 0% | 0hPa | 0V | 00:00:00 | 00:00:00 | 00:00:00 | |
| OE3JTB-15 | 2026-09-01 07:12:19 | 48.59689 | 18.90404 | 119° | 37km/h | 2163m | -12.3m/s | 0°C | 0% | 0hPa | 0V | 00:00:00 | 00:00:00 | 00:00:00 | |
| OE3JTB-15 | 2026-09-01 07:12:09 | 48.59725 | 18.90273 | 111° | 40km/h | 2270m | -11.8m/s | 0°C | 0% | 0hPa | 0V | 00:00:00 | 00:00:00 | 00:00:00 | |
| OM5KV | 2026-09-01 07:12:03 | 48.59746 | 18.90184 | 109° | 42km/h | 2342m | -12.2m/s | 5.7°C | 0% | 0hPa | 0V | 00:00:00 | 00:00:00 | 00:00:00 | |
| OE3JTB-15 | 2026-09-01 07:12:00 | 48.59756 | 18.90140 | 107° | 42km/h | 2379m | -11.8m/s | 0°C | 0% | 0hPa | 0V | 00:00:00 | 00:00:00 | 00:00:00 | |
| OM5KV | 2026-09-01 07:11:58 | 48.59765 | 18.90095 | 109° | 40km/h | 2415m | -12.1m/s | 5.1°C | 0% | 0hPa | 0V | 00:00:00 | 00:00:00 | 00:00:00 | |
| OM5KV | 2026-09-01 07:11:52 | 48.59781 | 18.90020 | 108° | 40km/h | 2476m | -12.1m/s | 4.6°C | 0% | 0hPa | 0V | 00:00:00 | 00:00:00 | 00:00:00 | |
| OE3JTB-15 | 2026-09-01 07:11:51 | 48.59784 | 18.90005 | 103° | 37km/h | 2499m | -12.0m/s | 0°C | 0% | 0hPa | 0V | 00:00:00 | 00:00:00 | 00:00:00 | |
| OM5KV | 2026-09-01 07:11:41 | 48.59798 | 18.89868 | 97° | 35km/h | 2613m | -12.7m/s | 4.3°C | 0% | 0hPa | 0V | 00:00:00 | 00:00:00 | 00:00:00 | |
| OM5KV | 2026-09-01 07:11:35 | 48.59805 | 18.89785 | 97° | 37km/h | 2690m | -12.7m/s | 3.9°C | 0% | 0hPa | 0V | 00:00:00 | 00:00:00 | 00:00:00 | |
| OE3JTB-15 | 2026-09-01 07:11:32 | 48.59809 | 18.89741 | 97° | 40km/h | 2728m | -12.5m/s | 0°C | 0% | 0hPa | 0V | 00:00:00 | 00:00:00 | 00:00:00 | |
| ATIDSZ-14 | 2026-09-01 07:11:21 | 48.59814 | 18.89569 | 89° | 40km/h | 2867m | -12.7m/s | 4.3°C | 0% | 0hPa | 0V | 00:00:00 | 00:00:00 | 00:00:00 | |
| OE3JTB-15 | 2026-09-01 07:11:13 | 48.59810 | 18.89449 | 84° | 35km/h | 2982m | -13.1m/s | 0°C | 0% | 0hPa | 0V | 00:00:00 | 00:00:00 | 00:00:00 | |
| ATIDSZ-14 | 2026-09-01 07:11:00 | 48.59789 | 18.89266 | 79° | 33km/h | 3158m | -13.7m/s | 2.4°C | 0% | 0hPa | 0V | 00:00:00 | 00:00:00 | 00:00:00 | |
| OE3JTB-15 | 2026-09-01 07:10:52 | 48.59779 | 18.89177 | 84° | 35km/h | 3268m | -13.5m/s | 0°C | 0% | 0hPa | 0V | 00:00:00 | 00:00:00 | 00:00:00 | |
| ATIDSZ-14 | 2026-09-01 07:10:37 | 48.59769 | 18.88977 | 89° | 35km/h | 3467m | -14.6m/s | 0.6°C | 0% | 0hPa | 0V | 00:00:00 | 00:00:00 | 00:00:00 | |
| OE3JTB-15 | 2026-09-01 07:10:32 | 48.59767 | 18.88905 | 87° | 42km/h | 3539m | -14.3m/s | 0°C | 0% | 0hPa | 0V | 00:00:00 | 00:00:00 | 00:00:00 | |
| ATIDSZ-14 | 2026-09-01 07:10:16 | 48.59749 | 18.88657 | 84° | 42km/h | 3774m | -14.8m/s | -1.9°C | 0% | 0hPa | 0V | 00:00:00 | 00:00:00 | 00:00:00 | |
| OE3JTB-15 | 2026-09-01 07:10:01 | 48.59732 | 18.88412 | 83° | 53km/h | 4042m | -15.1m/s | 0°C | 0% | 0hPa | 0V | 00:00:00 | 00:00:00 | 00:00:00 | |
| OE3OSB-13 | 2026-09-01 07:09:33 | 48.59705 | 18.87902 | 86° | 55km/h | 4440m | -15.6m/s | -6.5°C | -1.0% | -1.0hPa | 0V | 00:00:00 | 00:00:00 | 00:00:00 | |
| OE3JTB-15 | 2026-09-01 07:09:07 | 48.59724 | 18.87354 | 101° | 69km/h | 4845m | -14.9m/s | 0°C | 0% | 0hPa | 0V | 00:00:00 | 00:00:00 | 00:00:00 | |
| PETON7-10 | 2026-09-01 07:09:06 | 48.59727 | 18.87332 | 100° | 62km/h | 4860m | -15.5m/s | 0°C | 0% | 0hPa | 0V | 00:00:00 | 00:00:00 | 00:00:00 | |
| OE3OSB-13 | 2026-09-01 07:09:02 | 48.59739 | 18.87221 | 99° | 57km/h | 4922m | -15.5m/s | -9.7°C | -1.0% | -1.0hPa | 0V | 00:00:00 | 00:00:00 | 00:00:00 | |
| PETON7-10 | 2026-09-01 07:08:50 | 48.59777 | 18.86964 | 105° | 71km/h | 5105m | -15.2m/s | 0°C | 0% | 0hPa | 0V | 00:00:00 | 00:00:00 | 00:00:00 | |
| PETON7-10 | 2026-09-01 07:08:35 | 48.59844 | 18.86572 | 105° | 75km/h | 5336m | -15.3m/s | 0°C | 0% | 0hPa | 0V | 00:00:00 | 00:00:00 | 00:00:00 | |
| PETON7-10 | 2026-09-01 07:08:20 | 48.59895 | 18.86151 | 97° | 73km/h | 5570m | -15.9m/s | 0°C | 0% | 0hPa | 0V | 00:00:00 | 00:00:00 | 00:00:00 | |
| OE3JTB-15 | 2026-09-01 07:08:15 | 48.59906 | 18.86012 | 98° | 75km/h | 5666m | -15.9m/s | 0°C | 0% | 0hPa | 0V | 00:00:00 | 00:00:00 | 00:00:00 | |
| PETON7-10 | 2026-09-01 07:08:05 | 48.59926 | 18.85735 | 94° | 73km/h | 5811m | -16.2m/s | 0°C | 0% | 0hPa | 0V | 00:00:00 | 00:00:00 | 00:00:00 | |
| PETON7-10 | 2026-09-01 07:07:50 | 48.59960 | 18.85315 | 100° | 78km/h | 6058m | -16.6m/s | 0°C | 0% | 0hPa | 0V | 00:00:00 | 00:00:00 | 00:00:00 | |
| OE3JTB-15 | 2026-09-01 07:07:46 | 48.59972 | 18.85202 | 95° | 82km/h | 6158m | -16.4m/s | 0°C | 0% | 0hPa | 0V | 00:00:00 | 00:00:00 | 00:00:00 | |
| PETON7-10 | 2026-09-01 07:07:35 | 48.59992 | 18.84872 | 95° | 82km/h | 6309m | -17.0m/s | 0°C | 0% | 0hPa | 0V | 00:00:00 | 00:00:00 | 00:00:00 | |
| PETON7-10 | 2026-09-01 07:07:20 | 48.60019 | 18.84399 | 96° | 86km/h | 6568m | -17.4m/s | 0°C | 0% | 0hPa | 0V | 00:00:00 | 00:00:00 | 00:00:00 | |
| OE3JTB-15 | 2026-09-01 07:07:08 | 48.60042 | 18.84011 | 94° | 84km/h | 6797m | -17.8m/s | 0°C | 0% | 0hPa | 0V | 00:00:00 | 00:00:00 | 00:00:00 | |
| PETON7-10 | 2026-09-01 07:07:05 | 48.60045 | 18.83912 | 93° | 84km/h | 6815m | -17.6m/s | 0°C | 0% | 0hPa | 0V | 00:00:00 | 00:00:00 | 00:00:00 | |
| PETON7-10 | 2026-09-01 07:06:50 | 48.60052 | 18.83428 | 90° | 84km/h | 7088m | -18.3m/s | 0°C | 0% | 0hPa | 0V | 00:00:00 | 00:00:00 | 00:00:00 | |
| OE3JTB-15 | 2026-09-01 07:06:37 | 48.60047 | 18.83017 | 87° | 86km/h | 7329m | -18.8m/s | 0°C | 0% | 0hPa | 0V | 00:00:00 | 00:00:00 | 00:00:00 | |
| PETON7-10 | 2026-09-01 07:06:35 | 48.60044 | 18.82951 | 88° | 86km/h | 7367m | -18.8m/s | 0°C | 0% | 0hPa | 0V | 00:00:00 | 00:00:00 | 00:00:00 | |
| PETON7-10 | 2026-09-01 07:06:20 | 48.60027 | 18.82464 | 86° | 88km/h | 7651m | -19.0m/s | 0°C | 0% | 0hPa | 0V | 00:00:00 | 00:00:00 | 00:00:00 | |
| OE3JTB-15 | 2026-09-01 07:06:06 | 48.60014 | 18.81992 | 92° | 91km/h | 7978m | -19.5m/s | 0°C | 0% | 0hPa | 0V | 00:00:00 | 00:00:00 | 00:00:00 | |
| PETON7-10 | 2026-09-01 07:06:05 | 48.60014 | 18.81957 | 91° | 91km/h | 7939m | -19.7m/s | 0°C | 0% | 0hPa | 0V | 00:00:00 | 00:00:00 | 00:00:00 | |
| PETON7-10 | 2026-09-01 07:05:50 | 48.60027 | 18.81439 | 94° | 93km/h | 8239m | -20.5m/s | 0°C | 0% | 0hPa | 0V | 00:00:00 | 00:00:00 | 00:00:00 | |
| OE3JTB-15 | 2026-09-01 07:05:37 | 48.60044 | 18.80978 | 93° | 95km/h | 8507m | -20.9m/s | 0°C | 0% | 0hPa | 0V | 00:00:00 | 00:00:00 | 00:00:00 | |
| PETON7-10 | 2026-09-01 07:05:35 | 48.60047 | 18.80904 | 93° | 97km/h | 8549m | -21.0m/s | 0°C | 0% | 0hPa | 0V | 00:00:00 | 00:00:00 | 00:00:00 | |
| PETON7-10 | 2026-09-01 07:05:20 | 48.60075 | 18.80355 | 95° | 95km/h | 8869m | -21.6m/s | 0°C | 0% | 0hPa | 0V | 00:00:00 | 00:00:00 | 00:00:00 | |
| OE3JTB-15 | 2026-09-01 07:05:08 | 48.60089 | 18.79923 | 90° | 102km/h | 9152m | -22.0m/s | 0°C | 0% | 0hPa | 0V | 00:00:00 | 00:00:00 | 00:00:00 | |
| PETON7-10 | 2026-09-01 07:05:05 | 48.60088 | 18.79813 | 89° | 100km/h | 9196m | -22.0m/s | 0°C | 0% | 0hPa | 0V | 00:00:00 | 00:00:00 | 00:00:00 | |
| GYPAP8-17 | 2026-09-01 07:04:51 | 48.60094 | 18.79279 | 94° | 104km/h | 9472m | -18.9m/s | -40.5°C | 0% | 0hPa | 0V | 00:00:00 | 00:00:00 | 00:00:00 | |
| PETON7-10 | 2026-09-01 07:04:50 | 48.60095 | 18.79240 | 93° | 106km/h | 9491m | -19.3m/s | 0°C | 0% | 0hPa | 0V | 00:00:00 | 00:00:00 | 00:00:00 | |
| OE3JTB-15 | 2026-09-01 07:04:39 | 48.60113 | 18.78793 | 95° | 110km/h | 9703m | -19.1m/s | 0°C | 0% | 0hPa | 0V | 00:00:00 | 00:00:00 | 00:00:00 | |
| PETON7-10 | 2026-09-01 07:04:35 | 48.60122 | 18.78630 | 96° | 108km/h | 9800m | -19.8m/s | 0°C | 0% | 0hPa | 0V | 00:00:00 | 00:00:00 | 00:00:00 | |
| PETON7-10 | 2026-09-01 07:04:20 | 48.60145 | 18.78018 | 93° | 113km/h | 10090m | -19.4m/s | 0°C | 0% | 0hPa | 0V | 00:00:00 | 00:00:00 | 00:00:00 | |
| OE3JTB-15 | 2026-09-01 07:04:09 | 48.60160 | 18.77551 | 92° | 120km/h | 10288m | -19.7m/s | 0°C | 0% | 0hPa | 0V | 00:00:00 | 00:00:00 | 00:00:00 | |
| PETON7-10 | 2026-09-01 07:04:05 | 48.60166 | 18.77373 | 93° | 120km/h | 10387m | -20.0m/s | 0°C | 0% | 0hPa | 0V | 00:00:00 | 00:00:00 | 00:00:00 | |
| PETON7-10 | 2026-09-01 07:03:50 | 48.60186 | 18.76686 | 93° | 120km/h | 10690m | -20.2m/s | 0°C | 0% | 0hPa | 0V | 00:00:00 | 00:00:00 | 00:00:00 | |
| OE3JTB-15 | 2026-09-01 07:03:40 | 48.60192 | 18.76225 | 90° | 124km/h | 10894m | -20.6m/s | 0°C | 0% | 0hPa | 0V | 00:00:00 | 00:00:00 | 00:00:00 | |
| PETON7-10 | 2026-09-01 07:03:35 | 48.60190 | 18.75993 | 90° | 122km/h | 10996m | -20.5m/s | 0°C | 0% | 0hPa | 0V | 00:00:00 | 00:00:00 | 00:00:00 | |
| SQ9EZE-14 | 2026-09-01 07:03:31 | 48.60189 | 18.75810 | 90° | 120km/h | 11058m | -20.8m/s | -53.2°C | 0% | 0hPa | 0V | 00:00:00 | 00:00:00 | 00:00:00 | |
| PETON7-10 | 2026-09-01 07:03:20 | 48.60171 | 18.75287 | 87° | 122km/h | 11309m | -21.1m/s | 0°C | 0% | 0hPa | 0V | 00:00:00 | 00:00:00 | 00:00:00 | |
| OE3JTB-15 | 2026-09-01 07:03:11 | 48.60160 | 18.74861 | 89° | 124km/h | 11499m | -21.3m/s | 0°C | 0% | 0hPa | 0V | 00:00:00 | 00:00:00 | 00:00:00 | |
| PETON7-10 | 2026-09-01 07:03:05 | 48.60157 | 18.74586 | 88° | 124km/h | 11627m | -21.2m/s | 0°C | 0% | 0hPa | 0V | 00:00:00 | 00:00:00 | 00:00:00 | |
| PETON7-10 | 2026-09-01 07:02:50 | 48.60147 | 18.73877 | 95° | 117km/h | 11946m | -21.4m/s | 0°C | 0% | 0hPa | 0V | 00:00:00 | 00:00:00 | 00:00:00 | |
| OE3JTB-15 | 2026-09-01 07:02:42 | 48.60182 | 18.73500 | 103° | 99km/h | 12118m | -21.3m/s | 0°C | 0% | 0hPa | 0V | 00:00:00 | 00:00:00 | 00:00:00 | |
| PETON7-10 | 2026-09-01 07:02:35 | 48.60212 | 18.73225 | 97° | 95km/h | 12271m | -22.0m/s | 0°C | 0% | 0hPa | 0V | 00:00:00 | 00:00:00 | 00:00:00 | |
| PETON7-10 | 2026-09-01 07:02:20 | 48.60185 | 18.72688 | 78° | 110km/h | 12604m | -22.0m/s | 0°C | 0% | 0hPa | 0V | 00:00:00 | 00:00:00 | 00:00:00 | |
| OE3JTB-15 | 2026-09-01 07:02:13 | 48.60134 | 18.72426 | 72° | 106km/h | 12763m | -22.8m/s | 0°C | 0% | 0hPa | 0V | 00:00:00 | 00:00:00 | 00:00:00 | |
| PETON7-10 | 2026-09-01 07:02:05 | 48.60076 | 18.72084 | 82° | 106km/h | 12950m | -23.8m/s | 0°C | 0% | 0hPa | 0V | 00:00:00 | 00:00:00 | 00:00:00 | |
| PETON7-10 | 2026-09-01 07:01:50 | 48.60047 | 18.71486 | 88° | 91km/h | 13306m | -24.1m/s | 0°C | 0% | 0hPa | 0V | 00:00:00 | 00:00:00 | 00:00:00 | |
| OE3JTB-15 | 2026-09-01 07:01:44 | 48.60043 | 18.71271 | 88° | 86km/h | 13451m | -24.2m/s | 0°C | 0% | 0hPa | 0V | 00:00:00 | 00:00:00 | 00:00:00 | |
| PETON7-10 | 2026-09-01 07:01:35 | 48.60025 | 18.70965 | 85° | 86km/h | 13671m | -24.3m/s | 0°C | 0% | 0hPa | 0V | 00:00:00 | 00:00:00 | 00:00:00 | |
| SQ9EZE-14 | 2026-09-01 07:01:26 | 48.60016 | 18.70656 | 87° | 82km/h | 13868m | -25.0m/s | -51.4°C | 0% | 0hPa | 0V | 00:00:00 | 00:00:00 | 00:00:00 | |
| PETON7-10 | 2026-09-01 07:01:20 | 48.60012 | 18.70478 | 90° | 75km/h | 14044m | -25.6m/s | 0°C | 0% | 0hPa | 0V | 00:00:00 | 00:00:00 | 00:00:00 | |
| OE3JTB-15 | 2026-09-01 07:01:15 | 48.60012 | 18.70329 | 88° | 73km/h | 14167m | -24.6m/s | 0°C | 0% | 0hPa | 0V | 00:00:00 | 00:00:00 | 00:00:00 | |
| PETON7-10 | 2026-09-01 07:01:05 | 48.59985 | 18.70059 | 78° | 73km/h | 14410m | -24.7m/s | 0°C | 0% | 0hPa | 0V | 00:00:00 | 00:00:00 | 00:00:00 | |
| PETON7-10 | 2026-09-01 07:00:50 | 48.59894 | 18.69662 | 71° | 66km/h | 14784m | -25.1m/s | 0°C | 0% | 0hPa | 0V | 00:00:00 | 00:00:00 | 00:00:00 | |
| PETON7-10 | 2026-09-01 07:00:35 | 48.59827 | 18.69306 | 73° | 60km/h | 15164m | -25.9m/s | 0°C | 0% | 0hPa | 0V | 00:00:00 | 00:00:00 | 00:00:00 | |
| SQ9EZE-15 | 2026-09-01 07:00:34 | 48.59823 | 18.69282 | 75° | 66km/h | 15164m | -25.9m/s | -52.3°C | 0% | 0hPa | 0V | 00:00:00 | 00:00:00 | 00:00:00 | |
| PETON7-10 | 2026-09-01 07:00:20 | 48.59755 | 18.68981 | 62° | 60km/h | 15557m | -27.2m/s | 0°C | 0% | 0hPa | 0V | 00:00:00 | 00:00:00 | 00:00:00 | |
| OE3JTB-15 | 2026-09-01 07:00:17 | 48.59736 | 18.68924 | 66° | 62km/h | 15639m | -27.5m/s | 0°C | 0% | 0hPa | 0V | 00:00:00 | 00:00:00 | 00:00:00 | |
| OE3OSB-13 | 2026-09-01 07:00:14 | 48.59715 | 18.68840 | 70° | 58km/h | 15722m | -27.5m/s | -54.7°C | -1.0% | -1.0hPa | 0V | 00:00:00 | 00:00:00 | 00:00:00 | |
| PETON7-10 | 2026-09-01 06:59:50 | 48.59628 | 18.68301 | 93° | 51km/h | 16367m | -29.2m/s | 0°C | 0% | 0hPa | 0V | 00:00:00 | 00:00:00 | 00:00:00 | |
| OE3JTB-15 | 2026-09-01 06:59:48 | 48.59630 | 18.68259 | 101° | 35km/h | 16481m | -28.4m/s | 0°C | 0% | 0hPa | 0V | 00:00:00 | 00:00:00 | 00:00:00 | |
| OE5DXL-15 | 2026-09-01 06:59:47 | 48.59633 | 18.68238 | 101° | 46km/h | 16481m | -28.4m/s | 0°C | 0% | 0hPa | 0V | 00:00:00 | 00:00:00 | 00:00:00 | |
| SP9KGR-15 | 2026-09-01 06:59:44 | 48.59642 | 18.68177 | 106° | 55km/h | 16539m | -29.2m/s | -53.8°C | 0% | 0hPa | 0V | 00:00:00 | 00:00:00 | 00:00:00 | |
| PETON7-10 | 2026-09-01 06:59:35 | 48.59677 | 18.68027 | 106° | 35km/h | 16803m | -29.9m/s | 0°C | 0% | 0hPa | 0V | 00:00:00 | 00:00:00 | 00:00:00 | |
| SP9KGR-15 | 2026-09-01 06:59:28 | 48.59684 | 18.67941 | 82° | 29km/h | 17011m | -29.5m/s | -52.7°C | 0% | 0hPa | 0V | 00:00:00 | 00:00:00 | 00:00:00 | |
| PETON7-10 | 2026-09-01 06:59:20 | 48.59656 | 18.67838 | 70° | 51km/h | 17251m | -30.2m/s | 0°C | 0% | 0hPa | 0V | 00:00:00 | 00:00:00 | 00:00:00 | |
| SP9KGR-15 | 2026-09-01 06:59:13 | 48.59636 | 18.67690 | 85° | 57km/h | 17496m | -30.5m/s | -52.3°C | 0% | 0hPa | 0V | 00:00:00 | 00:00:00 | 00:00:00 | |
| PETON7-10 | 2026-09-01 06:59:05 | 48.59642 | 18.67547 | 107° | 27km/h | 17714m | -31.5m/s | 0°C | 0% | 0hPa | 0V | 00:00:00 | 00:00:00 | 00:00:00 | |
| SQ9EZE-15 | 2026-09-01 06:59:00 | 48.59655 | 18.67471 | 103° | 31km/h | 17871m | -31.5m/s | -51.2°C | 0% | 0hPa | 0V | 00:00:00 | 00:00:00 | 00:00:00 | |
| SQ9EZE-14 | 2026-09-01 06:58:57 | 48.59657 | 18.67440 | 87° | 22km/h | 17965m | -31.6m/s | -51.5°C | 0% | 0hPa | 0V | 00:00:00 | 00:00:00 | 00:00:00 | |
| OE5DXL-15 | 2026-09-01 06:58:56 | 48.59657 | 18.67432 | 86° | 15km/h | 17997m | -31.8m/s | 0°C | 0% | 0hPa | 0V | 00:00:00 | 00:00:00 | 00:00:00 | |
| PETON7-10 | 2026-09-01 06:58:50 | 48.59647 | 18.67401 | 43° | 13km/h | 18185m | -31.9m/s | 0°C | 0% | 0hPa | 0V | 00:00:00 | 00:00:00 | 00:00:00 | |
| SP9KGR-15 | 2026-09-01 06:58:41 | 48.59625 | 18.67396 | 20° | 13km/h | 18475m | -33.0m/s | -53.1°C | 0% | 0hPa | 0V | 00:00:00 | 00:00:00 | 00:00:00 | |
| DO3MHA-12 | 2026-09-01 06:58:38 | 48.59613 | 18.67390 | 21° | 24km/h | 18605m | -32.2m/s | 0°C | 0% | 0hPa | 0V | 00:00:00 | 00:00:00 | 00:00:00 | |
| PETON7-10 | 2026-09-01 06:58:35 | 48.59601 | 18.67382 | 27° | 26km/h | 18672m | -33.6m/s | 0°C | 0% | 0hPa | 0V | 00:00:00 | 00:00:00 | 00:00:00 | |
| DO3MHA-12 | 2026-09-01 06:58:26 | 48.59566 | 18.67318 | 68° | 29km/h | 19003m | -33.6m/s | 0°C | 0% | 0hPa | 0V | 00:00:00 | 00:00:00 | 00:00:00 | |
| SP9KGR-15 | 2026-09-01 06:58:23 | 48.59554 | 18.67277 | 67° | 27km/h | 19071m | -34.3m/s | -54.5°C | 0% | 0hPa | 0V | 00:00:00 | 00:00:00 | 00:00:00 | |
| PETON7-10 | 2026-09-01 06:58:20 | 48.59549 | 18.67257 | 70° | 26km/h | 19173m | -34.1m/s | 0°C | 0% | 0hPa | 0V | 00:00:00 | 00:00:00 | 00:00:00 | |
| DO3MHA-12 | 2026-09-01 06:58:16 | 48.59541 | 18.67215 | 83° | 20km/h | 19625m | -35.9m/s | 0°C | 0% | 0hPa | 0V | 00:00:00 | 00:00:00 | 00:00:00 | |
| PETON7-10 | 2026-09-01 06:58:05 | 48.59543 | 18.67116 | 94° | 11km/h | 19697m | -36.0m/s | 0°C | 0% | 0hPa | 0V | 00:00:00 | 00:00:00 | 00:00:00 | |
| DO3MHA-12 | 2026-09-01 06:58:01 | 48.59548 | 18.67095 | 135° | 18km/h | 19876m | -35.5m/s | 0°C | 0% | 0hPa | 0V | 00:00:00 | 00:00:00 | 00:00:00 | |
| PETON7-10 | 2026-09-01 06:57:50 | 48.59559 | 18.67063 | 175° | 5km/h | 20231m | -36.6m/s | 0°C | 0% | 0hPa | 0V | 00:00:00 | 00:00:00 | 00:00:00 | |
| OE5DXL-15 | 2026-09-01 06:57:46 | 48.59558 | 18.67061 | 26° | 7km/h | 20457m | -37.6m/s | 0°C | 0% | 0hPa | 0V | 00:00:00 | 00:00:00 | 00:00:00 | |
| OE3JTB-15 | 2026-09-01 06:57:44 | 48.59554 | 18.67060 | 18° | 9km/h | 20495m | -37.5m/s | 0°C | 0% | 0hPa | 0V | 00:00:00 | 00:00:00 | 00:00:00 | |
| PETON7-10 | 2026-09-01 06:57:35 | 48.59552 | 18.67070 | 237° | 7km/h | 20837m | -38.8m/s | 0°C | 0% | 0hPa | 0V | 00:00:00 | 00:00:00 | 00:00:00 | |
| PETON7-10 | 2026-09-01 06:57:20 | 48.59542 | 18.67093 | 3° | 13km/h | 21423m | -39.0m/s | 0°C | 0% | 0hPa | 0V | 00:00:00 | 00:00:00 | 00:00:00 | |
| PETON7-10 | 2026-09-01 06:57:03 | 48.59491 | 18.67110 | 349° | 13km/h | 22121m | -42.2m/s | 0°C | 0% | 0hPa | 0V | 00:00:00 | 00:00:00 | 00:00:00 | |
| SP9KGR-15 | 2026-09-01 06:56:52 | 48.59452 | 18.67102 | 22° | 11km/h | 22599m | -42.8m/s | -52.5°C | 0% | 0hPa | 0V | 00:00:00 | 00:00:00 | 00:00:00 | |
| PETON7-10 | 2026-09-01 06:56:48 | 48.59448 | 18.67101 | 5° | 9km/h | 22777m | -44.2m/s | 0°C | 0% | 0hPa | 0V | 00:00:00 | 00:00:00 | 00:00:00 | |
| PETON7-10 | 2026-09-01 06:56:34 | 48.59428 | 18.67072 | 89° | 5km/h | 23474m | -48.9m/s | 0°C | 0% | 0hPa | 0V | 00:00:00 | 00:00:00 | 00:00:00 | |
| PETON7-10 | 2026-09-01 06:56:18 | 48.59428 | 18.67056 | 352° | 9km/h | 24207m | -47.6m/s | 0°C | 0% | 0hPa | 0V | 00:00:00 | 00:00:00 | 00:00:00 | |
| OE5DXL-15 | 2026-09-01 06:56:12 | 48.59423 | 18.67047 | 93° | 16km/h | 24508m | -52.6m/s | 0°C | 0% | 0hPa | 0V | 00:00:00 | 00:00:00 | 00:00:00 | |
| SP9KGR-15 | 2026-09-01 06:56:09 | 48.59430 | 18.67039 | 170° | 15km/h | 24669m | -55.2m/s | -49.9°C | 0% | 0hPa | 0V | 00:00:00 | 00:00:00 | 00:00:00 | |
| OE5MMP-10 | 2026-09-01 06:56:08 | 48.59430 | 18.67039 | 169° | 15km/h | 24968m | -63.7m/s | 0°C | 0% | 0hPa | 0V | 00:00:00 | 00:00:00 | 00:00:00 | |
| OE3OSB-13 | 2026-09-01 06:56:06 | 48.59441 | 18.67037 | 194° | 7km/h | 24842m | -62.2m/s | -50.0°C | -1.0% | -1.0hPa | 0V | 00:00:00 | 00:00:00 | 00:00:00 | |
| OE3JTB-15 | 2026-09-01 06:55:59 | 48.59461 | 18.67040 | 187° | 18km/h | 25286m | -63.1m/s | 0°C | 0% | 0hPa | 0V | 00:00:00 | 00:00:00 | 00:00:00 | |
| OE5MMP-10 | 2026-09-01 06:55:58 | 48.59464 | 18.67041 | 198° | 16km/h | 25286m | -63.1m/s | 0°C | 0% | 0hPa | 0V | 00:00:00 | 00:00:00 | 00:00:00 | |
| SP9KGR-15 | 2026-09-01 06:55:51 | 48.59486 | 18.67062 | 248° | 11km/h | 25681m | -47.5m/s | -48.9°C | 0% | 0hPa | 0V | 00:00:00 | 00:00:00 | 00:00:00 | |
| PETON7-10 | 2026-09-01 06:55:48 | 48.59488 | 18.67080 | 236° | 18km/h | 25851m | -32.8m/s | 0°C | 0% | 0hPa | 0V | 00:00:00 | 00:00:00 | 00:00:00 | |
| OE5MMP-10 | 2026-09-01 06:55:47 | 48.59491 | 18.67084 | 206° | 20km/h | 25851m | -32.8m/s | 0°C | 0% | 0hPa | 0V | 00:00:00 | 00:00:00 | 00:00:00 | |
| OE5MMP-10 | 2026-09-01 06:55:35 | 48.59515 | 18.67112 | 205° | 22km/h | 25854m | 6.1m/s | 0°C | 0% | 0hPa | 0V | 00:00:00 | 00:00:00 | 00:00:00 | |
| PETON7-10 | 2026-09-01 06:55:33 | 48.59528 | 18.67113 | 171° | 18km/h | 25845m | 5.9m/s | 0°C | 0% | 0hPa | 0V | 00:00:00 | 00:00:00 | 00:00:00 | |
| OE5DXL-15 | 2026-09-01 06:55:32 | 48.59533 | 18.67111 | 253° | 16km/h | 25835m | 3.4m/s | 0°C | 0% | 0hPa | 0V | 00:00:00 | 00:00:00 | 00:00:00 | |
| OE3JTB-15 | 2026-09-01 06:55:26 | 48.59555 | 18.67123 | 204° | 16km/h | 25804m | 3.9m/s | 0°C | 0% | 0hPa | 0V | 00:00:00 | 00:00:00 | 00:00:00 | |
| OE5MMP-10 | 2026-09-01 06:55:25 | 48.59557 | 18.67129 | 190° | 15km/h | 25804m | 3.9m/s | 0°C | 0% | 0hPa | 0V | 00:00:00 | 00:00:00 | 00:00:00 | |
| SP9KGR-15 | 2026-09-01 06:55:20 | 48.59577 | 18.67129 | 237° | 15km/h | 25784m | 6.8m/s | -49.9°C | 0% | 0hPa | 0V | 00:00:00 | 00:00:00 | 00:00:00 | |
| PETON7-10 | 2026-09-01 06:55:18 | 48.59578 | 18.67138 | 209° | 18km/h | 25769m | 6.1m/s | 0°C | 0% | 0hPa | 0V | 00:00:00 | 00:00:00 | 00:00:00 | |
| OE5MMP-10 | 2026-09-01 06:55:15 | 48.59590 | 18.67138 | 204° | 18km/h | 25745m | 3.7m/s | 0°C | 0% | 0hPa | 0V | 00:00:00 | 00:00:00 | 00:00:00 | |
| SP9KGR-15 | 2026-09-01 06:55:05 | 48.59605 | 18.67175 | 202° | 16km/h | 25709m | 6.2m/s | -49.6°C | 0% | 0hPa | 0V | 00:00:00 | 00:00:00 | 00:00:00 | |
| OE5MMP-10 | 2026-09-01 06:55:04 | 48.59610 | 18.67174 | 176° | 18km/h | 25699m | 4.1m/s | 0°C | 0% | 0hPa | 0V | 00:00:00 | 00:00:00 | 00:00:00 | |
| PETON7-10 | 2026-09-01 06:55:03 | 48.59614 | 18.67174 | 176° | 16km/h | 25694m | 5.8m/s | 0°C | 0% | 0hPa | 0V | 00:00:00 | 00:00:00 | 00:00:00 | |
| OE5DXL-15 | 2026-09-01 06:54:58 | 48.59618 | 18.67194 | 183° | 16km/h | 25669m | 3.7m/s | 0°C | 0% | 0hPa | 0V | 00:00:00 | 00:00:00 | 00:00:00 | |
| OE3JTB-15 | 2026-09-01 06:54:57 | 48.59623 | 18.67194 | 226° | 18km/h | 25669m | 3.7m/s | 0°C | 0% | 0hPa | 0V | 00:00:00 | 00:00:00 | 00:00:00 | |
| DO3MHA-12 | 2026-09-01 06:54:55 | 48.59621 | 18.67203 | 290° | 16km/h | 25653m | 4.4m/s | 0°C | 0% | 0hPa | 0V | 00:00:00 | 00:00:00 | 00:00:00 | |
| OE5MMP-10 | 2026-09-01 06:54:54 | 48.59620 | 18.67210 | 243° | 16km/h | 25648m | 6.5m/s | 0°C | 0% | 0hPa | 0V | 00:00:00 | 00:00:00 | 00:00:00 | |
| SP9KGR-15 | 2026-09-01 06:54:50 | 48.59630 | 18.67218 | 290° | 13km/h | 25633m | 5.9m/s | -49.7°C | 0% | 0hPa | 0V | 00:00:00 | 00:00:00 | 00:00:00 | |
| PETON7-10 | 2026-09-01 06:54:48 | 48.59627 | 18.67229 | 226° | 16km/h | 25618m | 6.9m/s | 0°C | 0% | 0hPa | 0V | 00:00:00 | 00:00:00 | 00:00:00 | |
| OE5MMP-10 | 2026-09-01 06:54:44 | 48.59640 | 18.67237 | 284° | 16km/h | 25594m | 5.0m/s | 0°C | 0% | 0hPa | 0V | 00:00:00 | 00:00:00 | 00:00:00 | |
| SP9KGR-15 | 2026-09-01 06:54:35 | 48.59652 | 18.67268 | 183° | 22km/h | 25559m | 4.9m/s | -50.3°C | 0% | 0hPa | 0V | 00:00:00 | 00:00:00 | 00:00:00 | |
| OE5MMP-10 | 2026-09-01 06:54:34 | 48.59658 | 18.67267 | 273° | 20km/h | 25540m | 3.5m/s | 0°C | 0% | 0hPa | 0V | 00:00:00 | 00:00:00 | 00:00:00 | |
| PETON7-10 | 2026-09-01 06:54:33 | 48.59662 | 18.67273 | 237° | 18km/h | 25544m | 3.9m/s | 0°C | 0% | 0hPa | 0V | 00:00:00 | 00:00:00 | 00:00:00 | |
| OE5DXL-15 | 2026-09-01 06:54:28 | 48.59675 | 18.67290 | 209° | 16km/h | 25510m | 4.8m/s | 0°C | 0% | 0hPa | 0V | 00:00:00 | 00:00:00 | 00:00:00 | |
| OE5MMP-10 | 2026-09-01 06:54:23 | 48.59687 | 18.67307 | 169° | 16km/h | 25499m | 3.4m/s | 0°C | 0% | 0hPa | 0V | 00:00:00 | 00:00:00 | 00:00:00 | |
| SP9KGR-15 | 2026-09-01 06:54:19 | 48.59696 | 18.67320 | 192° | 11km/h | 25480m | 5.0m/s | -50.6°C | 0% | 0hPa | 0V | 00:00:00 | 00:00:00 | 00:00:00 | |
| PETON7-10 | 2026-09-01 06:54:18 | 48.59699 | 18.67320 | 158° | 18km/h | 25470m | 3.2m/s | 0°C | 0% | 0hPa | 0V | 00:00:00 | 00:00:00 | 00:00:00 | |
| OE5MMP-10 | 2026-09-01 06:54:12 | 48.59722 | 18.67327 | 144° | 16km/h | 25445m | 6.4m/s | 0°C | 0% | 0hPa | 0V | 00:00:00 | 00:00:00 | 00:00:00 | |
| PETON7-10 | 2026-09-01 06:54:03 | 48.59752 | 18.67324 | 211° | 20km/h | 25396m | 5.5m/s | 0°C | 0% | 0hPa | 0V | 00:00:00 | 00:00:00 | 00:00:00 | |
| OE5MMP-10 | 2026-09-01 06:54:01 | 48.59760 | 18.67325 | 158° | 18km/h | 25386m | 2.9m/s | 0°C | 0% | 0hPa | 0V | 00:00:00 | 00:00:00 | 00:00:00 | |
| OE3JTB-15 | 2026-09-01 06:53:59 | 48.59768 | 18.67322 | 226° | 20km/h | 25367m | 6.2m/s | 0°C | 0% | 0hPa | 0V | 00:00:00 | 00:00:00 | 00:00:00 | |
| OE5DXL-15 | 2026-09-01 06:53:55 | 48.59785 | 18.67325 | 145° | 18km/h | 25361m | 4.9m/s | 0°C | 0% | 0hPa | 0V | 00:00:00 | 00:00:00 | 00:00:00 | |
| OE5MMP-10 | 2026-09-01 06:53:51 | 48.59795 | 18.67323 | 190° | 20km/h | 25328m | 3.5m/s | 0°C | 0% | 0hPa | 0V | 00:00:00 | 00:00:00 | 00:00:00 | |
| PETON7-10 | 2026-09-01 06:53:48 | 48.59812 | 18.67310 | 141° | 18km/h | 25322m | 6.8m/s | 0°C | 0% | 0hPa | 0V | 00:00:00 | 00:00:00 | 00:00:00 | |
| OE5MMP-10 | 2026-09-01 06:53:41 | 48.59836 | 18.67295 | 167° | 16km/h | 25288m | 3.1m/s | 0°C | 0% | 0hPa | 0V | 00:00:00 | 00:00:00 | 00:00:00 | |
| PETON7-10 | 2026-09-01 06:53:33 | 48.59861 | 18.67265 | 125° | 20km/h | 25255m | 5.8m/s | 0°C | 0% | 0hPa | 0V | 00:00:00 | 00:00:00 | 00:00:00 | |
| OE5MMP-10 | 2026-09-01 06:53:31 | 48.59871 | 18.67240 | 159° | 24km/h | 25241m | 6.1m/s | 0°C | 0% | 0hPa | 0V | 00:00:00 | 00:00:00 | 00:00:00 | |
| OE3JTB-15 | 2026-09-01 06:53:30 | 48.59877 | 18.67241 | 159° | 20km/h | 25230m | 3.2m/s | 0°C | 0% | 0hPa | 0V | 00:00:00 | 00:00:00 | 00:00:00 | |
| GYPAP8-17 | 2026-09-01 06:53:26 | 48.59883 | 18.67234 | 120° | 35km/h | 25219m | 5.6m/s | -50.9°C | 0% | 0hPa | 0V | 00:00:00 | 00:00:00 | 00:00:00 | |
| OE5DXL-15 | 2026-09-01 06:53:25 | 48.59888 | 18.67223 | 135° | 16km/h | 25215m | 2.4m/s | 0°C | 0% | 0hPa | 0V | 00:00:00 | 00:00:00 | 00:00:00 | |
| OE5MMP-10 | 2026-09-01 06:53:21 | 48.59899 | 18.67218 | 114° | 16km/h | 25185m | 4.6m/s | 0°C | 0% | 0hPa | 0V | 00:00:00 | 00:00:00 | 00:00:00 | |
| PETON7-10 | 2026-09-01 06:53:18 | 48.59907 | 18.67196 | 139° | 13km/h | 25180m | 5.3m/s | 0°C | 0% | 0hPa | 0V | 00:00:00 | 00:00:00 | 00:00:00 | |
| SP9KGR-15 | 2026-09-01 06:53:16 | 48.59910 | 18.67196 | 125° | 2km/h | 25171m | 3.2m/s | -50.9°C | 0% | 0hPa | 0V | 00:00:00 | 00:00:00 | 00:00:00 | |
| OE5MMP-10 | 2026-09-01 06:53:11 | 48.59919 | 18.67171 | 238° | 13km/h | 25141m | 3.6m/s | 0°C | 0% | 0hPa | 0V | 00:00:00 | 00:00:00 | 00:00:00 | |
| PETON7-10 | 2026-09-01 06:53:03 | 48.59931 | 18.67151 | 150° | 18km/h | 25106m | 6.5m/s | 0°C | 0% | 0hPa | 0V | 00:00:00 | 00:00:00 | 00:00:00 | |
| OE5MMP-10 | 2026-09-01 06:53:01 | 48.59939 | 18.67147 | 167° | 18km/h | 25092m | 7.0m/s | 0°C | 0% | 0hPa | 0V | 00:00:00 | 00:00:00 | 00:00:00 | |
| OE5DXL-15 | 2026-09-01 06:52:53 | 48.59948 | 18.67115 | 245° | 16km/h | 25042m | 4.8m/s | 0°C | 0% | 0hPa | 0V | 00:00:00 | 00:00:00 | 00:00:00 | |
| OE5MMP-10 | 2026-09-01 06:52:50 | 48.59956 | 18.67116 | 128° | 16km/h | 25037m | 4.9m/s | 0°C | 0% | 0hPa | 0V | 00:00:00 | 00:00:00 | 00:00:00 | |
| SQ9EZE-15 | 2026-09-01 06:52:49 | 48.59960 | 18.67113 | 128° | 18km/h | 25037m | 4.9m/s | -50.3°C | 0% | 0hPa | 0V | 00:00:00 | 00:00:00 | 00:00:00 | |
| PETON7-10 | 2026-09-01 06:52:48 | 48.59962 | 18.67109 | 202° | 15km/h | 25032m | 5.8m/s | 0°C | 0% | 0hPa | 0V | 00:00:00 | 00:00:00 | 00:00:00 | |
| SP9KGR-15 | 2026-09-01 06:52:45 | 48.59967 | 18.67112 | 163° | 22km/h | 25017m | 6.3m/s | -50.2°C | 0% | 0hPa | 0V | 00:00:00 | 00:00:00 | 00:00:00 | |
| OE5MMP-10 | 2026-09-01 06:52:40 | 48.59980 | 18.67109 | 149° | 16km/h | 24972m | 5.8m/s | 0°C | 0% | 0hPa | 0V | 00:00:00 | 00:00:00 | 00:00:00 | |
| PETON7-10 | 2026-09-01 06:52:33 | 48.60006 | 18.67104 | 162° | 20km/h | 24957m | 3.9m/s | 0°C | 0% | 0hPa | 0V | 00:00:00 | 00:00:00 | 00:00:00 | |
| OE5MMP-10 | 2026-09-01 06:52:30 | 48.60020 | 18.67108 | 220° | 18km/h | 24938m | 4.3m/s | 0°C | 0% | 0hPa | 0V | 00:00:00 | 00:00:00 | 00:00:00 | |
| SP9KGR-15 | 2026-09-01 06:52:29 | 48.60023 | 18.67112 | 177° | 15km/h | 24938m | 4.4m/s | -50.2°C | 0% | 0hPa | 0V | 00:00:00 | 00:00:00 | 00:00:00 | |
| SQ9EZE-15 | 2026-09-01 06:52:26 | 48.60033 | 18.67101 | 204° | 11km/h | 24924m | 4.6m/s | -50.2°C | 0% | 0hPa | 0V | 00:00:00 | 00:00:00 | 00:00:00 | |
| OE5DXL-15 | 2026-09-01 06:52:23 | 48.60043 | 18.67119 | 213° | 18km/h | 24874m | 4.8m/s | 0°C | 0% | 0hPa | 0V | 00:00:00 | 00:00:00 | 00:00:00 | |
| OE5MMP-10 | 2026-09-01 06:52:20 | 48.60055 | 18.67108 | 179° | 16km/h | 24894m | 4.3m/s | 0°C | 0% | 0hPa | 0V | 00:00:00 | 00:00:00 | 00:00:00 | |
| PETON7-10 | 2026-09-01 06:52:18 | 48.60057 | 18.67116 | 246° | 18km/h | 24883m | 5.0m/s | 0°C | 0% | 0hPa | 0V | 00:00:00 | 00:00:00 | 00:00:00 | |
| SP9KGR-15 | 2026-09-01 06:52:12 | 48.60075 | 18.67130 | 206° | 15km/h | 24854m | 3.3m/s | -50.2°C | 0% | 0hPa | 0V | 00:00:00 | 00:00:00 | 00:00:00 | |
| OE5MMP-10 | 2026-09-01 06:52:10 | 48.60085 | 18.67132 | 167° | 16km/h | 24838m | 4.1m/s | 0°C | 0% | 0hPa | 0V | 00:00:00 | 00:00:00 | 00:00:00 | |
| PETON7-10 | 2026-09-01 06:52:03 | 48.60112 | 18.67133 | 190° | 16km/h | 24809m | 4.7m/s | 0°C | 0% | 0hPa | 0V | 00:00:00 | 00:00:00 | 00:00:00 | |
| OE3JTB-15 | 2026-09-01 06:52:01 | 48.60117 | 18.67141 | 264° | 18km/h | 24798m | 3.9m/s | 0°C | 0% | 0hPa | 0V | 00:00:00 | 00:00:00 | 00:00:00 | |
| SP9KGR-15 | 2026-09-01 06:51:56 | 48.60133 | 18.67134 | 229° | 9km/h | 24773m | 4.4m/s | -50.2°C | 0% | 0hPa | 0V | 00:00:00 | 00:00:00 | 00:00:00 | |
| OE5MMP-10 | 2026-09-01 06:51:48 | 48.60154 | 18.67115 | 106° | 18km/h | 24730m | 3.7m/s | 0°C | 0% | 0hPa | 0V | 00:00:00 | 00:00:00 | 00:00:00 | |
| OE5DXL-15 | 2026-09-01 06:51:47 | 48.60157 | 18.67108 | 106° | 13km/h | 24725m | 6.1m/s | 0°C | 0% | 0hPa | 0V | 00:00:00 | 00:00:00 | 00:00:00 | |
| SP9KGR-15 | 2026-09-01 06:51:41 | 48.60168 | 18.67079 | 94° | 20km/h | 24703m | 3.7m/s | -50.4°C | 0% | 0hPa | 0V | 00:00:00 | 00:00:00 | 00:00:00 | |
| OE5MMP-10 | 2026-09-01 06:51:38 | 48.60162 | 18.67074 | 122° | 15km/h | 24672m | 3.8m/s | 0°C | 0% | 0hPa | 0V | 00:00:00 | 00:00:00 | 00:00:00 | |
| PETON7-10 | 2026-09-01 06:51:33 | 48.60168 | 18.67042 | 20° | 16km/h | 24661m | 5.3m/s | 0°C | 0% | 0hPa | 0V | 00:00:00 | 00:00:00 | 00:00:00 | |
| OE3JTB-15 | 2026-09-01 06:51:32 | 48.60164 | 18.67041 | 66° | 16km/h | 24651m | 5.0m/s | 0°C | 0% | 0hPa | 0V | 00:00:00 | 00:00:00 | 00:00:00 | |
| OE5MMP-10 | 2026-09-01 06:51:27 | 48.60162 | 18.67019 | 28° | 16km/h | 24627m | 5.6m/s | 0°C | 0% | 0hPa | 0V | 00:00:00 | 00:00:00 | 00:00:00 | |
| SP9KGR-15 | 2026-09-01 06:51:24 | 48.60162 | 18.67008 | 84° | 15km/h | 24618m | 2.5m/s | -50.7°C | 0% | 0hPa | 0V | 00:00:00 | 00:00:00 | 00:00:00 | |
| PETON7-10 | 2026-09-01 06:51:18 | 48.60151 | 18.66984 | 95° | 16km/h | 24589m | 2.9m/s | 0°C | 0% | 0hPa | 0V | 00:00:00 | 00:00:00 | 00:00:00 | |
| OE5MMP-10 | 2026-09-01 06:51:17 | 48.60151 | 18.66979 | 21° | 16km/h | 24579m | 5.5m/s | 0°C | 0% | 0hPa | 0V | 00:00:00 | 00:00:00 | 00:00:00 | |
| OE5MMP-10 | 2026-09-01 06:51:07 | 48.60121 | 18.66945 | 30° | 18km/h | 24532m | 5.5m/s | 0°C | 0% | 0hPa | 0V | 00:00:00 | 00:00:00 | 00:00:00 | |
| PETON7-10 | 2026-09-01 06:51:03 | 48.60107 | 18.66940 | 65° | 15km/h | 24513m | 4.1m/s | 0°C | 0% | 0hPa | 0V | 00:00:00 | 00:00:00 | 00:00:00 | |
| OE5MMP-10 | 2026-09-01 06:50:57 | 48.60090 | 18.66930 | 57° | 18km/h | 24475m | 6.3m/s | 0°C | 0% | 0hPa | 0V | 00:00:00 | 00:00:00 | 00:00:00 | |
| SP9KGR-15 | 2026-09-01 06:50:53 | 48.60081 | 18.66921 | 8° | 31km/h | 24471m | 2.9m/s | -50.7°C | 0% | 0hPa | 0V | 00:00:00 | 00:00:00 | 00:00:00 | |
| PETON7-10 | 2026-09-01 06:50:48 | 48.60067 | 18.66908 | 18° | 18km/h | 24443m | 3.1m/s | 0°C | 0% | 0hPa | 0V | 00:00:00 | 00:00:00 | 00:00:00 | |
| OE5DXL-15 | 2026-09-01 06:50:47 | 48.60061 | 18.66905 | 22° | 18km/h | 24439m | 5.5m/s | 0°C | 0% | 0hPa | 0V | 00:00:00 | 00:00:00 | 00:00:00 | |
| OE5MMP-10 | 2026-09-01 06:50:46 | 48.60055 | 18.66901 | 43° | 16km/h | 24433m | 5.1m/s | 0°C | 0% | 0hPa | 0V | 00:00:00 | 00:00:00 | 00:00:00 | |
| SP9KGR-15 | 2026-09-01 06:50:38 | 48.60033 | 18.66877 | 0° | 0km/h | 24402m | 4.0m/s | -50.8°C | 0% | 0hPa | 0V | 00:00:00 | 00:00:00 | 00:00:00 | |
| OE5MMP-10 | 2026-09-01 06:50:36 | 48.60025 | 18.66876 | 13° | 15km/h | 24389m | 4.6m/s | 0°C | 0% | 0hPa | 0V | 00:00:00 | 00:00:00 | 00:00:00 | |
| OE3JTB-15 | 2026-09-01 06:50:34 | 48.60016 | 18.66865 | 82° | 16km/h | 24380m | 3.9m/s | 0°C | 0% | 0hPa | 0V | 00:00:00 | 00:00:00 | 00:00:00 | |
| PETON7-10 | 2026-09-01 06:50:33 | 48.60016 | 18.66860 | 92° | 15km/h | 24375m | 5.8m/s | 0°C | 0% | 0hPa | 0V | 00:00:00 | 00:00:00 | 00:00:00 | |
| OE5MMP-10 | 2026-09-01 06:50:24 | 48.59997 | 18.66849 | 359° | 22km/h | 24338m | 4.4m/s | 0°C | 0% | 0hPa | 0V | 00:00:00 | 00:00:00 | 00:00:00 | |
| SP9KGR-15 | 2026-09-01 06:50:23 | 48.59995 | 18.66848 | 84° | 7km/h | 24333m | 5.7m/s | -51.2°C | 0% | 0hPa | 0V | 00:00:00 | 00:00:00 | 00:00:00 | |
| PETON7-10 | 2026-09-01 06:50:18 | 48.59982 | 18.66842 | 323° | 16km/h | 24307m | 5.0m/s | 0°C | 0% | 0hPa | 0V | 00:00:00 | 00:00:00 | 00:00:00 | |
| OE5DXL-15 | 2026-09-01 06:50:17 | 48.59990 | 18.66845 | 90° | 16km/h | 24307m | 5.0m/s | 0°C | 0% | 0hPa | 0V | 00:00:00 | 00:00:00 | 00:00:00 | |
| OE5MMP-10 | 2026-09-01 06:50:14 | 48.59977 | 18.66832 | 18° | 13km/h | 24291m | 2.5m/s | 0°C | 0% | 0hPa | 0V | 00:00:00 | 00:00:00 | 00:00:00 | |
| SP9KGR-15 | 2026-09-01 06:50:08 | 48.59951 | 18.66835 | 3° | 35km/h | 24265m | 2.6m/s | -51.3°C | 0% | 0hPa | 0V | 00:00:00 | 00:00:00 | 00:00:00 | |
| OE3JTB-15 | 2026-09-01 06:50:05 | 48.59942 | 18.66835 | 279° | 16km/h | 24252m | 3.4m/s | 0°C | 0% | 0hPa | 0V | 00:00:00 | 00:00:00 | 00:00:00 | |
| PETON7-10 | 2026-09-01 06:50:03 | 48.59942 | 18.66840 | 348° | 20km/h | 24243m | 4.8m/s | 0°C | 0% | 0hPa | 0V | 00:00:00 | 00:00:00 | 00:00:00 | |
| OE5MMP-10 | 2026-09-01 06:50:01 | 48.59932 | 18.66841 | 11° | 26km/h | 24235m | 4.9m/s | 0°C | 0% | 0hPa | 0V | 00:00:00 | 00:00:00 | 00:00:00 | |
| SQ9EZE-15 | 2026-09-01 06:49:53 | 48.59906 | 18.66854 | 287° | 15km/h | 24201m | 2.8m/s | -51.5°C | 0% | 0hPa | 0V | 00:00:00 | 00:00:00 | 00:00:00 | |
| SP9KGR-15 | 2026-09-01 06:49:51 | 48.59904 | 18.66860 | 314° | 24km/h | 24197m | 5.2m/s | -51.6°C | 0% | 0hPa | 0V | 00:00:00 | 00:00:00 | 00:00:00 | |
| OE5MMP-10 | 2026-09-01 06:49:49 | 48.59891 | 18.66880 | 345° | 22km/h | 24162m | 3.9m/s | 0°C | 0% | 0hPa | 0V | 00:00:00 | 00:00:00 | 00:00:00 | |
| PETON7-10 | 2026-09-01 06:49:48 | 48.59887 | 18.66869 | 256° | 15km/h | 24179m | 4.2m/s | 0°C | 0% | 0hPa | 0V | 00:00:00 | 00:00:00 | 00:00:00 | |
| OE5MMP-10 | 2026-09-01 06:49:39 | 48.59880 | 18.66895 | 304° | 13km/h | 24139m | 4.5m/s | 0°C | 0% | 0hPa | 0V | 00:00:00 | 00:00:00 | 00:00:00 | |
| SP9KGR-15 | 2026-09-01 06:49:36 | 48.59868 | 18.66906 | 191° | 9km/h | 24125m | 4.0m/s | -51.2°C | 0% | 0hPa | 0V | 00:00:00 | 00:00:00 | 00:00:00 | |
| PETON7-10 | 2026-09-01 06:49:33 | 48.59869 | 18.66910 | 291° | 11km/h | 24111m | 3.5m/s | 0°C | 0% | 0hPa | 0V | 00:00:00 | 00:00:00 | 00:00:00 | |
| SQ9EZE-15 | 2026-09-01 06:49:32 | 48.59867 | 18.66915 | 281° | 18km/h | 24111m | 3.5m/s | -51.2°C | 0% | 0hPa | 0V | 00:00:00 | 00:00:00 | 00:00:00 | |
| OE5MMP-10 | 2026-09-01 06:49:29 | 48.59868 | 18.66919 | 54° | 11km/h | 24093m | 5.5m/s | 0°C | 0% | 0hPa | 0V | 00:00:00 | 00:00:00 | 00:00:00 | |
| SP9KGR-15 | 2026-09-01 06:49:20 | 48.59863 | 18.66925 | 77° | 7km/h | 24058m | 4.8m/s | -51.0°C | 0% | 0hPa | 0V | 00:00:00 | 00:00:00 | 00:00:00 | |
| OE5MMP-10 | 2026-09-01 06:49:19 | 48.59863 | 18.66922 | 166° | 5km/h | 24049m | 3.9m/s | 0°C | 0% | 0hPa | 0V | 00:00:00 | 00:00:00 | 00:00:00 | |
| PETON7-10 | 2026-09-01 06:49:18 | 48.59865 | 18.66921 | 166° | 7km/h | 24044m | 4.8m/s | 0°C | 0% | 0hPa | 0V | 00:00:00 | 00:00:00 | 00:00:00 | |
| GYPAP8-17 | 2026-09-01 06:49:16 | 48.59865 | 18.66921 | 257° | 5km/h | 24040m | 3.7m/s | -50.9°C | 0% | 0hPa | 0V | 00:00:00 | 00:00:00 | 00:00:00 | |
| OE5MMP-10 | 2026-09-01 06:49:09 | 48.59871 | 18.66919 | 171° | 9km/h | 24004m | 2.7m/s | 0°C | 0% | 0hPa | 0V | 00:00:00 | 00:00:00 | 00:00:00 | |
| OE3JTB-15 | 2026-09-01 06:49:07 | 48.59879 | 18.66918 | 81° | 16km/h | 23978m | 3.6m/s | 0°C | 0% | 0hPa | 0V | 00:00:00 | 00:00:00 | 00:00:00 | |
| SP9KGR-15 | 2026-09-01 06:49:05 | 48.59877 | 18.66916 | 169° | 2km/h | 23992m | 2.2m/s | -50.9°C | 0% | 0hPa | 0V | 00:00:00 | 00:00:00 | 00:00:00 | |
| PETON7-10 | 2026-09-01 06:49:03 | 48.59884 | 18.66914 | 177° | 16km/h | 23978m | 3.6m/s | 0°C | 0% | 0hPa | 0V | 00:00:00 | 00:00:00 | 00:00:00 | |
| OE5MMP-10 | 2026-09-01 06:48:59 | 48.59894 | 18.66912 | 164° | 9km/h | 23951m | 4.8m/s | 0°C | 0% | 0hPa | 0V | 00:00:00 | 00:00:00 | 00:00:00 | |
| SP9KGR-15 | 2026-09-01 06:48:50 | 48.59929 | 18.66897 | 139° | 18km/h | 23925m | 5.5m/s | -50.8°C | 0% | 0hPa | 0V | 00:00:00 | 00:00:00 | 00:00:00 | |
| PETON7-10 | 2026-09-01 06:48:48 | 48.59930 | 18.66887 | 118° | 18km/h | 23911m | 4.9m/s | 0°C | 0% | 0hPa | 0V | 00:00:00 | 00:00:00 | 00:00:00 | |
| OE5MMP-10 | 2026-09-01 06:48:47 | 48.59932 | 18.66886 | 166° | 16km/h | 23901m | 4.4m/s | 0°C | 0% | 0hPa | 0V | 00:00:00 | 00:00:00 | 00:00:00 | |
| OE5MMP-10 | 2026-09-01 06:48:37 | 48.59963 | 18.66849 | 127° | 18km/h | 23852m | 3.7m/s | 0°C | 0% | 0hPa | 0V | 00:00:00 | 00:00:00 | 00:00:00 | |
| OE3JTB-15 | 2026-09-01 06:48:34 | 48.59975 | 18.66842 | 108° | 18km/h | 23848m | 5.6m/s | 0°C | 0% | 0hPa | 0V | 00:00:00 | 00:00:00 | 00:00:00 | |
| PETON7-10 | 2026-09-01 06:48:33 | 48.59979 | 18.66835 | 108° | 20km/h | 23843m | 3.7m/s | 0°C | 0% | 0hPa | 0V | 00:00:00 | 00:00:00 | 00:00:00 | |
| OE5MMP-10 | 2026-09-01 06:48:25 | 48.59999 | 18.66787 | 126° | 20km/h | 23812m | 5.5m/s | 0°C | 0% | 0hPa | 0V | 00:00:00 | 00:00:00 | 00:00:00 | |
| SQ9EZE-14 | 2026-09-01 06:48:20 | 48.60006 | 18.66758 | 127° | 16km/h | 23790m | 5.2m/s | -50.8°C | 0% | 0hPa | 0V | 00:00:00 | 00:00:00 | 00:00:00 | |
| PETON7-10 | 2026-09-01 06:48:18 | 48.60013 | 18.66745 | 135° | 18km/h | 23776m | 5.2m/s | 0°C | 0% | 0hPa | 0V | 00:00:00 | 00:00:00 | 00:00:00 | |
| OE5DXL-15 | 2026-09-01 06:48:15 | 48.60017 | 18.66725 | 121° | 15km/h | 23762m | 4.0m/s | 0°C | 0% | 0hPa | 0V | 00:00:00 | 00:00:00 | 00:00:00 | |
| OE3JTB-15 | 2026-09-01 06:48:05 | 48.60028 | 18.66674 | 77° | 15km/h | 23717m | 5.1m/s | 0°C | 0% | 0hPa | 0V | 00:00:00 | 00:00:00 | 00:00:00 | |
| PETON7-10 | 2026-09-01 06:48:03 | 48.60029 | 18.66660 | 145° | 15km/h | 23709m | 2.7m/s | 0°C | 0% | 0hPa | 0V | 00:00:00 | 00:00:00 | 00:00:00 | |
| SP9KGR-15 | 2026-09-01 06:48:02 | 48.60032 | 18.66657 | 138° | 11km/h | 23709m | 2.8m/s | -50.8°C | 0% | 0hPa | 0V | 00:00:00 | 00:00:00 | 00:00:00 | |
| OE5MMP-10 | 2026-09-01 06:47:58 | 48.60029 | 18.66640 | 129° | 15km/h | 23685m | 3.5m/s | 0°C | 0% | 0hPa | 0V | 00:00:00 | 00:00:00 | 00:00:00 | |
| OE5MMP-10 | 2026-09-01 06:47:48 | 48.60032 | 18.66598 | 33° | 9km/h | 23638m | 4.2m/s | 0°C | 0% | 0hPa | 0V | 00:00:00 | 00:00:00 | 00:00:00 | |
| SP9KGR-15 | 2026-09-01 06:47:47 | 48.60031 | 18.66597 | 0° | 0km/h | 23638m | 4.2m/s | -50.9°C | 0% | 0hPa | 0V | 00:00:00 | 00:00:00 | 00:00:00 | |
| OE5DXL-15 | 2026-09-01 06:47:44 | 48.60029 | 18.66593 | 83° | 9km/h | 23620m | 3.6m/s | 0°C | 0% | 0hPa | 0V | 00:00:00 | 00:00:00 | 00:00:00 | |
| OE5MMP-10 | 2026-09-01 06:47:38 | 48.60023 | 18.66589 | 177° | 9km/h | 23592m | 5.6m/s | 0°C | 0% | 0hPa | 0V | 00:00:00 | 00:00:00 | 00:00:00 | |
| OE3JTB-15 | 2026-09-01 06:47:36 | 48.60024 | 18.66588 | 332° | 15km/h | 23583m | 4.0m/s | 0°C | 0% | 0hPa | 0V | 00:00:00 | 00:00:00 | 00:00:00 | |
| PETON7-10 | 2026-09-01 06:47:33 | 48.60022 | 18.66588 | 351° | 11km/h | 23570m | 4.9m/s | 0°C | 0% | 0hPa | 0V | 00:00:00 | 00:00:00 | 00:00:00 | |
| SQ9EZE-15 | 2026-09-01 06:47:31 | 48.60021 | 18.66588 | 170° | 13km/h | 23564m | 5.7m/s | -51.3°C | 0% | 0hPa | 0V | 00:00:00 | 00:00:00 | 00:00:00 | |
| OE5MMP-10 | 2026-09-01 06:47:28 | 48.60025 | 18.66585 | 359° | 9km/h | 23545m | 4.0m/s | 0°C | 0% | 0hPa | 0V | 00:00:00 | 00:00:00 | 00:00:00 | |
| OE5MMP-10 | 2026-09-01 06:47:16 | 48.60034 | 18.66579 | 214° | 9km/h | 23488m | 5.5m/s | 0°C | 0% | 0hPa | 0V | 00:00:00 | 00:00:00 | 00:00:00 | |
| SP9KGR-15 | 2026-09-01 06:47:15 | 48.60036 | 18.66583 | 214° | 11km/h | 23488m | 5.5m/s | -51.4°C | 0% | 0hPa | 0V | 00:00:00 | 00:00:00 | 00:00:00 | |
| OE5DXL-15 | 2026-09-01 06:47:14 | 48.60039 | 18.66591 | 193° | 13km/h | 23479m | 4.8m/s | 0°C | 0% | 0hPa | 0V | 00:00:00 | 00:00:00 | 00:00:00 | |
| OE5MMP-10 | 2026-09-01 06:47:06 | 48.60049 | 18.66583 | 115° | 11km/h | 23441m | 3.9m/s | 0°C | 0% | 0hPa | 0V | 00:00:00 | 00:00:00 | 00:00:00 | |
| PETON7-10 | 2026-09-01 06:47:02 | 48.60054 | 18.66579 | 116° | 15km/h | 23421m | 5.1m/s | 0°C | 0% | 0hPa | 0V | 00:00:00 | 00:00:00 | 00:00:00 | |
| SP9KGR-15 | 2026-09-01 06:47:00 | 48.60055 | 18.66570 | 80° | 13km/h | 23416m | 4.2m/s | -51.4°C | 0% | 0hPa | 0V | 00:00:00 | 00:00:00 | 00:00:00 | |
| OE5MMP-10 | 2026-09-01 06:46:56 | 48.60058 | 18.66562 | 83° | 15km/h | 23392m | 3.8m/s | 0°C | 0% | 0hPa | 0V | 00:00:00 | 00:00:00 | 00:00:00 | |
| PETON7-10 | 2026-09-01 06:46:47 | 48.60053 | 18.66521 | 123° | 15km/h | 23349m | 4.5m/s | 0°C | 0% | 0hPa | 0V | 00:00:00 | 00:00:00 | 00:00:00 | |
| OE5MMP-10 | 2026-09-01 06:46:46 | 48.60055 | 18.66523 | 105° | 22km/h | 23344m | 5.4m/s | 0°C | 0% | 0hPa | 0V | 00:00:00 | 00:00:00 | 00:00:00 | |
| OE5DXL-15 | 2026-09-01 06:46:44 | 48.60057 | 18.66498 | 348° | 13km/h | 23335m | 4.5m/s | 0°C | 0% | 0hPa | 0V | 00:00:00 | 00:00:00 | 00:00:00 | |
| OE5MMP-10 | 2026-09-01 06:46:36 | 48.60037 | 18.66474 | 3° | 11km/h | 23297m | 3.3m/s | 0°C | 0% | 0hPa | 0V | 00:00:00 | 00:00:00 | 00:00:00 | |
| PETON7-10 | 2026-09-01 06:46:32 | 48.60030 | 18.66462 | 56° | 11km/h | 23278m | 5.6m/s | 0°C | 0% | 0hPa | 0V | 00:00:00 | 00:00:00 | 00:00:00 | |
| SP9KGR-15 | 2026-09-01 06:46:28 | 48.60024 | 18.66456 | 71° | 15km/h | 23263m | 4.8m/s | -51.6°C | 0% | 0hPa | 0V | 00:00:00 | 00:00:00 | 00:00:00 | |
| OE5MMP-10 | 2026-09-01 06:46:26 | 48.60022 | 18.66446 | 67° | 11km/h | 23244m | 4.1m/s | 0°C | 0% | 0hPa | 0V | 00:00:00 | 00:00:00 | 00:00:00 | |
| OE5MMP-10 | 2026-09-01 06:46:17 | 48.60003 | 18.66447 | 88° | 15km/h | 23192m | 4.2m/s | 0°C | 0% | 0hPa | 0V | 00:00:00 | 00:00:00 | 00:00:00 | |
| PETON7-10 | 2026-09-01 06:45:47 | 48.59919 | 18.66448 | 297° | 20km/h | 23061m | 5.5m/s | 0°C | 0% | 0hPa | 0V | 00:00:00 | 00:00:00 | 00:00:00 | |
| OE5DXL-15 | 2026-09-01 06:45:45 | 48.59906 | 18.66445 | 350° | 18km/h | 23036m | 4.9m/s | 0°C | 0% | 0hPa | 0V | 00:00:00 | 00:00:00 | 00:00:00 | |
| SQ9EZE-15 | 2026-09-01 06:45:38 | 48.59888 | 18.66447 | 18° | 24km/h | 23022m | 5.8m/s | -52.3°C | 0% | 0hPa | 0V | 00:00:00 | 00:00:00 | 00:00:00 | |
| OE5MMP-10 | 2026-09-01 06:45:35 | 48.59869 | 18.66453 | 18° | 18km/h | 23007m | 6.2m/s | 0°C | 0% | 0hPa | 0V | 00:00:00 | 00:00:00 | 00:00:00 | |
| PETON7-10 | 2026-09-01 06:45:32 | 48.59859 | 18.66442 | 355° | 18km/h | 22987m | 3.9m/s | 0°C | 0% | 0hPa | 0V | 00:00:00 | 00:00:00 | 00:00:00 | |
| SP9KGR-15 | 2026-09-01 06:45:28 | 48.59839 | 18.66444 | 354° | 16km/h | 22967m | 5.8m/s | -52.1°C | 0% | 0hPa | 0V | 00:00:00 | 00:00:00 | 00:00:00 | |
| GYPAP8-17 | 2026-09-01 06:45:25 | 48.59819 | 18.66443 | 350° | 13km/h | 22944m | 5.4m/s | -52.2°C | 0% | 0hPa | 0V | 00:00:00 | 00:00:00 | 00:00:00 | |
| PETON7-10 | 2026-09-01 06:45:18 | 48.59800 | 18.66441 | 336° | 15km/h | 22916m | 6.2m/s | 0°C | 0% | 0hPa | 0V | 00:00:00 | 00:00:00 | 00:00:00 | |
| SP9KGR-15 | 2026-09-01 06:45:13 | 48.59781 | 18.66451 | 60° | 15km/h | 22895m | 4.1m/s | -52.0°C | 0% | 0hPa | 0V | 00:00:00 | 00:00:00 | 00:00:00 | |
| OE5MMP-10 | 2026-09-01 06:45:11 | 48.59780 | 18.66447 | 351° | 11km/h | 22887m | 5.1m/s | 0°C | 0% | 0hPa | 0V | 00:00:00 | 00:00:00 | 00:00:00 | |
| PETON7-10 | 2026-09-01 06:45:02 | 48.59755 | 18.66462 | 357° | 11km/h | 22843m | 3.3m/s | 0°C | 0% | 0hPa | 0V | 00:00:00 | 00:00:00 | 00:00:00 | |
| OE5MMP-10 | 2026-09-01 06:45:01 | 48.59754 | 18.66461 | 350° | 11km/h | 22843m | 3.3m/s | 0°C | 0% | 0hPa | 0V | 00:00:00 | 00:00:00 | 00:00:00 | |
| SP9KGR-15 | 2026-09-01 06:44:57 | 48.59744 | 18.66472 | 350° | 5km/h | 22823m | 5.6m/s | -52.0°C | 0% | 0hPa | 0V | 00:00:00 | 00:00:00 | 00:00:00 | |
| OE5MMP-10 | 2026-09-01 06:44:50 | 48.59733 | 18.66474 | 310° | 9km/h | 22785m | 5.3m/s | 0°C | 0% | 0hPa | 0V | 00:00:00 | 00:00:00 | 00:00:00 | |
| PETON7-10 | 2026-09-01 06:44:47 | 48.59727 | 18.66491 | 338° | 11km/h | 22772m | 5.7m/s | 0°C | 0% | 0hPa | 0V | 00:00:00 | 00:00:00 | 00:00:00 | |
| SQ9EZE-14 | 2026-09-01 06:44:42 | 48.59722 | 18.66497 | 325° | 18km/h | 22752m | 3.8m/s | -51.9°C | 0% | 0hPa | 0V | 00:00:00 | 00:00:00 | 00:00:00 | |
| SP9KGR-15 | 2026-09-01 06:44:41 | 48.59719 | 18.66500 | 8° | 13km/h | 22748m | 5.6m/s | -51.8°C | 0% | 0hPa | 0V | 00:00:00 | 00:00:00 | 00:00:00 | |
| PETON7-10 | 2026-09-01 06:44:32 | 48.59710 | 18.66511 | 270° | 15km/h | 22701m | 2.6m/s | 0°C | 0% | 0hPa | 0V | 00:00:00 | 00:00:00 | 00:00:00 | |
| SP9KGR-15 | 2026-09-01 06:44:26 | 48.59700 | 18.66517 | 206° | 15km/h | 22676m | 3.8m/s | -51.7°C | 0% | 0hPa | 0V | 00:00:00 | 00:00:00 | 00:00:00 | |
| PETON7-10 | 2026-09-01 06:44:17 | 48.59694 | 18.66512 | 56° | 13km/h | 22630m | 5.1m/s | 0°C | 0% | 0hPa | 0V | 00:00:00 | 00:00:00 | 00:00:00 | |
| OE5DXL-15 | 2026-09-01 06:44:13 | 48.59686 | 18.66512 | 86° | 11km/h | 22606m | 5.1m/s | 0°C | 0% | 0hPa | 0V | 00:00:00 | 00:00:00 | 00:00:00 | |
| SP9KGR-15 | 2026-09-01 06:44:11 | 48.59686 | 18.66505 | 351° | 9km/h | 22601m | 4.8m/s | -51.9°C | 0% | 0hPa | 0V | 00:00:00 | 00:00:00 | 00:00:00 | |
| OE5DXL-15 | 2026-09-01 06:42:43 | 48.59450 | 18.66390 | 356° | 22km/h | 22189m | 3.3m/s | 0°C | 0% | 0hPa | 0V | 00:00:00 | 00:00:00 | 00:00:00 | |
| SP9KGR-15 | 2026-09-01 06:42:38 | 48.59428 | 18.66399 | 7° | 22km/h | 22169m | 4.7m/s | -52.0°C | 0% | 0hPa | 0V | 00:00:00 | 00:00:00 | 00:00:00 | |
| OE3JTB-15 | 2026-09-01 06:42:32 | 48.59393 | 18.66402 | 349° | 20km/h | 22136m | 5.2m/s | 0°C | 0% | 0hPa | 0V | 00:00:00 | 00:00:00 | 00:00:00 | |
| SP9KGR-15 | 2026-09-01 06:42:24 | 48.59348 | 18.66428 | 334° | 26km/h | 22098m | 6.1m/s | -52.7°C | 0% | 0hPa | 0V | 00:00:00 | 00:00:00 | 00:00:00 | |
| PETON7-10 | 2026-09-01 06:42:17 | 48.59325 | 18.66440 | 11° | 16km/h | 22071m | 6.1m/s | 0°C | 0% | 0hPa | 0V | 00:00:00 | 00:00:00 | 00:00:00 | |
| OE5DXL-15 | 2026-09-01 06:42:13 | 48.59303 | 18.66447 | 270° | 11km/h | 22051m | 5.4m/s | 0°C | 0% | 0hPa | 0V | 00:00:00 | 00:00:00 | 00:00:00 | |
| DO3MHA-12 | 2026-09-01 06:42:09 | 48.59298 | 18.66449 | 329° | 15km/h | 22025m | 4.4m/s | 0°C | 0% | 0hPa | 0V | 00:00:00 | 00:00:00 | 00:00:00 | |
| SP9KGR-15 | 2026-09-01 06:42:07 | 48.59291 | 18.66464 | 306° | 20km/h | 22021m | 3.7m/s | -54.3°C | 0% | 0hPa | 0V | 00:00:00 | 00:00:00 | 00:00:00 | |
| OE3JTB-15 | 2026-09-01 06:42:03 | 48.59289 | 18.66469 | 288° | 9km/h | 21991m | 5.7m/s | 0°C | 0% | 0hPa | 0V | 00:00:00 | 00:00:00 | 00:00:00 | |
| PETON7-10 | 2026-09-01 06:42:02 | 48.59288 | 18.66476 | 296° | 11km/h | 21997m | 4.2m/s | 0°C | 0% | 0hPa | 0V | 00:00:00 | 00:00:00 | 00:00:00 | |
| SP9KGR-15 | 2026-09-01 06:41:51 | 48.59281 | 18.66511 | 293° | 11km/h | 21942m | 5.5m/s | -54.2°C | 0% | 0hPa | 0V | 00:00:00 | 00:00:00 | 00:00:00 | |
| DO3MHA-12 | 2026-09-01 06:41:49 | 48.59282 | 18.66510 | 49° | 4km/h | 21932m | 4.2m/s | 0°C | 0% | 0hPa | 0V | 00:00:00 | 00:00:00 | 00:00:00 | |
| PETON7-10 | 2026-09-01 06:41:47 | 48.59279 | 18.66513 | 254° | 9km/h | 21922m | 5.0m/s | 0°C | 0% | 0hPa | 0V | 00:00:00 | 00:00:00 | 00:00:00 | |
| OE5DXL-15 | 2026-09-01 06:41:43 | 48.59278 | 18.66518 | 275° | 9km/h | 21887m | 6.0m/s | 0°C | 0% | 0hPa | 0V | 00:00:00 | 00:00:00 | 00:00:00 | |
| DO3MHA-12 | 2026-09-01 06:41:38 | 48.59278 | 18.66523 | 280° | 4km/h | 21867m | 4.7m/s | 0°C | 0% | 0hPa | 0V | 00:00:00 | 00:00:00 | 00:00:00 | |
| PETON7-10 | 2026-09-01 06:41:32 | 48.59277 | 18.66538 | 206° | 9km/h | 21846m | 4.3m/s | 0°C | 0% | 0hPa | 0V | 00:00:00 | 00:00:00 | 00:00:00 | |
| OE3JTB-15 | 2026-09-01 06:41:29 | 48.59277 | 18.66539 | 323° | 7km/h | 21827m | 4.6m/s | 0°C | 0% | 0hPa | 0V | 00:00:00 | 00:00:00 | 00:00:00 | |
| DO3MHA-12 | 2026-09-01 06:41:27 | 48.59274 | 18.66546 | 235° | 9km/h | 21801m | 4.4m/s | 0°C | 0% | 0hPa | 0V | 00:00:00 | 00:00:00 | 00:00:00 | |
| SP9KGR-15 | 2026-09-01 06:41:20 | 48.59273 | 18.66550 | 32° | 9km/h | 21780m | 4.9m/s | -53.6°C | 0% | 0hPa | 0V | 00:00:00 | 00:00:00 | 00:00:00 | |
| PETON7-10 | 2026-09-01 06:41:17 | 48.59270 | 18.66547 | 41° | 9km/h | 21771m | 5.3m/s | 0°C | 0% | 0hPa | 0V | 00:00:00 | 00:00:00 | 00:00:00 | |
| DO3MHA-12 | 2026-09-01 06:41:15 | 48.59269 | 18.66547 | 45° | 9km/h | 21751m | 4.3m/s | 0°C | 0% | 0hPa | 0V | 00:00:00 | 00:00:00 | 00:00:00 | |
| OE5DXL-15 | 2026-09-01 06:41:12 | 48.59264 | 18.66541 | 186° | 9km/h | 21736m | 5.8m/s | 0°C | 0% | 0hPa | 0V | 00:00:00 | 00:00:00 | 00:00:00 | |
| DO3MHA-12 | 2026-09-01 06:41:05 | 48.59255 | 18.66539 | 1° | 7km/h | 21705m | 5.1m/s | 0°C | 0% | 0hPa | 0V | 00:00:00 | 00:00:00 | 00:00:00 | |
| SP9KGR-15 | 2026-09-01 06:41:04 | 48.59254 | 18.66532 | 48° | 15km/h | 21701m | 4.8m/s | -54.1°C | 0% | 0hPa | 0V | 00:00:00 | 00:00:00 | 00:00:00 | |
| PETON7-10 | 2026-09-01 06:41:02 | 48.59252 | 18.66529 | 350° | 9km/h | 21695m | 5.8m/s | 0°C | 0% | 0hPa | 0V | 00:00:00 | 00:00:00 | 00:00:00 | |
| DO3MHA-12 | 2026-09-01 06:40:55 | 48.59245 | 18.66522 | 311° | 9km/h | 21651m | 3.3m/s | 0°C | 0% | 0hPa | 0V | 00:00:00 | 00:00:00 | 00:00:00 | |
| OE3JTB-15 | 2026-09-01 06:40:53 | 48.59240 | 18.66525 | 311° | 7km/h | 21651m | 3.3m/s | 0°C | 0% | 0hPa | 0V | 00:00:00 | 00:00:00 | 00:00:00 | |
| SP9KGR-15 | 2026-09-01 06:40:48 | 48.59242 | 18.66531 | 36° | 11km/h | 21626m | 3.6m/s | -53.8°C | 0% | 0hPa | 0V | 00:00:00 | 00:00:00 | 00:00:00 | |
| PETON7-10 | 2026-09-01 06:40:47 | 48.59241 | 18.66530 | 237° | 9km/h | 21616m | 5.5m/s | 0°C | 0% | 0hPa | 0V | 00:00:00 | 00:00:00 | 00:00:00 | |
| DO3MHA-12 | 2026-09-01 06:40:44 | 48.59244 | 18.66539 | 74° | 9km/h | 21602m | 4.2m/s | 0°C | 0% | 0hPa | 0V | 00:00:00 | 00:00:00 | 00:00:00 | |
| OE5DXL-15 | 2026-09-01 06:40:42 | 48.59243 | 18.66543 | 333° | 9km/h | 21583m | 6.0m/s | 0°C | 0% | 0hPa | 0V | 00:00:00 | 00:00:00 | 00:00:00 | |
| DO3MHA-12 | 2026-09-01 06:40:34 | 48.59256 | 18.66551 | 220° | 9km/h | 21559m | 4.9m/s | 0°C | 0% | 0hPa | 0V | 00:00:00 | 00:00:00 | 00:00:00 | |
| GYPAP8-17 | 2026-09-01 06:40:33 | 48.59254 | 18.66553 | 318° | 9km/h | 21549m | 4.3m/s | -53.9°C | 0% | 0hPa | 0V | 00:00:00 | 00:00:00 | 00:00:00 | |
| PETON7-10 | 2026-09-01 06:40:32 | 48.59254 | 18.66553 | 317° | 9km/h | 21544m | 5.3m/s | 0°C | 0% | 0hPa | 0V | 00:00:00 | 00:00:00 | 00:00:00 | |
| DO3MHA-12 | 2026-09-01 06:40:24 | 48.59253 | 18.66565 | 15° | 13km/h | 21503m | 4.8m/s | 0°C | 0% | 0hPa | 0V | 00:00:00 | 00:00:00 | 00:00:00 | |
| OE3JTB-15 | 2026-09-01 06:40:22 | 48.59250 | 18.66562 | 37° | 15km/h | 21475m | 4.6m/s | 0°C | 0% | 0hPa | 0V | 00:00:00 | 00:00:00 | 00:00:00 | |
| PETON7-10 | 2026-09-01 06:40:17 | 48.59242 | 18.66568 | 29° | 13km/h | 21470m | 5.2m/s | 0°C | 0% | 0hPa | 0V | 00:00:00 | 00:00:00 | 00:00:00 | |
| SP9KGR-15 | 2026-09-01 06:40:15 | 48.59236 | 18.66564 | 326° | 4km/h | 21465m | 4.9m/s | -54.1°C | 0% | 0hPa | 0V | 00:00:00 | 00:00:00 | 00:00:00 | |
| DO3MHA-12 | 2026-09-01 06:40:14 | 48.59236 | 18.66569 | 1° | 13km/h | 21456m | 5.0m/s | 0°C | 0% | 0hPa | 0V | 00:00:00 | 00:00:00 | 00:00:00 | |
| OE5DXL-15 | 2026-09-01 06:40:11 | 48.59231 | 18.66562 | 14° | 16km/h | 21442m | 5.7m/s | 0°C | 0% | 0hPa | 0V | 00:00:00 | 00:00:00 | 00:00:00 | |
| DO3MHA-12 | 2026-09-01 06:40:04 | 48.59209 | 18.66559 | 349° | 15km/h | 21409m | 4.4m/s | 0°C | 0% | 0hPa | 0V | 00:00:00 | 00:00:00 | 00:00:00 | |
| PETON7-10 | 2026-09-01 06:40:02 | 48.59203 | 18.66560 | 30° | 16km/h | 21399m | 3.9m/s | 0°C | 0% | 0hPa | 0V | 00:00:00 | 00:00:00 | 00:00:00 | |
| SP9KGR-15 | 2026-09-01 06:39:58 | 48.59193 | 18.66558 | 8° | 15km/h | 21385m | 3.5m/s | -54.4°C | 0% | 0hPa | 0V | 00:00:00 | 00:00:00 | 00:00:00 | |
| DO3MHA-12 | 2026-09-01 06:39:54 | 48.59176 | 18.66549 | 340° | 18km/h | 21361m | 2.9m/s | 0°C | 0% | 0hPa | 0V | 00:00:00 | 00:00:00 | 00:00:00 | |
| OE3JTB-15 | 2026-09-01 06:39:51 | 48.59168 | 18.66549 | 35° | 18km/h | 21348m | 3.1m/s | 0°C | 0% | 0hPa | 0V | 00:00:00 | 00:00:00 | 00:00:00 | |
| PETON7-10 | 2026-09-01 06:39:47 | 48.59147 | 18.66549 | 354° | 18km/h | 21327m | 4.1m/s | 0°C | 0% | 0hPa | 0V | 00:00:00 | 00:00:00 | 00:00:00 | |
| DO3MHA-12 | 2026-09-01 06:39:44 | 48.59136 | 18.66549 | 8° | 20km/h | 21309m | 4.3m/s | 0°C | 0% | 0hPa | 0V | 00:00:00 | 00:00:00 | 00:00:00 | |
| SQ9EZE-14 | 2026-09-01 06:39:42 | 48.59125 | 18.66547 | 8° | 22km/h | 21309m | 4.3m/s | -54.4°C | 0% | 0hPa | 0V | 00:00:00 | 00:00:00 | 00:00:00 | |
| OE5DXL-15 | 2026-09-01 06:39:41 | 48.59120 | 18.66546 | 24° | 13km/h | 21300m | 3.1m/s | 0°C | 0% | 0hPa | 0V | 00:00:00 | 00:00:00 | 00:00:00 | |
| DO3MHA-12 | 2026-09-01 06:39:33 | 48.59093 | 18.66540 | 321° | 15km/h | 21267m | 5.3m/s | 0°C | 0% | 0hPa | 0V | 00:00:00 | 00:00:00 | 00:00:00 | |
| PETON7-10 | 2026-09-01 06:39:32 | 48.59087 | 18.66543 | 322° | 13km/h | 21257m | 5.5m/s | 0°C | 0% | 0hPa | 0V | 00:00:00 | 00:00:00 | 00:00:00 | |
| SQ9EZE-14 | 2026-09-01 06:39:27 | 48.59071 | 18.66545 | 300° | 9km/h | 21238m | 4.6m/s | -54.0°C | 0% | 0hPa | 0V | 00:00:00 | 00:00:00 | 00:00:00 | |
| SQ9EZE-15 | 2026-09-01 06:39:24 | 48.59060 | 18.66548 | 333° | 18km/h | 21219m | 6.1m/s | -53.9°C | 0% | 0hPa | 0V | 00:00:00 | 00:00:00 | 00:00:00 | |
| PETON7-10 | 2026-09-01 06:39:17 | 48.59050 | 18.66556 | 319° | 9km/h | 21183m | 5.6m/s | 0°C | 0% | 0hPa | 0V | 00:00:00 | 00:00:00 | 00:00:00 | |
| DO3MHA-12 | 2026-09-01 06:39:11 | 48.59040 | 18.66566 | 355° | 9km/h | 21150m | 4.6m/s | 0°C | 0% | 0hPa | 0V | 00:00:00 | 00:00:00 | 00:00:00 | |
| PETON7-10 | 2026-09-01 06:39:02 | 48.59033 | 18.66581 | 276° | 9km/h | 21113m | 5.7m/s | 0°C | 0% | 0hPa | 0V | 00:00:00 | 00:00:00 | 00:00:00 | |
| DO3MHA-12 | 2026-09-01 06:39:01 | 48.59032 | 18.66581 | 274° | 9km/h | 21108m | 5.0m/s | 0°C | 0% | 0hPa | 0V | 00:00:00 | 00:00:00 | 00:00:00 | |
| SP9KGR-15 | 2026-09-01 06:38:56 | 48.59036 | 18.66593 | 223° | 5km/h | 21088m | 5.3m/s | -53.4°C | 0% | 0hPa | 0V | 00:00:00 | 00:00:00 | 00:00:00 | |
| DO3MHA-12 | 2026-09-01 06:38:51 | 48.59042 | 18.66609 | 213° | 13km/h | 21056m | 4.5m/s | 0°C | 0% | 0hPa | 0V | 00:00:00 | 00:00:00 | 00:00:00 | |
| PETON7-10 | 2026-09-01 06:38:47 | 48.59045 | 18.66620 | 269° | 15km/h | 21042m | 5.5m/s | 0°C | 0% | 0hPa | 0V | 00:00:00 | 00:00:00 | 00:00:00 | |
| DO3MHA-12 | 2026-09-01 06:38:41 | 48.59051 | 18.66643 | 233° | 16km/h | 21012m | 5.3m/s | 0°C | 0% | 0hPa | 0V | 00:00:00 | 00:00:00 | 00:00:00 | |
| SP9KGR-15 | 2026-09-01 06:38:39 | 48.59058 | 18.66648 | 231° | 15km/h | 21008m | 3.2m/s | -53.5°C | 0% | 0hPa | 0V | 00:00:00 | 00:00:00 | 00:00:00 | |
| OE3JTB-15 | 2026-09-01 06:38:37 | 48.59056 | 18.66658 | 273° | 7km/h | 20999m | 4.2m/s | 0°C | 0% | 0hPa | 0V | 00:00:00 | 00:00:00 | 00:00:00 | |
| PETON7-10 | 2026-09-01 06:38:32 | 48.59069 | 18.66678 | 257° | 13km/h | 20971m | 3.7m/s | 0°C | 0% | 0hPa | 0V | 00:00:00 | 00:00:00 | 00:00:00 | |
| DO3MHA-12 | 2026-09-01 06:38:30 | 48.59071 | 18.66690 | 219° | 11km/h | 20961m | 4.4m/s | 0°C | 0% | 0hPa | 0V | 00:00:00 | 00:00:00 | 00:00:00 | |
| SP9KGR-15 | 2026-09-01 06:38:24 | 48.59084 | 18.66703 | 229° | 13km/h | 20937m | 4.8m/s | -53.1°C | 0% | 0hPa | 0V | 00:00:00 | 00:00:00 | 00:00:00 | |
| DO3MHA-12 | 2026-09-01 06:38:20 | 48.59090 | 18.66714 | 168° | 11km/h | 20918m | 5.5m/s | 0°C | 0% | 0hPa | 0V | 00:00:00 | 00:00:00 | 00:00:00 | |
| PETON7-10 | 2026-09-01 06:38:17 | 48.59098 | 18.66716 | 251° | 11km/h | 20899m | 4.8m/s | 0°C | 0% | 0hPa | 0V | 00:00:00 | 00:00:00 | 00:00:00 | |
| OE5DXL-15 | 2026-09-01 06:38:11 | 48.59107 | 18.66725 | 202° | 9km/h | 20861m | 5.4m/s | 0°C | 0% | 0hPa | 0V | 00:00:00 | 00:00:00 | 00:00:00 | |
| DO3MHA-12 | 2026-09-01 06:38:09 | 48.59106 | 18.66728 | 209° | 11km/h | 20866m | 4.2m/s | 0°C | 0% | 0hPa | 0V | 00:00:00 | 00:00:00 | 00:00:00 | |
| SP9KGR-15 | 2026-09-01 06:38:08 | 48.59116 | 18.66730 | 238° | 9km/h | 20861m | 5.5m/s | -52.9°C | 0% | 0hPa | 0V | 00:00:00 | 00:00:00 | 00:00:00 | |
| PETON7-10 | 2026-09-01 06:38:02 | 48.59126 | 18.66736 | 249° | 9km/h | 20829m | 5.0m/s | 0°C | 0% | 0hPa | 0V | 00:00:00 | 00:00:00 | 00:00:00 | |
| DO3MHA-12 | 2026-09-01 06:37:57 | 48.59136 | 18.66742 | 204° | 7km/h | 20790m | 5.2m/s | 0°C | 0% | 0hPa | 0V | 00:00:00 | 00:00:00 | 00:00:00 | |
| SP9KGR-15 | 2026-09-01 06:37:53 | 48.59146 | 18.66748 | 219° | 5km/h | 20790m | 5.2m/s | -52.7°C | 0% | 0hPa | 0V | 00:00:00 | 00:00:00 | 00:00:00 | |
| PETON7-10 | 2026-09-01 06:37:47 | 48.59157 | 18.66751 | 317° | 9km/h | 20758m | 4.5m/s | 0°C | 0% | 0hPa | 0V | 00:00:00 | 00:00:00 | 00:00:00 | |
| OE3JTB-15 | 2026-09-01 06:37:46 | 48.59154 | 18.66753 | 208° | 9km/h | 20758m | 4.5m/s | 0°C | 0% | 0hPa | 0V | 00:00:00 | 00:00:00 | 00:00:00 | |
| DO3MHA-12 | 2026-09-01 06:37:45 | 48.59157 | 18.66754 | 198° | 9km/h | 20747m | 4.8m/s | 0°C | 0% | 0hPa | 0V | 00:00:00 | 00:00:00 | 00:00:00 | |
| OE5DXL-15 | 2026-09-01 06:37:39 | 48.59170 | 18.66755 | 269° | 11km/h | 20715m | 3.8m/s | 0°C | 0% | 0hPa | 0V | 00:00:00 | 00:00:00 | 00:00:00 | |
| SP9KGR-15 | 2026-09-01 06:37:37 | 48.59168 | 18.66761 | 215° | 9km/h | 20715m | 3.8m/s | -52.5°C | 0% | 0hPa | 0V | 00:00:00 | 00:00:00 | 00:00:00 | |
| DO3MHA-12 | 2026-09-01 06:37:32 | 48.59169 | 18.66759 | 9° | 11km/h | 20668m | 2.6m/s | 0°C | 0% | 0hPa | 0V | 00:00:00 | 00:00:00 | 00:00:00 | |
| SP9KGR-15 | 2026-09-01 06:37:22 | 48.59161 | 18.66761 | 18° | 18km/h | 20646m | 5.0m/s | -52.5°C | 0% | 0hPa | 0V | 00:00:00 | 00:00:00 | 00:00:00 | |
| SQ9EZE-15 | 2026-09-01 06:37:18 | 48.59158 | 18.66754 | 19° | 4km/h | 20626m | 5.4m/s | -52.4°C | 0% | 0hPa | 0V | 00:00:00 | 00:00:00 | 00:00:00 | |
| PETON7-10 | 2026-09-01 06:37:17 | 48.59156 | 18.66754 | 21° | 13km/h | 20618m | 4.7m/s | 0°C | 0% | 0hPa | 0V | 00:00:00 | 00:00:00 | 00:00:00 | |
| OE3JTB-15 | 2026-09-01 06:37:16 | 48.59153 | 18.66752 | 46° | 13km/h | 20599m | 4.6m/s | 0°C | 0% | 0hPa | 0V | 00:00:00 | 00:00:00 | 00:00:00 | |
| OE5DXL-15 | 2026-09-01 06:37:09 | 48.59138 | 18.66736 | 27° | 15km/h | 20579m | 5.9m/s | 0°C | 0% | 0hPa | 0V | 00:00:00 | 00:00:00 | 00:00:00 | |
| SP9KGR-15 | 2026-09-01 06:37:06 | 48.59128 | 18.66725 | 34° | 18km/h | 20570m | 3.3m/s | -52.5°C | 0% | 0hPa | 0V | 00:00:00 | 00:00:00 | 00:00:00 | |
| PETON7-10 | 2026-09-01 06:37:02 | 48.59123 | 18.66717 | 17° | 16km/h | 20546m | 4.0m/s | 0°C | 0% | 0hPa | 0V | 00:00:00 | 00:00:00 | 00:00:00 | |
| DO3MHA-12 | 2026-09-01 06:36:57 | 48.59108 | 18.66693 | 356° | 11km/h | 20522m | 4.2m/s | 0°C | 0% | 0hPa | 0V | 00:00:00 | 00:00:00 | 00:00:00 | |
| SP9KGR-15 | 2026-09-01 06:36:51 | 48.59084 | 18.66675 | 12° | 15km/h | 20498m | 4.3m/s | -52.9°C | 0% | 0hPa | 0V | 00:00:00 | 00:00:00 | 00:00:00 | |
| PETON7-10 | 2026-09-01 06:36:47 | 48.59076 | 18.66671 | 16° | 11km/h | 20474m | 3.4m/s | 0°C | 0% | 0hPa | 0V | 00:00:00 | 00:00:00 | 00:00:00 | |
| DO3MHA-12 | 2026-09-01 06:36:45 | 48.59068 | 18.66664 | 357° | 9km/h | 20460m | 4.8m/s | 0°C | 0% | 0hPa | 0V | 00:00:00 | 00:00:00 | 00:00:00 | |
| OE3JTB-15 | 2026-09-01 06:36:42 | 48.59066 | 18.66666 | 360° | 13km/h | 20451m | 4.1m/s | 0°C | 0% | 0hPa | 0V | 00:00:00 | 00:00:00 | 00:00:00 | |
| GYPAP8-17 | 2026-09-01 06:36:38 | 48.59058 | 18.66659 | 18° | 5km/h | 20437m | 4.6m/s | -53.1°C | 0% | 0hPa | 0V | 00:00:00 | 00:00:00 | 00:00:00 | |
| SP9KGR-15 | 2026-09-01 06:36:36 | 48.59051 | 18.66659 | 45° | 7km/h | 20423m | 5.5m/s | -53.1°C | 0% | 0hPa | 0V | 00:00:00 | 00:00:00 | 00:00:00 | |
| DO3MHA-12 | 2026-09-01 06:36:32 | 48.59051 | 18.66652 | 1° | 7km/h | 20388m | 4.8m/s | 0°C | 0% | 0hPa | 0V | 00:00:00 | 00:00:00 | 00:00:00 | |
| DO3MHA-12 | 2026-09-01 06:36:22 | 48.59047 | 18.66648 | 178° | 11km/h | 20346m | 5.3m/s | 0°C | 0% | 0hPa | 0V | 00:00:00 | 00:00:00 | 00:00:00 | |
| SP9KGR-15 | 2026-09-01 06:36:18 | 48.59051 | 18.66648 | 208° | 15km/h | 20341m | 3.4m/s | -53.4°C | 0% | 0hPa | 0V | 00:00:00 | 00:00:00 | 00:00:00 | |
| PETON7-10 | 2026-09-01 06:36:17 | 48.59053 | 18.66649 | 360° | 11km/h | 20337m | 5.4m/s | 0°C | 0% | 0hPa | 0V | 00:00:00 | 00:00:00 | 00:00:00 | |
| OE3JTB-15 | 2026-09-01 06:36:13 | 48.59051 | 18.66662 | 79° | 15km/h | 20298m | 5.0m/s | 0°C | 0% | 0hPa | 0V | 00:00:00 | 00:00:00 | 00:00:00 | |
| DO3MHA-12 | 2026-09-01 06:36:11 | 48.59055 | 18.66644 | 65° | 9km/h | 20303m | 5.0m/s | 0°C | 0% | 0hPa | 0V | 00:00:00 | 00:00:00 | 00:00:00 | |
| OE5DXL-15 | 2026-09-01 06:36:09 | 48.59052 | 18.66627 | 73° | 11km/h | 20289m | 5.4m/s | 0°C | 0% | 0hPa | 0V | 00:00:00 | 00:00:00 | 00:00:00 | |
| PETON7-10 | 2026-09-01 06:36:02 | 48.59047 | 18.66610 | 45° | 13km/h | 20264m | 5.0m/s | 0°C | 0% | 0hPa | 0V | 00:00:00 | 00:00:00 | 00:00:00 | |
| DO3MHA-12 | 2026-09-01 06:36:01 | 48.59044 | 18.66607 | 52° | 15km/h | 20255m | 5.8m/s | 0°C | 0% | 0hPa | 0V | 00:00:00 | 00:00:00 | 00:00:00 | |
| DO3MHA-12 | 2026-09-01 06:35:50 | 48.59030 | 18.66571 | 67° | 13km/h | 20186m | 4.7m/s | 0°C | 0% | 0hPa | 0V | 00:00:00 | 00:00:00 | 00:00:00 | |
| PETON7-10 | 2026-09-01 06:35:47 | 48.59023 | 18.66554 | 34° | 11km/h | 20190m | 4.4m/s | 0°C | 0% | 0hPa | 0V | 00:00:00 | 00:00:00 | 00:00:00 | |
| GYPAP8-17 | 2026-09-01 06:35:42 | 48.59018 | 18.66537 | 17° | 9km/h | 20165m | 7.0m/s | -53.5°C | 0% | 0hPa | 0V | 00:00:00 | 00:00:00 | 00:00:00 | |
| DO3MHA-12 | 2026-09-01 06:35:39 | 48.59014 | 18.66530 | 99° | 13km/h | 20128m | 6.0m/s | 0°C | 0% | 0hPa | 0V | 00:00:00 | 00:00:00 | 00:00:00 | |
| OE5DXL-15 | 2026-09-01 06:35:38 | 48.59015 | 18.66523 | 102° | 15km/h | 20138m | 4.4m/s | 0°C | 0% | 0hPa | 0V | 00:00:00 | 00:00:00 | 00:00:00 | |
| PETON7-10 | 2026-09-01 06:35:32 | 48.59017 | 18.66501 | 123° | 15km/h | 20113m | 4.0m/s | 0°C | 0% | 0hPa | 0V | 00:00:00 | 00:00:00 | 00:00:00 | |
| DO3MHA-12 | 2026-09-01 06:35:29 | 48.59021 | 18.66486 | 100° | 22km/h | 20086m | 6.0m/s | 0°C | 0% | 0hPa | 0V | 00:00:00 | 00:00:00 | 00:00:00 | |
| PETON7-10 | 2026-09-01 06:35:17 | 48.59047 | 18.66428 | 121° | 20km/h | 20036m | 5.4m/s | 0°C | 0% | 0hPa | 0V | 00:00:00 | 00:00:00 | 00:00:00 | |
| OE5DXL-15 | 2026-09-01 06:35:08 | 48.59073 | 18.66373 | 115° | 15km/h | 19987m | 5.5m/s | 0°C | 0% | 0hPa | 0V | 00:00:00 | 00:00:00 | 00:00:00 | |
| SP9KGR-15 | 2026-09-01 06:35:02 | 48.59090 | 18.66332 | 99° | 16km/h | 19958m | 5.1m/s | -53.2°C | 0% | 0hPa | 0V | 00:00:00 | 00:00:00 | 00:00:00 | |
| DO3MHA-12 | 2026-09-01 06:34:57 | 48.59094 | 18.66312 | 127° | 16km/h | 19933m | 5.3m/s | 0°C | 0% | 0hPa | 0V | 00:00:00 | 00:00:00 | 00:00:00 | |
| PETON7-10 | 2026-09-01 06:34:47 | 48.59104 | 18.66255 | 75° | 15km/h | 19889m | 3.5m/s | 0°C | 0% | 0hPa | 0V | 00:00:00 | 00:00:00 | 00:00:00 | |
| DO3MHA-12 | 2026-09-01 06:34:46 | 48.59102 | 18.66250 | 79° | 11km/h | 19870m | 5.1m/s | 0°C | 0% | 0hPa | 0V | 00:00:00 | 00:00:00 | 00:00:00 | |
| DO3MHA-12 | 2026-09-01 06:34:36 | 48.59117 | 18.66206 | 81° | 13km/h | 19835m | 4.3m/s | 0°C | 0% | 0hPa | 0V | 00:00:00 | 00:00:00 | 00:00:00 | |
| OE5DXL-15 | 2026-09-01 06:34:34 | 48.59099 | 18.66192 | 68° | 15km/h | 19821m | 4.8m/s | 0°C | 0% | 0hPa | 0V | 00:00:00 | 00:00:00 | 00:00:00 | |
| PETON7-10 | 2026-09-01 06:34:32 | 48.59096 | 18.66185 | 65° | 13km/h | 19816m | 5.0m/s | 0°C | 0% | 0hPa | 0V | 00:00:00 | 00:00:00 | 00:00:00 | |
| SP9KGR-15 | 2026-09-01 06:34:30 | 48.59094 | 18.66180 | 72° | 13km/h | 19807m | 5.8m/s | -52.7°C | 0% | 0hPa | 0V | 00:00:00 | 00:00:00 | 00:00:00 | |
| OE3JTB-15 | 2026-09-01 06:34:28 | 48.59091 | 18.66166 | 66° | 24km/h | 19787m | 4.3m/s | 0°C | 0% | 0hPa | 0V | 00:00:00 | 00:00:00 | 00:00:00 | |
| DO3MHA-12 | 2026-09-01 06:34:25 | 48.59087 | 18.66163 | 51° | 13km/h | 19773m | 4.9m/s | 0°C | 0% | 0hPa | 0V | 00:00:00 | 00:00:00 | 00:00:00 | |
| PETON7-10 | 2026-09-01 06:34:17 | 48.59074 | 18.66129 | 84° | 15km/h | 19743m | 3.7m/s | 0°C | 0% | 0hPa | 0V | 00:00:00 | 00:00:00 | 00:00:00 | |
| DO3MHA-12 | 2026-09-01 06:34:15 | 48.59073 | 18.66119 | 75° | 15km/h | 19729m | 3.1m/s | 0°C | 0% | 0hPa | 0V | 00:00:00 | 00:00:00 | 00:00:00 | |
| SP9KGR-15 | 2026-09-01 06:34:14 | 48.59071 | 18.66110 | 66° | 26km/h | 19729m | 3.1m/s | -53.3°C | 0% | 0hPa | 0V | 00:00:00 | 00:00:00 | 00:00:00 | |
| DO3MHA-12 | 2026-09-01 06:34:05 | 48.59066 | 18.66065 | 103° | 16km/h | 19682m | 4.7m/s | 0°C | 0% | 0hPa | 0V | 00:00:00 | 00:00:00 | 00:00:00 | |
| OE5DXL-15 | 2026-09-01 06:34:04 | 48.59067 | 18.66057 | 99° | 22km/h | 19676m | 5.1m/s | 0°C | 0% | 0hPa | 0V | 00:00:00 | 00:00:00 | 00:00:00 | |
| PETON7-10 | 2026-09-01 06:34:02 | 48.59069 | 18.66046 | 85° | 20km/h | 19672m | 3.6m/s | 0°C | 0% | 0hPa | 0V | 00:00:00 | 00:00:00 | 00:00:00 | |
| SP9KGR-15 | 2026-09-01 06:33:58 | 48.59071 | 18.66017 | 138° | 11km/h | 19654m | 5.5m/s | -53.2°C | 0% | 0hPa | 0V | 00:00:00 | 00:00:00 | 00:00:00 | |
| DO3MHA-12 | 2026-09-01 06:33:55 | 48.59073 | 18.66001 | 93° | 22km/h | 19636m | 3.2m/s | 0°C | 0% | 0hPa | 0V | 00:00:00 | 00:00:00 | 00:00:00 | |
| PETON7-10 | 2026-09-01 06:33:47 | 48.59084 | 18.65946 | 114° | 24km/h | 19598m | 5.0m/s | 0°C | 0% | 0hPa | 0V | 00:00:00 | 00:00:00 | 00:00:00 | |
| DO3MHA-12 | 2026-09-01 06:33:45 | 48.59087 | 18.65934 | 94° | 26km/h | 19589m | 3.5m/s | 0°C | 0% | 0hPa | 0V | 00:00:00 | 00:00:00 | 00:00:00 | |
| SP9KGR-15 | 2026-09-01 06:33:43 | 48.59088 | 18.65919 | 120° | 20km/h | 19585m | 5.6m/s | -53.4°C | 0% | 0hPa | 0V | 00:00:00 | 00:00:00 | 00:00:00 | |
| DO3MHA-12 | 2026-09-01 06:33:35 | 48.59106 | 18.65845 | 109° | 26km/h | 19544m | 4.2m/s | 0°C | 0% | 0hPa | 0V | 00:00:00 | 00:00:00 | 00:00:00 | |
| OE5DXL-15 | 2026-09-01 06:33:34 | 48.59107 | 18.65833 | 94° | 33km/h | 19540m | 5.1m/s | 0°C | 0% | 0hPa | 0V | 00:00:00 | 00:00:00 | 00:00:00 | |
| OE3JTB-15 | 2026-09-01 06:33:33 | 48.59107 | 18.65825 | 94° | 31km/h | 19535m | 3.7m/s | 0°C | 0% | 0hPa | 0V | 00:00:00 | 00:00:00 | 00:00:00 | |
| PETON7-10 | 2026-09-01 06:33:32 | 48.59107 | 18.65819 | 110° | 29km/h | 19531m | 3.9m/s | 0°C | 0% | 0hPa | 0V | 00:00:00 | 00:00:00 | 00:00:00 | |
| SP9KGR-15 | 2026-09-01 06:33:28 | 48.59113 | 18.65773 | 98° | 27km/h | 19517m | 5.6m/s | -53.6°C | 0% | 0hPa | 0V | 00:00:00 | 00:00:00 | 00:00:00 | |
| DO3MHA-12 | 2026-09-01 06:33:25 | 48.59116 | 18.65751 | 108° | 33km/h | 19498m | 4.4m/s | 0°C | 0% | 0hPa | 0V | 00:00:00 | 00:00:00 | 00:00:00 | |
| PETON7-10 | 2026-09-01 06:33:17 | 48.59129 | 18.65651 | 116° | 33km/h | 19463m | 5.2m/s | 0°C | 0% | 0hPa | 0V | 00:00:00 | 00:00:00 | 00:00:00 | |
| DO3MHA-12 | 2026-09-01 06:33:15 | 48.59131 | 18.65625 | 83° | 33km/h | 19453m | 4.1m/s | 0°C | 0% | 0hPa | 0V | 00:00:00 | 00:00:00 | 00:00:00 | |
| SP9KGR-15 | 2026-09-01 06:33:09 | 48.59134 | 18.65547 | 89° | 33km/h | 19430m | 5.2m/s | -53.7°C | 0% | 0hPa | 0V | 00:00:00 | 00:00:00 | 00:00:00 | |
| DO3MHA-12 | 2026-09-01 06:33:05 | 48.59132 | 18.65501 | 90° | 31km/h | 19407m | 5.1m/s | 0°C | 0% | 0hPa | 0V | 00:00:00 | 00:00:00 | 00:00:00 | |
| OE5DXL-15 | 2026-09-01 06:33:04 | 48.59133 | 18.65487 | 102° | 29km/h | 19403m | 3.7m/s | 0°C | 0% | 0hPa | 0V | 00:00:00 | 00:00:00 | 00:00:00 | |
| OE3JTB-15 | 2026-09-01 06:33:03 | 48.59134 | 18.65477 | 103° | 31km/h | 19393m | 4.5m/s | 0°C | 0% | 0hPa | 0V | 00:00:00 | 00:00:00 | 00:00:00 | |
| PETON7-10 | 2026-09-01 06:33:02 | 48.59135 | 18.65467 | 86° | 29km/h | 19393m | 4.5m/s | 0°C | 0% | 0hPa | 0V | 00:00:00 | 00:00:00 | 00:00:00 | |
| DO3MHA-12 | 2026-09-01 06:32:55 | 48.59130 | 18.65387 | 74° | 31km/h | 19361m | 4.0m/s | 0°C | 0% | 0hPa | 0V | 00:00:00 | 00:00:00 | 00:00:00 | |
| SP9KGR-15 | 2026-09-01 06:32:54 | 48.59129 | 18.65377 | 74° | 24km/h | 19361m | 4.1m/s | -54.0°C | 0% | 0hPa | 0V | 00:00:00 | 00:00:00 | 00:00:00 | |
| PETON7-10 | 2026-09-01 06:32:47 | 48.59120 | 18.65298 | 67° | 31km/h | 19325m | 5.7m/s | 0°C | 0% | 0hPa | 0V | 00:00:00 | 00:00:00 | 00:00:00 | |
| DO3MHA-12 | 2026-09-01 06:32:45 | 48.59116 | 18.65279 | 119° | 33km/h | 19315m | 4.3m/s | 0°C | 0% | 0hPa | 0V | 00:00:00 | 00:00:00 | 00:00:00 | |
| SP9KGR-15 | 2026-09-01 06:32:39 | 48.59109 | 18.65200 | 109° | 37km/h | 19287m | 5.7m/s | -54.2°C | 0% | 0hPa | 0V | 00:00:00 | 00:00:00 | 00:00:00 | |
| DO3MHA-12 | 2026-09-01 06:32:35 | 48.59110 | 18.65164 | 52° | 29km/h | 19268m | 4.5m/s | 0°C | 0% | 0hPa | 0V | 00:00:00 | 00:00:00 | 00:00:00 | |
| OE3JTB-15 | 2026-09-01 06:32:34 | 48.59105 | 18.65155 | 49° | 24km/h | 19264m | 4.3m/s | 0°C | 0% | 0hPa | 0V | 00:00:00 | 00:00:00 | 00:00:00 | |
| PETON7-10 | 2026-09-01 06:32:32 | 48.59099 | 18.65135 | 87° | 26km/h | 19255m | 4.6m/s | 0°C | 0% | 0hPa | 0V | 00:00:00 | 00:00:00 | 00:00:00 | |
| DO3MHA-12 | 2026-09-01 06:32:25 | 48.59083 | 18.65072 | 81° | 22km/h | 19222m | 5.7m/s | 0°C | 0% | 0hPa | 0V | 00:00:00 | 00:00:00 | 00:00:00 | |
| OE5WHR-10 | 2026-09-01 06:32:24 | 48.59080 | 18.65064 | 81° | 20km/h | 19199m | 5.3m/s | 0°C | 0% | 0hPa | 0V | 00:00:00 | 00:00:00 | 00:00:00 | |
| SP9KGR-15 | 2026-09-01 06:32:22 | 48.59079 | 18.65044 | 81° | 31km/h | 19213m | 4.6m/s | -54.2°C | 0% | 0hPa | 0V | 00:00:00 | 00:00:00 | 00:00:00 | |
| PETON7-10 | 2026-09-01 06:32:17 | 48.59066 | 18.65008 | 70° | 22km/h | 19185m | 5.1m/s | 0°C | 0% | 0hPa | 0V | 00:00:00 | 00:00:00 | 00:00:00 | |
| DO3MHA-12 | 2026-09-01 06:32:15 | 48.59062 | 18.64992 | 70° | 24km/h | 19175m | 5.3m/s | 0°C | 0% | 0hPa | 0V | 00:00:00 | 00:00:00 | 00:00:00 | |
| SP9KGR-15 | 2026-09-01 06:32:07 | 48.59053 | 18.64930 | 67° | 33km/h | 19143m | 6.1m/s | -54.0°C | 0% | 0hPa | 0V | 00:00:00 | 00:00:00 | 00:00:00 | |
| DO3MHA-12 | 2026-09-01 06:32:05 | 48.59047 | 18.64914 | 113° | 22km/h | 19129m | 4.7m/s | 0°C | 0% | 0hPa | 0V | 00:00:00 | 00:00:00 | 00:00:00 | |
| PETON7-10 | 2026-09-01 06:32:02 | 48.59050 | 18.64895 | 70° | 26km/h | 19116m | 4.3m/s | 0°C | 0% | 0hPa | 0V | 00:00:00 | 00:00:00 | 00:00:00 | |
| OE5WHR-10 | 2026-09-01 06:31:59 | 48.59043 | 18.64876 | 98° | 22km/h | 19102m | 4.5m/s | 0°C | 0% | 0hPa | 0V | 00:00:00 | 00:00:00 | 00:00:00 | |
| DO3MHA-12 | 2026-09-01 06:31:55 | 48.59046 | 18.64833 | 89° | 29km/h | 19083m | 3.7m/s | 0°C | 0% | 0hPa | 0V | 00:00:00 | 00:00:00 | 00:00:00 | |
| SP9KGR-15 | 2026-09-01 06:31:52 | 48.59041 | 18.64802 | 74° | 37km/h | 19073m | 3.9m/s | -54.4°C | 0% | 0hPa | 0V | 00:00:00 | 00:00:00 | 00:00:00 | |
| GYPAP8-17 | 2026-09-01 06:31:48 | 48.59040 | 18.64761 | 69° | 27km/h | 19054m | 5.3m/s | -54.4°C | 0% | 0hPa | 0V | 00:00:00 | 00:00:00 | 00:00:00 | |
| PETON7-10 | 2026-09-01 06:31:47 | 48.59036 | 18.64750 | 62° | 27km/h | 19045m | 4.8m/s | 0°C | 0% | 0hPa | 0V | 00:00:00 | 00:00:00 | 00:00:00 | |
| DO3MHA-12 | 2026-09-01 06:31:45 | 48.59032 | 18.64727 | 95° | 26km/h | 19036m | 3.9m/s | 0°C | 0% | 0hPa | 0V | 00:00:00 | 00:00:00 | 00:00:00 | |
| SP9KGR-15 | 2026-09-01 06:31:37 | 48.59019 | 18.64648 | 70° | 27km/h | 19004m | 4.6m/s | -54.2°C | 0% | 0hPa | 0V | 00:00:00 | 00:00:00 | 00:00:00 | |
| DO3MHA-12 | 2026-09-01 06:31:35 | 48.59016 | 18.64635 | 65° | 26km/h | 18990m | 5.6m/s | 0°C | 0% | 0hPa | 0V | 00:00:00 | 00:00:00 | 00:00:00 | |
| OE5DXL-15 | 2026-09-01 06:31:27 | 48.58999 | 18.64571 | 54° | 18km/h | 18925m | 4.4m/s | 0°C | 0% | 0hPa | 0V | 00:00:00 | 00:00:00 | 00:00:00 | |
| DO3MHA-12 | 2026-09-01 06:31:25 | 48.58993 | 18.64550 | 84° | 22km/h | 18944m | 5.1m/s | 0°C | 0% | 0hPa | 0V | 00:00:00 | 00:00:00 | 00:00:00 | |
| SP9KGR-15 | 2026-09-01 06:31:22 | 48.58988 | 18.64526 | 66° | 15km/h | 18934m | 5.1m/s | -53.7°C | 0% | 0hPa | 0V | 00:00:00 | 00:00:00 | 00:00:00 | |
| OE5WHR-10 | 2026-09-01 06:31:18 | 48.58979 | 18.64496 | 80° | 18km/h | 18910m | 5.0m/s | 0°C | 0% | 0hPa | 0V | 00:00:00 | 00:00:00 | 00:00:00 | |
| DO3MHA-12 | 2026-09-01 06:31:15 | 48.58976 | 18.64474 | 62° | 20km/h | 18895m | 3.7m/s | 0°C | 0% | 0hPa | 0V | 00:00:00 | 00:00:00 | 00:00:00 | |
| SP9KGR-15 | 2026-09-01 06:31:07 | 48.58958 | 18.64426 | 87° | 5km/h | 18864m | 4.8m/s | -53.6°C | 0% | 0hPa | 0V | 00:00:00 | 00:00:00 | 00:00:00 | |
| DO3MHA-12 | 2026-09-01 06:31:04 | 48.58955 | 18.64406 | 50° | 18km/h | 18846m | 4.9m/s | 0°C | 0% | 0hPa | 0V | 00:00:00 | 00:00:00 | 00:00:00 | |
| PETON7-10 | 2026-09-01 06:31:02 | 48.58948 | 18.64394 | 66° | 15km/h | 18837m | 5.5m/s | 0°C | 0% | 0hPa | 0V | 00:00:00 | 00:00:00 | 00:00:00 | |
| OE5WHR-10 | 2026-09-01 06:30:57 | 48.58943 | 18.64373 | 33° | 15km/h | 18805m | 5.4m/s | 0°C | 0% | 0hPa | 0V | 00:00:00 | 00:00:00 | 00:00:00 | |
| OE5DXL-15 | 2026-09-01 06:30:53 | 48.58930 | 18.64362 | 95° | 13km/h | 18795m | 4.5m/s | 0°C | 0% | 0hPa | 0V | 00:00:00 | 00:00:00 | 00:00:00 | |
| SP9KGR-15 | 2026-09-01 06:30:51 | 48.58931 | 18.64348 | 53° | 22km/h | 18791m | 5.1m/s | -53.3°C | 0% | 0hPa | 0V | 00:00:00 | 00:00:00 | 00:00:00 | |
| PETON7-10 | 2026-09-01 06:30:47 | 48.58922 | 18.64336 | 61° | 16km/h | 18769m | 5.0m/s | 0°C | 0% | 0hPa | 0V | 00:00:00 | 00:00:00 | 00:00:00 | |
| OE3JTB-15 | 2026-09-01 06:30:35 | 48.58897 | 18.64276 | 23° | 9km/h | 18714m | 4.8m/s | 0°C | 0% | 0hPa | 0V | 00:00:00 | 00:00:00 | 00:00:00 | |
| OE5WHR-10 | 2026-09-01 06:30:34 | 48.58893 | 18.64273 | 23° | 9km/h | 18709m | 4.5m/s | 0°C | 0% | 0hPa | 0V | 00:00:00 | 00:00:00 | 00:00:00 | |
| PETON7-10 | 2026-09-01 06:30:32 | 48.58890 | 18.64269 | 90° | 11km/h | 18700m | 4.5m/s | 0°C | 0% | 0hPa | 0V | 00:00:00 | 00:00:00 | 00:00:00 | |
| OE5DXL-15 | 2026-09-01 06:30:21 | 48.58871 | 18.64243 | 15° | 9km/h | 18636m | 4.6m/s | 0°C | 0% | 0hPa | 0V | 00:00:00 | 00:00:00 | 00:00:00 | |
| PETON7-10 | 2026-09-01 06:30:17 | 48.58863 | 18.64234 | 338° | 9km/h | 18632m | 3.7m/s | 0°C | 0% | 0hPa | 0V | 00:00:00 | 00:00:00 | 00:00:00 | |
| OE5WHR-10 | 2026-09-01 06:30:13 | 48.58858 | 18.64230 | 355° | 9km/h | 18613m | 3.9m/s | 0°C | 0% | 0hPa | 0V | 00:00:00 | 00:00:00 | 00:00:00 | |
| OE3JTB-15 | 2026-09-01 06:30:06 | 48.58844 | 18.64230 | 46° | 11km/h | 18580m | 4.3m/s | 0°C | 0% | 0hPa | 0V | 00:00:00 | 00:00:00 | 00:00:00 | |
| PETON7-10 | 2026-09-01 06:30:02 | 48.58836 | 18.64219 | 343° | 11km/h | 18563m | 4.9m/s | 0°C | 0% | 0hPa | 0V | 00:00:00 | 00:00:00 | 00:00:00 | |
| OE5WHR-10 | 2026-09-01 06:29:52 | 48.58818 | 18.64199 | 59° | 9km/h | 18521m | 4.8m/s | 0°C | 0% | 0hPa | 0V | 00:00:00 | 00:00:00 | 00:00:00 | |
| PETON7-10 | 2026-09-01 06:29:47 | 48.58810 | 18.64193 | 73° | 9km/h | 18494m | 5.5m/s | 0°C | 0% | 0hPa | 0V | 00:00:00 | 00:00:00 | 00:00:00 | |
| OE3JTB-15 | 2026-09-01 06:29:37 | 48.58800 | 18.64168 | 86° | 11km/h | 18453m | 5.5m/s | 0°C | 0% | 0hPa | 0V | 00:00:00 | 00:00:00 | 00:00:00 | |
| OE5DXL-15 | 2026-09-01 06:29:33 | 48.58798 | 18.64169 | 32° | 9km/h | 18399m | 5.9m/s | 0°C | 0% | 0hPa | 0V | 00:00:00 | 00:00:00 | 00:00:00 | |
| PETON7-10 | 2026-09-01 06:29:32 | 48.58796 | 18.64168 | 90° | 11km/h | 18429m | 5.0m/s | 0°C | 0% | 0hPa | 0V | 00:00:00 | 00:00:00 | 00:00:00 | |
| OE5WHR-10 | 2026-09-01 06:29:31 | 48.58796 | 18.64164 | 104° | 13km/h | 18421m | 4.6m/s | 0°C | 0% | 0hPa | 0V | 00:00:00 | 00:00:00 | 00:00:00 | |
| PETON7-10 | 2026-09-01 06:29:17 | 48.58797 | 18.64149 | 95° | 9km/h | 18361m | 4.1m/s | 0°C | 0% | 0hPa | 0V | 00:00:00 | 00:00:00 | 00:00:00 | |
| OE5WHR-10 | 2026-09-01 06:29:08 | 48.58796 | 18.64139 | 64° | 13km/h | 18314m | 4.6m/s | 0°C | 0% | 0hPa | 0V | 00:00:00 | 00:00:00 | 00:00:00 | |
| PETON7-10 | 2026-09-01 06:29:02 | 48.58801 | 18.64124 | 89° | 13km/h | 18296m | 3.8m/s | 0°C | 0% | 0hPa | 0V | 00:00:00 | 00:00:00 | 00:00:00 | |
| OE5DXL-15 | 2026-09-01 06:29:00 | 48.58799 | 18.64116 | 81° | 16km/h | 18282m | 5.3m/s | 0°C | 0% | 0hPa | 0V | 00:00:00 | 00:00:00 | 00:00:00 | |
| OE5WHR-10 | 2026-09-01 06:28:47 | 48.58791 | 18.64055 | 40° | 18km/h | 18224m | 6.2m/s | 0°C | 0% | 0hPa | 0V | 00:00:00 | 00:00:00 | 00:00:00 | |
| OE3JTB-15 | 2026-09-01 06:28:33 | 48.58786 | 18.63976 | 103° | 26km/h | 18143m | 5.3m/s | 0°C | 0% | 0hPa | 0V | 00:00:00 | 00:00:00 | 00:00:00 | |
| PETON7-10 | 2026-09-01 06:28:32 | 48.58787 | 18.63968 | 71° | 24km/h | 18162m | 5.5m/s | 0°C | 0% | 0hPa | 0V | 00:00:00 | 00:00:00 | 00:00:00 | |
| OE5DXL-15 | 2026-09-01 06:28:30 | 48.58781 | 18.63956 | 104° | 27km/h | 18143m | 5.3m/s | 0°C | 0% | 0hPa | 0V | 00:00:00 | 00:00:00 | 00:00:00 | |
| OE5WHR-10 | 2026-09-01 06:28:26 | 48.58788 | 18.63935 | 68° | 29km/h | 18130m | 6.4m/s | 0°C | 0% | 0hPa | 0V | 00:00:00 | 00:00:00 | 00:00:00 | |
| PETON7-10 | 2026-09-01 06:28:17 | 48.58786 | 18.63851 | 76° | 27km/h | 18094m | 4.8m/s | 0°C | 0% | 0hPa | 0V | 00:00:00 | 00:00:00 | 00:00:00 | |
| OE5WHR-10 | 2026-09-01 06:28:04 | 48.58799 | 18.63713 | 93° | 35km/h | 18031m | 4.7m/s | 0°C | 0% | 0hPa | 0V | 00:00:00 | 00:00:00 | 00:00:00 | |
| PETON7-10 | 2026-09-01 06:28:02 | 48.58801 | 18.63694 | 102° | 35km/h | 18022m | 5.4m/s | 0°C | 0% | 0hPa | 0V | 00:00:00 | 00:00:00 | 00:00:00 | |
| OE5DXL-15 | 2026-09-01 06:28:00 | 48.58805 | 18.63664 | 95° | 35km/h | 18003m | 4.6m/s | 0°C | 0% | 0hPa | 0V | 00:00:00 | 00:00:00 | 00:00:00 | |
| PETON7-10 | 2026-09-01 06:27:47 | 48.58827 | 18.63504 | 105° | 38km/h | 17953m | 3.5m/s | 0°C | 0% | 0hPa | 0V | 00:00:00 | 00:00:00 | 00:00:00 | |
| OE5WHR-10 | 2026-09-01 06:27:39 | 48.58845 | 18.63399 | 115° | 44km/h | 17909m | 4.6m/s | 0°C | 0% | 0hPa | 0V | 00:00:00 | 00:00:00 | 00:00:00 | |
| PETON7-10 | 2026-09-01 06:27:32 | 48.58863 | 18.63298 | 102° | 46km/h | 17880m | 5.4m/s | 0°C | 0% | 0hPa | 0V | 00:00:00 | 00:00:00 | 00:00:00 | |
| SQ9EZE-15 | 2026-09-01 06:27:31 | 48.58868 | 18.63272 | 112° | 37km/h | 17870m | 5.3m/s | -51.2°C | 0% | 0hPa | 0V | 00:00:00 | 00:00:00 | 00:00:00 | |
| OE5DXL-15 | 2026-09-01 06:27:30 | 48.58868 | 18.63272 | 111° | 49km/h | 17865m | 4.8m/s | 0°C | 0% | 0hPa | 0V | 00:00:00 | 00:00:00 | 00:00:00 | |
| PETON7-10 | 2026-09-01 06:27:17 | 48.58911 | 18.63047 | 109° | 51km/h | 17811m | 5.0m/s | 0°C | 0% | 0hPa | 0V | 00:00:00 | 00:00:00 | 00:00:00 | |
| OE5WHR-10 | 2026-09-01 06:27:12 | 48.58928 | 18.62961 | 100° | 57km/h | 17785m | 5.4m/s | 0°C | 0% | 0hPa | 0V | 00:00:00 | 00:00:00 | 00:00:00 | |
| PETON7-10 | 2026-09-01 06:27:02 | 48.58949 | 18.62760 | 95° | 60km/h | 17738m | 4.1m/s | 0°C | 0% | 0hPa | 0V | 00:00:00 | 00:00:00 | 00:00:00 | |
| OE5DXL-15 | 2026-09-01 06:27:00 | 48.58955 | 18.62713 | 104° | 60km/h | 17720m | 4.1m/s | 0°C | 0% | 0hPa | 0V | 00:00:00 | 00:00:00 | 00:00:00 | |
| OE5WHR-10 | 2026-09-01 06:26:51 | 48.58966 | 18.62509 | 89° | 62km/h | 17693m | 5.0m/s | 0°C | 0% | 0hPa | 0V | 00:00:00 | 00:00:00 | 00:00:00 | |
| PETON7-10 | 2026-09-01 06:26:47 | 48.58967 | 18.62415 | 93° | 62km/h | 17670m | 5.5m/s | 0°C | 0% | 0hPa | 0V | 00:00:00 | 00:00:00 | 00:00:00 | |
| OE3JTB-15 | 2026-09-01 06:26:33 | 48.58949 | 18.62086 | 75° | 58km/h | 17588m | 4.0m/s | 0°C | 0% | 0hPa | 0V | 00:00:00 | 00:00:00 | 00:00:00 | |
| PETON7-10 | 2026-09-01 06:26:32 | 48.58945 | 18.62064 | 80° | 62km/h | 17601m | 3.6m/s | 0°C | 0% | 0hPa | 0V | 00:00:00 | 00:00:00 | 00:00:00 | |
| OE5DXL-15 | 2026-09-01 06:26:30 | 48.58942 | 18.62020 | 82° | 58km/h | 17588m | 4.0m/s | 0°C | 0% | 0hPa | 0V | 00:00:00 | 00:00:00 | 00:00:00 | |
| OE5WHR-10 | 2026-09-01 06:26:28 | 48.58933 | 18.61968 | 75° | 58km/h | 17583m | 5.0m/s | 0°C | 0% | 0hPa | 0V | 00:00:00 | 00:00:00 | 00:00:00 | |
| PETON7-10 | 2026-09-01 06:26:17 | 48.58895 | 18.61720 | 89° | 55km/h | 17531m | 4.6m/s | 0°C | 0% | 0hPa | 0V | 00:00:00 | 00:00:00 | 00:00:00 | |
| OE5WHR-10 | 2026-09-01 06:26:07 | 48.58865 | 18.61517 | 74° | 53km/h | 17484m | 5.0m/s | 0°C | 0% | 0hPa | 0V | 00:00:00 | 00:00:00 | 00:00:00 | |
| OE3JTB-15 | 2026-09-01 06:26:04 | 48.58847 | 18.61453 | 77° | 51km/h | 17465m | 4.3m/s | 0°C | 0% | 0hPa | 0V | 00:00:00 | 00:00:00 | 00:00:00 | |
| PETON7-10 | 2026-09-01 06:26:02 | 48.58846 | 18.61418 | 86° | 53km/h | 17460m | 4.9m/s | 0°C | 0% | 0hPa | 0V | 00:00:00 | 00:00:00 | 00:00:00 | |
| GYPAP8-17 | 2026-09-01 06:26:01 | 48.58843 | 18.61399 | 71° | 55km/h | 17460m | 4.9m/s | -52.1°C | 0% | 0hPa | 0V | 00:00:00 | 00:00:00 | 00:00:00 | |
| OE5DXL-15 | 2026-09-01 06:26:00 | 48.58837 | 18.61380 | 63° | 51km/h | 17452m | 4.4m/s | 0°C | 0% | 0hPa | 0V | 00:00:00 | 00:00:00 | 00:00:00 | |
| PETON7-10 | 2026-09-01 06:25:47 | 48.58784 | 18.61135 | 64° | 49km/h | 17392m | 3.9m/s | 0°C | 0% | 0hPa | 0V | 00:00:00 | 00:00:00 | 00:00:00 | |
| OE5WHR-10 | 2026-09-01 06:25:46 | 48.58779 | 18.61121 | 84° | 46km/h | 17382m | 3.1m/s | 0°C | 0% | 0hPa | 0V | 00:00:00 | 00:00:00 | 00:00:00 | |
| OE3JTB-15 | 2026-09-01 06:25:35 | 48.58733 | 18.60927 | 59° | 47km/h | 17336m | 5.0m/s | 0°C | 0% | 0hPa | 0V | 00:00:00 | 00:00:00 | 00:00:00 | |
| PETON7-10 | 2026-09-01 06:25:32 | 48.58716 | 18.60880 | 71° | 47km/h | 17322m | 4.1m/s | 0°C | 0% | 0hPa | 0V | 00:00:00 | 00:00:00 | 00:00:00 | |
| OE5DXL-15 | 2026-09-01 06:25:30 | 48.58708 | 18.60845 | 70° | 47km/h | 17313m | 5.0m/s | 0°C | 0% | 0hPa | 0V | 00:00:00 | 00:00:00 | 00:00:00 | |
| SQ9EZE-15 | 2026-09-01 06:25:29 | 48.58703 | 18.60827 | 60° | 55km/h | 17313m | 5.0m/s | -51.8°C | 0% | 0hPa | 0V | 00:00:00 | 00:00:00 | 00:00:00 | |
| PETON7-10 | 2026-09-01 06:25:17 | 48.58634 | 18.60638 | 61° | 47km/h | 17254m | 4.2m/s | 0°C | 0% | 0hPa | 0V | 00:00:00 | 00:00:00 | 00:00:00 | |
| OE3JTB-15 | 2026-09-01 06:25:06 | 48.58554 | 18.60486 | 50° | 37km/h | 17165m | 4.5m/s | 0°C | 0% | 0hPa | 0V | 00:00:00 | 00:00:00 | 00:00:00 | |
| PETON7-10 | 2026-09-01 06:25:02 | 48.58525 | 18.60432 | 42° | 38km/h | 17188m | 5.0m/s | 0°C | 0% | 0hPa | 0V | 00:00:00 | 00:00:00 | 00:00:00 | |
| OE5WHR-10 | 2026-09-01 06:25:00 | 48.58514 | 18.60410 | 63° | 37km/h | 17179m | 5.2m/s | 0°C | 0% | 0hPa | 0V | 00:00:00 | 00:00:00 | 00:00:00 | |
| PETON7-10 | 2026-09-01 06:24:47 | 48.58441 | 18.60258 | 48° | 29km/h | 17121m | 5.0m/s | 0°C | 0% | 0hPa | 0V | 00:00:00 | 00:00:00 | 00:00:00 | |
| OE5WHR-10 | 2026-09-01 06:24:39 | 48.58416 | 18.60179 | 87° | 31km/h | 17084m | 5.5m/s | 0°C | 0% | 0hPa | 0V | 00:00:00 | 00:00:00 | 00:00:00 | |
| PETON7-10 | 2026-09-01 06:24:32 | 48.58399 | 18.60107 | 76° | 33km/h | 17051m | 5.2m/s | 0°C | 0% | 0hPa | 0V | 00:00:00 | 00:00:00 | 00:00:00 | |
| OE3JTB-15 | 2026-09-01 06:24:31 | 48.58396 | 18.60094 | 72° | 44km/h | 17051m | 5.2m/s | 0°C | 0% | 0hPa | 0V | 00:00:00 | 00:00:00 | 00:00:00 | |
| OE5DXL-15 | 2026-09-01 06:24:29 | 48.58390 | 18.60085 | 89° | 49km/h | 17031m | 5.0m/s | 0°C | 0% | 0hPa | 0V | 00:00:00 | 00:00:00 | 00:00:00 | |
| OE5WHR-10 | 2026-09-01 06:24:18 | 48.58374 | 18.59942 | 91° | 38km/h | 16987m | 4.6m/s | 0°C | 0% | 0hPa | 0V | 00:00:00 | 00:00:00 | 00:00:00 | |
| PETON7-10 | 2026-09-01 06:24:17 | 48.58375 | 18.59932 | 91° | 37km/h | 16982m | 3.9m/s | 0°C | 0% | 0hPa | 0V | 00:00:00 | 00:00:00 | 00:00:00 | |
| PETON7-10 | 2026-09-01 06:24:02 | 48.58374 | 18.59731 | 72° | 44km/h | 16914m | 3.4m/s | 0°C | 0% | 0hPa | 0V | 00:00:00 | 00:00:00 | 00:00:00 | |
| OE5WHR-10 | 2026-09-01 06:23:57 | 48.58383 | 18.59654 | 100° | 42km/h | 16885m | 4.4m/s | 0°C | 0% | 0hPa | 0V | 00:00:00 | 00:00:00 | 00:00:00 | |
| PETON7-10 | 2026-09-01 06:23:47 | 48.58395 | 18.59478 | 99° | 44km/h | 16847m | 4.1m/s | 0°C | 0% | 0hPa | 0V | 00:00:00 | 00:00:00 | 00:00:00 | |
| OE3JTB-15 | 2026-09-01 06:23:45 | 48.58400 | 18.59439 | 110° | 42km/h | 16839m | 4.0m/s | 0°C | 0% | 0hPa | 0V | 00:00:00 | 00:00:00 | 00:00:00 | |
| SQ9EZE-15 | 2026-09-01 06:23:40 | 48.58403 | 18.59363 | 103° | 42km/h | 16820m | 4.3m/s | -54.7°C | 0% | 0hPa | 0V | 00:00:00 | 00:00:00 | 00:00:00 | |
| PETON7-10 | 2026-09-01 06:23:32 | 48.58416 | 18.59235 | 108° | 42km/h | 16779m | 4.2m/s | 0°C | 0% | 0hPa | 0V | 00:00:00 | 00:00:00 | 00:00:00 | |
| OE5WHR-10 | 2026-09-01 06:23:25 | 48.58424 | 18.59123 | 101° | 46km/h | 16743m | 3.2m/s | 0°C | 0% | 0hPa | 0V | 00:00:00 | 00:00:00 | 00:00:00 | |
| SQ9EZE-15 | 2026-09-01 06:23:20 | 48.58434 | 18.59039 | 88° | 53km/h | 16730m | 2.9m/s | -54.3°C | 0% | 0hPa | 0V | 00:00:00 | 00:00:00 | 00:00:00 | |
| PETON7-10 | 2026-09-01 06:23:17 | 48.58436 | 18.58995 | 112° | 46km/h | 16712m | 4.1m/s | 0°C | 0% | 0hPa | 0V | 00:00:00 | 00:00:00 | 00:00:00 | |
| OE3JTB-15 | 2026-09-01 06:23:14 | 48.58443 | 18.58943 | 91° | 47km/h | 16698m | 4.0m/s | 0°C | 0% | 0hPa | 0V | 00:00:00 | 00:00:00 | 00:00:00 | |
| PETON7-10 | 2026-09-01 06:23:02 | 48.58460 | 18.58740 | 100° | 49km/h | 16643m | 5.2m/s | 0°C | 0% | 0hPa | 0V | 00:00:00 | 00:00:00 | 00:00:00 | |
| PETON7-10 | 2026-09-01 06:22:47 | 48.58486 | 18.58458 | 101° | 51km/h | 16575m | 4.4m/s | 0°C | 0% | 0hPa | 0V | 00:00:00 | 00:00:00 | 00:00:00 | |
| OE3JTB-15 | 2026-09-01 06:22:45 | 48.58492 | 18.58426 | 110° | 51km/h | 16570m | 5.0m/s | 0°C | 0% | 0hPa | 0V | 00:00:00 | 00:00:00 | 00:00:00 | |
| OE5WHR-10 | 2026-09-01 06:22:41 | 48.58501 | 18.58342 | 100° | 51km/h | 16552m | 4.5m/s | 0°C | 0% | 0hPa | 0V | 00:00:00 | 00:00:00 | 00:00:00 | |
| PETON7-10 | 2026-09-01 06:22:32 | 48.58522 | 18.58176 | 103° | 51km/h | 16509m | 4.6m/s | 0°C | 0% | 0hPa | 0V | 00:00:00 | 00:00:00 | 00:00:00 | |
| OE5WHR-10 | 2026-09-01 06:22:20 | 48.58545 | 18.57947 | 97° | 51km/h | 16449m | 4.7m/s | 0°C | 0% | 0hPa | 0V | 00:00:00 | 00:00:00 | 00:00:00 | |
| PETON7-10 | 2026-09-01 06:22:17 | 48.58547 | 18.57891 | 91° | 53km/h | 16440m | 5.0m/s | 0°C | 0% | 0hPa | 0V | 00:00:00 | 00:00:00 | 00:00:00 | |
| PETON7-10 | 2026-09-01 06:22:02 | 48.58555 | 18.57597 | 89° | 51km/h | 16370m | 4.7m/s | 0°C | 0% | 0hPa | 0V | 00:00:00 | 00:00:00 | 00:00:00 | |
| OE5WHR-10 | 2026-09-01 06:21:57 | 48.58559 | 18.57503 | 78° | 53km/h | 16330m | 4.6m/s | 0°C | 0% | 0hPa | 0V | 00:00:00 | 00:00:00 | 00:00:00 | |
| PETON7-10 | 2026-09-01 06:21:47 | 48.58545 | 18.57307 | 94° | 53km/h | 16296m | 5.0m/s | 0°C | 0% | 0hPa | 0V | 00:00:00 | 00:00:00 | 00:00:00 | |
| OE5WHR-10 | 2026-09-01 06:21:35 | 48.58537 | 18.57060 | 88° | 58km/h | 16203m | 5.3m/s | 0°C | 0% | 0hPa | 0V | 00:00:00 | 00:00:00 | 00:00:00 | |
| PETON7-10 | 2026-09-01 06:21:32 | 48.58536 | 18.57001 | 94° | 58km/h | 16221m | 5.8m/s | 0°C | 0% | 0hPa | 0V | 00:00:00 | 00:00:00 | 00:00:00 | |
| OE3JTB-15 | 2026-09-01 06:21:18 | 48.58519 | 18.56694 | 90° | 64km/h | 16151m | 4.7m/s | 0°C | 0% | 0hPa | 0V | 00:00:00 | 00:00:00 | 00:00:00 | |
| PETON7-10 | 2026-09-01 06:21:17 | 48.58518 | 18.56665 | 84° | 62km/h | 16151m | 4.7m/s | 0°C | 0% | 0hPa | 0V | 00:00:00 | 00:00:00 | 00:00:00 | |
| GYPAP8-17 | 2026-09-01 06:21:12 | 48.58502 | 18.56532 | 82° | 64km/h | 16125m | 4.7m/s | -54.2°C | 0% | 0hPa | 0V | 00:00:00 | 00:00:00 | 00:00:00 | |
| OE5WHR-10 | 2026-09-01 06:21:11 | 48.58502 | 18.56532 | 82° | 64km/h | 16111m | 4.5m/s | 0°C | 0% | 0hPa | 0V | 00:00:00 | 00:00:00 | 00:00:00 | |
| PETON7-10 | 2026-09-01 06:21:02 | 48.58470 | 18.56315 | 77° | 68km/h | 16085m | 4.2m/s | 0°C | 0% | 0hPa | 0V | 00:00:00 | 00:00:00 | 00:00:00 | |
| OE5DXL-15 | 2026-09-01 06:20:53 | 48.58439 | 18.56092 | 79° | 66km/h | 16036m | 5.5m/s | 0°C | 0% | 0hPa | 0V | 00:00:00 | 00:00:00 | 00:00:00 | |
| OE3JTB-15 | 2026-09-01 06:20:49 | 48.58423 | 18.55992 | 66° | 69km/h | 16028m | 4.9m/s | 0°C | 0% | 0hPa | 0V | 00:00:00 | 00:00:00 | 00:00:00 | |
| PETON7-10 | 2026-09-01 06:20:47 | 48.58412 | 18.55939 | 78° | 71km/h | 16019m | 3.9m/s | 0°C | 0% | 0hPa | 0V | 00:00:00 | 00:00:00 | 00:00:00 | |
| PETON7-10 | 2026-09-01 06:20:32 | 48.58329 | 18.55555 | 66° | 69km/h | 15954m | 3.9m/s | 0°C | 0% | 0hPa | 0V | 00:00:00 | 00:00:00 | 00:00:00 | |
| OE5WHR-10 | 2026-09-01 06:20:23 | 48.58265 | 18.55340 | 63° | 66km/h | 15911m | 3.8m/s | 0°C | 0% | 0hPa | 0V | 00:00:00 | 00:00:00 | 00:00:00 | |
| OE3JTB-15 | 2026-09-01 06:20:20 | 48.58246 | 18.55274 | 68° | 68km/h | 15898m | 4.6m/s | 0°C | 0% | 0hPa | 0V | 00:00:00 | 00:00:00 | 00:00:00 | |
| PETON7-10 | 2026-09-01 06:20:17 | 48.58221 | 18.55201 | 61° | 66km/h | 15890m | 5.4m/s | 0°C | 0% | 0hPa | 0V | 00:00:00 | 00:00:00 | 00:00:00 | |
| GYPAP8-17 | 2026-09-01 06:20:14 | 48.58203 | 18.55142 | 63° | 68km/h | 15877m | 4.4m/s | -54.6°C | 0% | 0hPa | 0V | 00:00:00 | 00:00:00 | 00:00:00 | |
| PETON7-10 | 2026-09-01 06:20:02 | 48.58110 | 18.54867 | 65° | 68km/h | 15827m | 3.5m/s | 0°C | 0% | 0hPa | 0V | 00:00:00 | 00:00:00 | 00:00:00 | |
| OE5DXL-15 | 2026-09-01 06:20:01 | 48.58103 | 18.54847 | 61° | 68km/h | 15803m | 4.0m/s | 0°C | 0% | 0hPa | 0V | 00:00:00 | 00:00:00 | 00:00:00 | |
| OE3JTB-15 | 2026-09-01 06:19:51 | 48.58035 | 18.54608 | 65° | 68km/h | 15784m | 2.0m/s | 0°C | 0% | 0hPa | 0V | 00:00:00 | 00:00:00 | 00:00:00 | |
| PETON7-10 | 2026-09-01 06:19:47 | 48.58014 | 18.54506 | 67° | 68km/h | 15766m | 4.0m/s | 0°C | 0% | 0hPa | 0V | 00:00:00 | 00:00:00 | 00:00:00 | |
| OE5WHR-10 | 2026-09-01 06:19:42 | 48.57982 | 18.54386 | 77° | 66km/h | 15747m | 4.8m/s | 0°C | 0% | 0hPa | 0V | 00:00:00 | 00:00:00 | 00:00:00 | |
| SQ9EZE-15 | 2026-09-01 06:19:34 | 48.57936 | 18.54194 | 73° | 66km/h | 15720m | 3.7m/s | -54.3°C | 0% | 0hPa | 0V | 00:00:00 | 00:00:00 | 00:00:00 | |
| PETON7-10 | 2026-09-01 06:19:32 | 48.57926 | 18.54148 | 72° | 64km/h | 15709m | 3.3m/s | 0°C | 0% | 0hPa | 0V | 00:00:00 | 00:00:00 | 00:00:00 | |
| OE5DXL-15 | 2026-09-01 06:19:31 | 48.57920 | 18.54125 | 68° | 60km/h | 15705m | 4.3m/s | 0°C | 0% | 0hPa | 0V | 00:00:00 | 00:00:00 | 00:00:00 | |
| OE3JTB-15 | 2026-09-01 06:19:22 | 48.57866 | 18.53915 | 71° | 62km/h | 15672m | 2.6m/s | 0°C | 0% | 0hPa | 0V | 00:00:00 | 00:00:00 | 00:00:00 | |
| OE5WHR-10 | 2026-09-01 06:19:21 | 48.57860 | 18.53889 | 74° | 62km/h | 15669m | 4.8m/s | 0°C | 0% | 0hPa | 0V | 00:00:00 | 00:00:00 | 00:00:00 | |
| PETON7-10 | 2026-09-01 06:19:17 | 48.57839 | 18.53803 | 66° | 64km/h | 15653m | 4.2m/s | 0°C | 0% | 0hPa | 0V | 00:00:00 | 00:00:00 | 00:00:00 | |
| PETON7-10 | 2026-09-01 06:19:02 | 48.57747 | 18.53471 | 71° | 58km/h | 15601m | 3.8m/s | 0°C | 0% | 0hPa | 0V | 00:00:00 | 00:00:00 | 00:00:00 | |
| OE5DXL-15 | 2026-09-01 06:19:00 | 48.57738 | 18.53427 | 74° | 62km/h | 15580m | 2.6m/s | 0°C | 0% | 0hPa | 0V | 00:00:00 | 00:00:00 | 00:00:00 | |
| OE5WHR-10 | 2026-09-01 06:18:59 | 48.57734 | 18.53403 | 71° | 60km/h | 15595m | 2.2m/s | 0°C | 0% | 0hPa | 0V | 00:00:00 | 00:00:00 | 00:00:00 | |
| OE3JTB-15 | 2026-09-01 06:18:53 | 48.57694 | 18.53285 | 77° | 58km/h | 15573m | 3.4m/s | 0°C | 0% | 0hPa | 0V | 00:00:00 | 00:00:00 | 00:00:00 | |
| PETON7-10 | 2026-09-01 06:18:47 | 48.57661 | 18.53166 | 70° | 58km/h | 15548m | 3.9m/s | 0°C | 0% | 0hPa | 0V | 00:00:00 | 00:00:00 | 00:00:00 | |
| OE5WHR-10 | 2026-09-01 06:18:36 | 48.57602 | 18.52932 | 57° | 60km/h | 15498m | 2.9m/s | 0°C | 0% | 0hPa | 0V | 00:00:00 | 00:00:00 | 00:00:00 | |
| PETON7-10 | 2026-09-01 06:18:32 | 48.57587 | 18.52850 | 78° | 58km/h | 15492m | 3.3m/s | 0°C | 0% | 0hPa | 0V | 00:00:00 | 00:00:00 | 00:00:00 | |
| OE5DXL-15 | 2026-09-01 06:18:29 | 48.57566 | 18.52779 | 72° | 64km/h | 15471m | 3.5m/s | 0°C | 0% | 0hPa | 0V | 00:00:00 | 00:00:00 | 00:00:00 | |
| OE3JTB-15 | 2026-09-01 06:18:24 | 48.57548 | 18.52682 | 67° | 64km/h | 15463m | 4.2m/s | 0°C | 0% | 0hPa | 0V | 00:00:00 | 00:00:00 | 00:00:00 | |
| PETON7-10 | 2026-09-01 06:18:17 | 48.57520 | 18.52536 | 68° | 64km/h | 15434m | 3.4m/s | 0°C | 0% | 0hPa | 0V | 00:00:00 | 00:00:00 | 00:00:00 | |
| OE5WHR-10 | 2026-09-01 06:18:15 | 48.57508 | 18.52486 | 73° | 66km/h | 15418m | 4.3m/s | 0°C | 0% | 0hPa | 0V | 00:00:00 | 00:00:00 | 00:00:00 | |
| PETON7-10 | 2026-09-01 06:18:02 | 48.57464 | 18.52177 | 80° | 66km/h | 15378m | 3.7m/s | 0°C | 0% | 0hPa | 0V | 00:00:00 | 00:00:00 | 00:00:00 | |
| SQ9EZE-15 | 2026-09-01 06:17:57 | 48.57444 | 18.52053 | 84° | 62km/h | 15365m | 4.2m/s | -53.5°C | 0% | 0hPa | 0V | 00:00:00 | 00:00:00 | 00:00:00 | |
| OE3JTB-15 | 2026-09-01 06:17:55 | 48.57440 | 18.52007 | 78° | 64km/h | 15355m | 2.9m/s | 0°C | 0% | 0hPa | 0V | 00:00:00 | 00:00:00 | 00:00:00 | |
| OE5WHR-10 | 2026-09-01 06:17:53 | 48.57431 | 18.51957 | 76° | 64km/h | 15319m | 5.1m/s | 0°C | 0% | 0hPa | 0V | 00:00:00 | 00:00:00 | 00:00:00 | |
| PETON7-10 | 2026-09-01 06:17:47 | 48.57410 | 18.51815 | 77° | 64km/h | 15326m | 4.2m/s | 0°C | 0% | 0hPa | 0V | 00:00:00 | 00:00:00 | 00:00:00 | |
| PETON7-10 | 2026-09-01 06:17:32 | 48.57347 | 18.51464 | 68° | 60km/h | 15268m | 4.5m/s | 0°C | 0% | 0hPa | 0V | 00:00:00 | 00:00:00 | 00:00:00 | |
| OE5WHR-10 | 2026-09-01 06:17:31 | 48.57342 | 18.51441 | 82° | 58km/h | 15264m | 2.8m/s | 0°C | 0% | 0hPa | 0V | 00:00:00 | 00:00:00 | 00:00:00 | |
| OE5DXL-15 | 2026-09-01 06:17:29 | 48.57336 | 18.51395 | 82° | 57km/h | 15260m | 4.9m/s | 0°C | 0% | 0hPa | 0V | 00:00:00 | 00:00:00 | 00:00:00 | |
| OE3JTB-15 | 2026-09-01 06:17:26 | 48.57324 | 18.51325 | 78° | 57km/h | 15244m | 3.5m/s | 0°C | 0% | 0hPa | 0V | 00:00:00 | 00:00:00 | 00:00:00 | |
| PETON7-10 | 2026-09-01 06:17:17 | 48.57289 | 18.51135 | 79° | 57km/h | 15208m | 3.0m/s | 0°C | 0% | 0hPa | 0V | 00:00:00 | 00:00:00 | 00:00:00 | |
| OE5WHR-10 | 2026-09-01 06:17:10 | 48.57262 | 18.50988 | 80° | 58km/h | 15177m | 4.3m/s | 0°C | 0% | 0hPa | 0V | 00:00:00 | 00:00:00 | 00:00:00 | |
| PETON7-10 | 2026-09-01 06:17:02 | 48.57234 | 18.50817 | 76° | 58km/h | 15148m | 3.3m/s | 0°C | 0% | 0hPa | 0V | 00:00:00 | 00:00:00 | 00:00:00 | |
| OE3JTB-15 | 2026-09-01 06:16:57 | 48.57213 | 18.50716 | 75° | 64km/h | 15129m | 3.2m/s | 0°C | 0% | 0hPa | 0V | 00:00:00 | 00:00:00 | 00:00:00 | |
| OM5KV | 2026-09-01 06:16:52 | 48.57198 | 18.50605 | 70° | 58km/h | 15112m | 4.0m/s | -53.4°C | 0% | 0hPa | 0V | 00:00:00 | 00:00:00 | 00:00:00 | |
| OE5WHR-10 | 2026-09-01 06:16:48 | 48.57186 | 18.50515 | 83° | 68km/h | 15091m | 2.5m/s | 0°C | 0% | 0hPa | 0V | 00:00:00 | 00:00:00 | 00:00:00 | |
| OM5KV | 2026-09-01 06:16:47 | 48.57182 | 18.50462 | 83° | 64km/h | 15088m | 5.0m/s | -53.3°C | 0% | 0hPa | 0V | 00:00:00 | 00:00:00 | 00:00:00 | |
| PETON7-10 | 2026-09-01 06:16:32 | 48.57150 | 18.50119 | 80° | 71km/h | 15021m | 4.1m/s | 0°C | 0% | 0hPa | 0V | 00:00:00 | 00:00:00 | 00:00:00 | |
| OE3JTB-15 | 2026-09-01 06:16:28 | 48.57142 | 18.50018 | 85° | 73km/h | 15008m | 4.9m/s | 0°C | 0% | 0hPa | 0V | 00:00:00 | 00:00:00 | 00:00:00 | |
| OE5WHR-10 | 2026-09-01 06:16:27 | 48.57140 | 18.49992 | 84° | 77km/h | 15000m | 5.4m/s | 0°C | 0% | 0hPa | 0V | 00:00:00 | 00:00:00 | 00:00:00 | |
| OM5KV | 2026-09-01 06:16:22 | 48.57126 | 18.49856 | 86° | 68km/h | 14982m | 5.1m/s | -53.4°C | 0% | 0hPa | 0V | 00:00:00 | 00:00:00 | 00:00:00 | |
| OM5KV | 2026-09-01 06:16:20 | 48.57123 | 18.49800 | 83° | 77km/h | 14974m | 4.1m/s | -53.4°C | 0% | 0hPa | 0V | 00:00:00 | 00:00:00 | 00:00:00 | |
| PETON7-10 | 2026-09-01 06:16:17 | 48.57111 | 18.49721 | 78° | 75km/h | 14957m | 4.0m/s | 0°C | 0% | 0hPa | 0V | 00:00:00 | 00:00:00 | 00:00:00 | |
| OM5KV | 2026-09-01 06:16:14 | 48.57101 | 18.49636 | 81° | 71km/h | 14948m | 4.4m/s | -53.4°C | 0% | 0hPa | 0V | 00:00:00 | 00:00:00 | 00:00:00 | |
| OM5KV | 2026-09-01 06:16:10 | 48.57085 | 18.49530 | 77° | 69km/h | 14931m | 3.7m/s | -53.5°C | 0% | 0hPa | 0V | 00:00:00 | 00:00:00 | 00:00:00 | |
| OM5KV | 2026-09-01 06:16:09 | 48.57080 | 18.49502 | 77° | 80km/h | 14926m | 5.8m/s | -53.5°C | 0% | 0hPa | 0V | 00:00:00 | 00:00:00 | 00:00:00 | |
| OE5WHR-10 | 2026-09-01 06:16:03 | 48.57050 | 18.49334 | 72° | 71km/h | 14894m | 4.6m/s | 0°C | 0% | 0hPa | 0V | 00:00:00 | 00:00:00 | 00:00:00 | |
| PETON7-10 | 2026-09-01 06:16:02 | 48.57045 | 18.49308 | 73° | 71km/h | 14890m | 3.6m/s | 0°C | 0% | 0hPa | 0V | 00:00:00 | 00:00:00 | 00:00:00 | |
| OE3JTB-15 | 2026-09-01 06:15:59 | 48.57028 | 18.49227 | 71° | 69km/h | 14877m | 5.3m/s | 0°C | 0% | 0hPa | 0V | 00:00:00 | 00:00:00 | 00:00:00 | |
| OM5KV | 2026-09-01 06:15:57 | 48.57016 | 18.49175 | 73° | 66km/h | 14872m | 3.7m/s | -53.7°C | 0% | 0hPa | 0V | 00:00:00 | 00:00:00 | 00:00:00 | |
| OM5KV | 2026-09-01 06:15:54 | 48.56999 | 18.49096 | 74° | 75km/h | 14858m | 5.1m/s | -53.8°C | 0% | 0hPa | 0V | 00:00:00 | 00:00:00 | 00:00:00 | |
| PETON7-10 | 2026-09-01 06:15:47 | 48.56959 | 18.48919 | 74° | 68km/h | 14824m | 4.3m/s | 0°C | 0% | 0hPa | 0V | 00:00:00 | 00:00:00 | 00:00:00 | |
| OE5WHR-10 | 2026-09-01 06:15:42 | 48.56932 | 18.48795 | 73° | 66km/h | 14803m | 5.2m/s | 0°C | 0% | 0hPa | 0V | 00:00:00 | 00:00:00 | 00:00:00 | |
| OM5KV | 2026-09-01 06:15:35 | 48.56900 | 18.48620 | 77° | 58km/h | 14777m | 4.2m/s | -53.9°C | 0% | 0hPa | 0V | 00:00:00 | 00:00:00 | 00:00:00 | |
| OE5DXL-15 | 2026-09-01 06:15:33 | 48.56893 | 18.48574 | 76° | 64km/h | 14765m | 4.1m/s | 0°C | 0% | 0hPa | 0V | 00:00:00 | 00:00:00 | 00:00:00 | |
| PETON7-10 | 2026-09-01 06:15:32 | 48.56889 | 18.48548 | 75° | 66km/h | 14765m | 4.1m/s | 0°C | 0% | 0hPa | 0V | 00:00:00 | 00:00:00 | 00:00:00 | |
| OE3JTB-15 | 2026-09-01 06:15:30 | 48.56881 | 18.48499 | 79° | 64km/h | 14753m | 4.3m/s | 0°C | 0% | 0hPa | 0V | 00:00:00 | 00:00:00 | 00:00:00 | |
| GYPAP8-17 | 2026-09-01 06:15:24 | 48.56861 | 18.48348 | 78° | 68km/h | 14732m | 3.7m/s | -53.7°C | 0% | 0hPa | 0V | 00:00:00 | 00:00:00 | 00:00:00 | |
| OE5WHR-10 | 2026-09-01 06:15:21 | 48.56851 | 18.48280 | 79° | 64km/h | 14715m | 4.0m/s | 0°C | 0% | 0hPa | 0V | 00:00:00 | 00:00:00 | 00:00:00 | |
| OM5KV | 2026-09-01 06:15:18 | 48.56843 | 18.48202 | 80° | 57km/h | 14707m | 4.5m/s | -53.5°C | 0% | 0hPa | 0V | 00:00:00 | 00:00:00 | 00:00:00 | |
| PETON7-10 | 2026-09-01 06:15:17 | 48.56839 | 18.48182 | 71° | 62km/h | 14702m | 5.3m/s | 0°C | 0% | 0hPa | 0V | 00:00:00 | 00:00:00 | 00:00:00 | |
| OM5KV | 2026-09-01 06:15:13 | 48.56827 | 18.48089 | 90° | 66km/h | 14685m | 3.9m/s | -53.3°C | 0% | 0hPa | 0V | 00:00:00 | 00:00:00 | 00:00:00 | |
| OM5KV | 2026-09-01 06:15:07 | 48.56810 | 18.47950 | 83° | 68km/h | 14659m | 4.4m/s | -53.2°C | 0% | 0hPa | 0V | 00:00:00 | 00:00:00 | 00:00:00 | |
| OE3JTB-15 | 2026-09-01 06:15:01 | 48.56794 | 18.47811 | 85° | 62km/h | 14628m | 5.1m/s | 0°C | 0% | 0hPa | 0V | 00:00:00 | 00:00:00 | 00:00:00 | |
| OE5WHR-10 | 2026-09-01 06:15:00 | 48.56793 | 18.47786 | 87° | 62km/h | 14628m | 5.1m/s | 0°C | 0% | 0hPa | 0V | 00:00:00 | 00:00:00 | 00:00:00 | |
| OM5KV | 2026-09-01 06:14:56 | 48.56787 | 18.47692 | 80° | 58km/h | 14611m | 4.8m/s | -53.3°C | 0% | 0hPa | 0V | 00:00:00 | 00:00:00 | 00:00:00 | |
| OM5KV | 2026-09-01 06:14:55 | 48.56781 | 18.47641 | 83° | 73km/h | 14602m | 4.6m/s | -53.3°C | 0% | 0hPa | 0V | 00:00:00 | 00:00:00 | 00:00:00 | |
| OM5KV | 2026-09-01 06:14:50 | 48.56774 | 18.47547 | 80° | 62km/h | 14585m | 4.0m/s | -53.1°C | 0% | 0hPa | 0V | 00:00:00 | 00:00:00 | 00:00:00 | |
| OM5KV | 2026-09-01 06:14:49 | 48.56771 | 18.47524 | 80° | 60km/h | 14581m | 5.1m/s | -53.1°C | 0% | 0hPa | 0V | 00:00:00 | 00:00:00 | 00:00:00 | |
| PETON7-10 | 2026-09-01 06:14:47 | 48.56766 | 18.47480 | 81° | 62km/h | 14572m | 4.5m/s | 0°C | 0% | 0hPa | 0V | 00:00:00 | 00:00:00 | 00:00:00 | |
| OM5KV | 2026-09-01 06:14:44 | 48.56757 | 18.47406 | 83° | 58km/h | 14559m | 4.4m/s | -53.0°C | 0% | 0hPa | 0V | 00:00:00 | 00:00:00 | 00:00:00 | |
| OM5KV | 2026-09-01 06:14:43 | 48.56755 | 18.47385 | 82° | 55km/h | 14555m | 4.7m/s | -53.0°C | 0% | 0hPa | 0V | 00:00:00 | 00:00:00 | 00:00:00 | |
| OM5KV | 2026-09-01 06:14:38 | 48.56741 | 18.47245 | 80° | 60km/h | 14528m | 5.7m/s | -53.0°C | 0% | 0hPa | 0V | 00:00:00 | 00:00:00 | 00:00:00 | |
| OE5WHR-10 | 2026-09-01 06:14:33 | 48.56730 | 18.47158 | 83° | 62km/h | 14505m | 4.5m/s | 0°C | 0% | 0hPa | 0V | 00:00:00 | 00:00:00 | 00:00:00 | |
| OE3JTB-15 | 2026-09-01 06:14:32 | 48.56728 | 18.47137 | 83° | 62km/h | 14501m | 3.8m/s | 0°C | 0% | 0hPa | 0V | 00:00:00 | 00:00:00 | 00:00:00 | |
| OM5KV | 2026-09-01 06:14:31 | 48.56726 | 18.47113 | 84° | 58km/h | 14501m | 3.9m/s | -52.8°C | 0% | 0hPa | 0V | 00:00:00 | 00:00:00 | 00:00:00 | |
| OM5KV | 2026-09-01 06:14:26 | 48.56714 | 18.46999 | 84° | 64km/h | 14478m | 4.3m/s | -52.7°C | 0% | 0hPa | 0V | 00:00:00 | 00:00:00 | 00:00:00 | |
| OM5KV | 2026-09-01 06:14:20 | 48.56703 | 18.46861 | 85° | 64km/h | 14452m | 5.2m/s | -52.7°C | 0% | 0hPa | 0V | 00:00:00 | 00:00:00 | 00:00:00 | |
| PETON7-10 | 2026-09-01 06:14:17 | 48.56697 | 18.46790 | 82° | 66km/h | 14439m | 4.5m/s | 0°C | 0% | 0hPa | 0V | 00:00:00 | 00:00:00 | 00:00:00 | |
| OM5KV | 2026-09-01 06:14:14 | 48.56690 | 18.46719 | 82° | 60km/h | 14425m | 5.0m/s | -52.8°C | 0% | 0hPa | 0V | 00:00:00 | 00:00:00 | 00:00:00 | |
| OE5WHR-10 | 2026-09-01 06:14:12 | 48.56685 | 18.46672 | 82° | 64km/h | 14412m | 3.0m/s | 0°C | 0% | 0hPa | 0V | 00:00:00 | 00:00:00 | 00:00:00 | |
| OM5KV | 2026-09-01 06:14:08 | 48.56680 | 18.46568 | 87° | 68km/h | 14399m | 4.7m/s | -52.9°C | 0% | 0hPa | 0V | 00:00:00 | 00:00:00 | 00:00:00 | |
| OM5KV | 2026-09-01 06:14:07 | 48.56677 | 18.46545 | 82° | 53km/h | 14394m | 4.9m/s | -52.9°C | 0% | 0hPa | 0V | 00:00:00 | 00:00:00 | 00:00:00 | |
| OE3JTB-15 | 2026-09-01 06:14:03 | 48.56667 | 18.46449 | 87° | 69km/h | 14369m | 4.3m/s | 0°C | 0% | 0hPa | 0V | 00:00:00 | 00:00:00 | 00:00:00 | |
| PETON7-10 | 2026-09-01 06:14:02 | 48.56666 | 18.46423 | 89° | 64km/h | 14373m | 3.6m/s | 0°C | 0% | 0hPa | 0V | 00:00:00 | 00:00:00 | 00:00:00 | |
| OM5KV | 2026-09-01 06:14:01 | 48.56665 | 18.46400 | 85° | 60km/h | 14369m | 4.4m/s | -52.8°C | 0% | 0hPa | 0V | 00:00:00 | 00:00:00 | 00:00:00 | |
| OM5KV | 2026-09-01 06:13:57 | 48.56653 | 18.46275 | 80° | 68km/h | 14348m | 3.3m/s | -52.9°C | 0% | 0hPa | 0V | 00:00:00 | 00:00:00 | 00:00:00 | |
| OM5KV | 2026-09-01 06:13:55 | 48.56652 | 18.46251 | 86° | 58km/h | 14343m | 5.4m/s | -52.9°C | 0% | 0hPa | 0V | 00:00:00 | 00:00:00 | 00:00:00 | |
| OE5WHR-10 | 2026-09-01 06:13:51 | 48.56643 | 18.46158 | 86° | 69km/h | 14321m | 3.5m/s | 0°C | 0% | 0hPa | 0V | 00:00:00 | 00:00:00 | 00:00:00 | |
| OM5KV | 2026-09-01 06:13:50 | 48.56642 | 18.46131 | 86° | 73km/h | 14321m | 3.5m/s | -52.9°C | 0% | 0hPa | 0V | 00:00:00 | 00:00:00 | 00:00:00 | |
| OM5KV | 2026-09-01 06:13:49 | 48.56640 | 18.46104 | 83° | 69km/h | 14317m | 4.7m/s | -52.9°C | 0% | 0hPa | 0V | 00:00:00 | 00:00:00 | 00:00:00 | |
| PETON7-10 | 2026-09-01 06:13:47 | 48.56636 | 18.46057 | 89° | 69km/h | 14309m | 4.1m/s | 0°C | 0% | 0hPa | 0V | 00:00:00 | 00:00:00 | 00:00:00 | |
| OM5KV | 2026-09-01 06:13:45 | 48.56634 | 18.46009 | 85° | 73km/h | 14301m | 5.6m/s | -52.9°C | 0% | 0hPa | 0V | 00:00:00 | 00:00:00 | 00:00:00 | |
| OM5KV | 2026-09-01 06:13:43 | 48.56630 | 18.45951 | 86° | 73km/h | 14291m | 4.9m/s | -52.9°C | 0% | 0hPa | 0V | 00:00:00 | 00:00:00 | 00:00:00 | |
| OM5KV | 2026-09-01 06:13:39 | 48.56627 | 18.45850 | 87° | 71km/h | 14274m | 5.3m/s | -53.0°C | 0% | 0hPa | 0V | 00:00:00 | 00:00:00 | 00:00:00 | |
| OM5KV | 2026-09-01 06:13:37 | 48.56625 | 18.45792 | 88° | 80km/h | 14265m | 4.8m/s | -53.0°C | 0% | 0hPa | 0V | 00:00:00 | 00:00:00 | 00:00:00 | |
| PETON7-10 | 2026-09-01 06:13:32 | 48.56624 | 18.45654 | 91° | 75km/h | 14243m | 4.2m/s | 0°C | 0% | 0hPa | 0V | 00:00:00 | 00:00:00 | 00:00:00 | |
| OM5KV | 2026-09-01 06:13:31 | 48.56624 | 18.45623 | 90° | 82km/h | 14239m | 4.7m/s | -53.0°C | 0% | 0hPa | 0V | 00:00:00 | 00:00:00 | 00:00:00 | |
| OE5WHR-10 | 2026-09-01 06:13:30 | 48.56618 | 18.45593 | 90° | 71km/h | 14234m | 3.7m/s | 0°C | 0% | 0hPa | 0V | 00:00:00 | 00:00:00 | 00:00:00 | |
| OM5KV | 2026-09-01 06:13:28 | 48.56621 | 18.45536 | 84° | 71km/h | 14227m | 4.3m/s | -53.0°C | 0% | 0hPa | 0V | 00:00:00 | 00:00:00 | 00:00:00 | |
| PETON7-10 | 2026-09-01 06:13:17 | 48.56613 | 18.45234 | 91° | 71km/h | 14180m | 3.4m/s | 0°C | 0% | 0hPa | 0V | 00:00:00 | 00:00:00 | 00:00:00 | |
| OM5KV | 2026-09-01 06:13:13 | 48.56612 | 18.45124 | 88° | 73km/h | 14163m | 3.6m/s | -52.6°C | 0% | 0hPa | 0V | 00:00:00 | 00:00:00 | 00:00:00 | |
| OE3JTB-15 | 2026-09-01 06:13:11 | 48.56608 | 18.45069 | 83° | 73km/h | 14145m | 4.9m/s | 0°C | 0% | 0hPa | 0V | 00:00:00 | 00:00:00 | 00:00:00 | |
| OE5WHR-10 | 2026-09-01 06:13:08 | 48.56605 | 18.44987 | 85° | 71km/h | 14141m | 3.8m/s | 0°C | 0% | 0hPa | 0V | 00:00:00 | 00:00:00 | 00:00:00 | |
| OM5KV | 2026-09-01 06:13:06 | 48.56602 | 18.44932 | 90° | 77km/h | 14132m | 3.5m/s | -52.6°C | 0% | 0hPa | 0V | 00:00:00 | 00:00:00 | 00:00:00 | |
| PETON7-10 | 2026-09-01 06:13:02 | 48.56591 | 18.44826 | 87° | 73km/h | 14113m | 3.6m/s | 0°C | 0% | 0hPa | 0V | 00:00:00 | 00:00:00 | 00:00:00 | |
| OM5KV | 2026-09-01 06:13:00 | 48.56591 | 18.44776 | 87° | 68km/h | 14109m | 4.3m/s | -52.7°C | 0% | 0hPa | 0V | 00:00:00 | 00:00:00 | 00:00:00 | |
| OM5KV | 2026-09-01 06:12:56 | 48.56582 | 18.44668 | 84° | 71km/h | 14092m | 4.9m/s | -52.6°C | 0% | 0hPa | 0V | 00:00:00 | 00:00:00 | 00:00:00 | |
| OM5KV | 2026-09-01 06:12:54 | 48.56580 | 18.44615 | 91° | 71km/h | 14083m | 5.1m/s | -52.6°C | 0% | 0hPa | 0V | 00:00:00 | 00:00:00 | 00:00:00 | |
| OM5KV | 2026-09-01 06:12:49 | 48.56574 | 18.44470 | 90° | 75km/h | 14063m | 3.5m/s | -52.5°C | 0% | 0hPa | 0V | 00:00:00 | 00:00:00 | 00:00:00 | |
| PETON7-10 | 2026-09-01 06:12:47 | 48.56571 | 18.44413 | 84° | 80km/h | 14050m | 4.7m/s | 0°C | 0% | 0hPa | 0V | 00:00:00 | 00:00:00 | 00:00:00 | |
| OM5KV | 2026-09-01 06:12:45 | 48.56570 | 18.44354 | 90° | 78km/h | 14046m | 3.3m/s | -52.6°C | 0% | 0hPa | 0V | 00:00:00 | 00:00:00 | 00:00:00 | |
| OM5KV | 2026-09-01 06:12:44 | 48.56566 | 18.44295 | 81° | 77km/h | 14038m | 3.1m/s | -52.7°C | 0% | 0hPa | 0V | 00:00:00 | 00:00:00 | 00:00:00 | |
| OE3JTB-15 | 2026-09-01 06:12:40 | 48.56564 | 18.44208 | 86° | 82km/h | 14022m | 3.8m/s | 0°C | 0% | 0hPa | 0V | 00:00:00 | 00:00:00 | 00:00:00 | |
| OM5KV | 2026-09-01 06:12:39 | 48.56563 | 18.44175 | 86° | 86km/h | 14022m | 3.9m/s | -52.7°C | 0% | 0hPa | 0V | 00:00:00 | 00:00:00 | 00:00:00 | |
| OM5KV | 2026-09-01 06:12:38 | 48.56561 | 18.44142 | 86° | 88km/h | 14018m | 4.5m/s | -52.7°C | 0% | 0hPa | 0V | 00:00:00 | 00:00:00 | 00:00:00 | |
| OM5KV | 2026-09-01 06:12:34 | 48.56553 | 18.44017 | 88° | 80km/h | 14002m | 4.8m/s | -52.6°C | 0% | 0hPa | 0V | 00:00:00 | 00:00:00 | 00:00:00 | |
| PETON7-10 | 2026-09-01 06:12:32 | 48.56554 | 18.43953 | 92° | 82km/h | 13990m | 4.7m/s | 0°C | 0% | 0hPa | 0V | 00:00:00 | 00:00:00 | 00:00:00 | |
| OE5WHR-10 | 2026-09-01 06:12:26 | 48.56545 | 18.43773 | 88° | 84km/h | 13967m | 3.9m/s | 0°C | 0% | 0hPa | 0V | 00:00:00 | 00:00:00 | 00:00:00 | |
| OM5KV | 2026-09-01 06:12:23 | 48.56539 | 18.43680 | 82° | 80km/h | 13959m | 3.9m/s | -52.4°C | 0% | 0hPa | 0V | 00:00:00 | 00:00:00 | 00:00:00 | |
| OM5KV | 2026-09-01 06:12:21 | 48.56533 | 18.43617 | 85° | 88km/h | 13951m | 4.0m/s | -52.4°C | 0% | 0hPa | 0V | 00:00:00 | 00:00:00 | 00:00:00 | |
| OM5KV | 2026-09-01 06:12:18 | 48.56530 | 18.43488 | 83° | 82km/h | 13935m | 4.0m/s | -52.4°C | 0% | 0hPa | 0V | 00:00:00 | 00:00:00 | 00:00:00 | |
| PETON7-10 | 2026-09-01 06:12:17 | 48.56530 | 18.43488 | 82° | 84km/h | 13931m | 4.3m/s | 0°C | 0% | 0hPa | 0V | 00:00:00 | 00:00:00 | 00:00:00 | |
| OM5KV | 2026-09-01 06:12:15 | 48.56525 | 18.43426 | 85° | 80km/h | 13927m | 3.9m/s | -52.3°C | 0% | 0hPa | 0V | 00:00:00 | 00:00:00 | 00:00:00 | |
| OM5KV | 2026-09-01 06:12:11 | 48.56521 | 18.43301 | 87° | 84km/h | 13910m | 4.9m/s | -52.2°C | 0% | 0hPa | 0V | 00:00:00 | 00:00:00 | 00:00:00 | |
| OM5KV | 2026-09-01 06:12:10 | 48.56519 | 18.43268 | 81° | 86km/h | 13907m | 3.4m/s | -52.2°C | 0% | 0hPa | 0V | 00:00:00 | 00:00:00 | 00:00:00 | |
| OE3JTB-15 | 2026-09-01 06:12:09 | 48.56515 | 18.43236 | 81° | 88km/h | 13898m | 3.6m/s | 0°C | 0% | 0hPa | 0V | 00:00:00 | 00:00:00 | 00:00:00 | |
| OE5WHR-10 | 2026-09-01 06:12:05 | 48.56507 | 18.43110 | 81° | 88km/h | 13875m | 4.5m/s | 0°C | 0% | 0hPa | 0V | 00:00:00 | 00:00:00 | 00:00:00 | |
| OM5KV | 2026-09-01 06:12:04 | 48.56504 | 18.43077 | 85° | 86km/h | 13882m | 4.6m/s | -52.2°C | 0% | 0hPa | 0V | 00:00:00 | 00:00:00 | 00:00:00 | |
| PETON7-10 | 2026-09-01 06:12:02 | 48.56502 | 18.43013 | 88° | 88km/h | 13871m | 3.7m/s | 0°C | 0% | 0hPa | 0V | 00:00:00 | 00:00:00 | 00:00:00 | |
| OM5KV | 2026-09-01 06:11:59 | 48.56492 | 18.42916 | 85° | 82km/h | 13863m | 4.4m/s | -52.2°C | 0% | 0hPa | 0V | 00:00:00 | 00:00:00 | 00:00:00 | |
| OM5KV | 2026-09-01 06:11:58 | 48.56491 | 18.42885 | 89° | 78km/h | 13859m | 3.1m/s | -52.2°C | 0% | 0hPa | 0V | 00:00:00 | 00:00:00 | 00:00:00 | |
| OM5KV | 2026-09-01 06:11:53 | 48.56480 | 18.42718 | 83° | 88km/h | 13839m | 4.6m/s | -52.3°C | 0% | 0hPa | 0V | 00:00:00 | 00:00:00 | 00:00:00 | |
| PETON7-10 | 2026-09-01 06:11:47 | 48.56464 | 18.42518 | 81° | 95km/h | 13812m | 3.8m/s | 0°C | 0% | 0hPa | 0V | 00:00:00 | 00:00:00 | 00:00:00 | |
| OE5WHR-10 | 2026-09-01 06:11:44 | 48.56455 | 18.42421 | 84° | 95km/h | 13785m | 4.7m/s | 0°C | 0% | 0hPa | 0V | 00:00:00 | 00:00:00 | 00:00:00 | |
| OM5KV | 2026-09-01 06:11:42 | 48.56449 | 18.42311 | 85° | 93km/h | 13793m | 4.9m/s | -52.8°C | 0% | 0hPa | 0V | 00:00:00 | 00:00:00 | 00:00:00 | |
| OE3JTB-15 | 2026-09-01 06:11:40 | 48.56445 | 18.42274 | 83° | 95km/h | 13785m | 4.7m/s | 0°C | 0% | 0hPa | 0V | 00:00:00 | 00:00:00 | 00:00:00 | |
| OM5KV | 2026-09-01 06:11:36 | 48.56433 | 18.42095 | 84° | 97km/h | 13769m | 4.1m/s | -52.8°C | 0% | 0hPa | 0V | 00:00:00 | 00:00:00 | 00:00:00 | |
| OM5KV | 2026-09-01 06:11:35 | 48.56430 | 18.42058 | 87° | 99km/h | 13765m | 4.0m/s | -52.8°C | 0% | 0hPa | 0V | 00:00:00 | 00:00:00 | 00:00:00 | |
| PETON7-10 | 2026-09-01 06:11:32 | 48.56426 | 18.41982 | 85° | 95km/h | 13753m | 4.8m/s | 0°C | 0% | 0hPa | 0V | 00:00:00 | 00:00:00 | 00:00:00 | |
| OM5KV | 2026-09-01 06:11:28 | 48.56417 | 18.41842 | 80° | 99km/h | 13741m | 3.4m/s | -53.1°C | 0% | 0hPa | 0V | 00:00:00 | 00:00:00 | 00:00:00 | |
| OM5KV | 2026-09-01 06:11:23 | 48.56408 | 18.41657 | 85° | 99km/h | 13721m | 4.5m/s | -53.1°C | 0% | 0hPa | 0V | 00:00:00 | 00:00:00 | 00:00:00 | |
| OE5WHR-10 | 2026-09-01 06:11:21 | 48.56403 | 18.41584 | 86° | 91km/h | 13709m | 3.3m/s | 0°C | 0% | 0hPa | 0V | 00:00:00 | 00:00:00 | 00:00:00 | |
| PETON7-10 | 2026-09-01 06:11:17 | 48.56395 | 18.41442 | 83° | 91km/h | 13693m | 3.9m/s | 0°C | 0% | 0hPa | 0V | 00:00:00 | 00:00:00 | 00:00:00 | |
| OM5KV | 2026-09-01 06:11:15 | 48.56390 | 18.41369 | 86° | 99km/h | 13689m | 3.4m/s | -53.0°C | 0% | 0hPa | 0V | 00:00:00 | 00:00:00 | 00:00:00 | |
| OM5KV | 2026-09-01 06:11:09 | 48.56377 | 18.41162 | 84° | 88km/h | 13665m | 3.6m/s | -52.8°C | 0% | 0hPa | 0V | 00:00:00 | 00:00:00 | 00:00:00 | |
| OE3JTB-15 | 2026-09-01 06:11:08 | 48.56374 | 18.41128 | 85° | 89km/h | 13657m | 3.1m/s | 0°C | 0% | 0hPa | 0V | 00:00:00 | 00:00:00 | 00:00:00 | |
| PETON7-10 | 2026-09-01 06:11:02 | 48.56358 | 18.40924 | 85° | 88km/h | 13633m | 3.3m/s | 0°C | 0% | 0hPa | 0V | 00:00:00 | 00:00:00 | 00:00:00 | |
| OE5WHR-10 | 2026-09-01 06:11:00 | 48.56356 | 18.40856 | 89° | 89km/h | 13625m | 4.4m/s | 0°C | 0% | 0hPa | 0V | 00:00:00 | 00:00:00 | 00:00:00 | |
| OM5KV | 2026-09-01 06:10:54 | 48.56343 | 18.40659 | 90° | 88km/h | 13605m | 4.6m/s | -52.7°C | 0% | 0hPa | 0V | 00:00:00 | 00:00:00 | 00:00:00 | |
| OM5KV | 2026-09-01 06:10:49 | 48.56332 | 18.40456 | 84° | 82km/h | 13585m | 3.6m/s | -52.8°C | 0% | 0hPa | 0V | 00:00:00 | 00:00:00 | 00:00:00 | |
| PETON7-10 | 2026-09-01 06:10:47 | 48.56329 | 18.40423 | 82° | 93km/h | 13572m | 4.6m/s | 0°C | 0% | 0hPa | 0V | 00:00:00 | 00:00:00 | 00:00:00 | |
| OM5KV | 2026-09-01 06:10:43 | 48.56322 | 18.40283 | 84° | 95km/h | 13560m | 3.4m/s | -52.9°C | 0% | 0hPa | 0V | 00:00:00 | 00:00:00 | 00:00:00 | |
| OE5WHR-10 | 2026-09-01 06:10:39 | 48.56319 | 18.40143 | 88° | 100km/h | 13536m | 4.4m/s | 0°C | 0% | 0hPa | 0V | 00:00:00 | 00:00:00 | 00:00:00 | |
| OM5KV | 2026-09-01 06:10:38 | 48.56317 | 18.40108 | 83° | 91km/h | 13540m | 4.0m/s | -52.8°C | 0% | 0hPa | 0V | 00:00:00 | 00:00:00 | 00:00:00 | |
| OM5KV | 2026-09-01 06:10:37 | 48.56312 | 18.39962 | 88° | 95km/h | 13525m | 3.7m/s | -52.8°C | 0% | 0hPa | 0V | 00:00:00 | 00:00:00 | 00:00:00 | |
| GYPAP8-17 | 2026-09-01 06:10:34 | 48.56312 | 18.39962 | 88° | 95km/h | 13525m | 3.7m/s | -52.8°C | 0% | 0hPa | 0V | 00:00:00 | 00:00:00 | 00:00:00 | |
| OM5KV | 2026-09-01 06:10:33 | 48.56313 | 18.39927 | 92° | 88km/h | 13520m | 5.2m/s | -52.9°C | 0% | 0hPa | 0V | 00:00:00 | 00:00:00 | 00:00:00 | |
| PETON7-10 | 2026-09-01 06:10:32 | 48.56313 | 18.39893 | 95° | 95km/h | 13511m | 5.0m/s | 0°C | 0% | 0hPa | 0V | 00:00:00 | 00:00:00 | 00:00:00 | |
| OM5KV | 2026-09-01 06:10:25 | 48.56315 | 18.39646 | 92° | 89km/h | 13486m | 4.8m/s | -53.3°C | 0% | 0hPa | 0V | 00:00:00 | 00:00:00 | 00:00:00 | |
| OM5KV | 2026-09-01 06:10:20 | 48.56311 | 18.39460 | 92° | 99km/h | 13464m | 2.8m/s | -53.7°C | 0% | 0hPa | 0V | 00:00:00 | 00:00:00 | 00:00:00 | |
| PETON7-10 | 2026-09-01 06:10:17 | 48.56306 | 18.39352 | 83° | 100km/h | 13447m | 4.7m/s | 0°C | 0% | 0hPa | 0V | 00:00:00 | 00:00:00 | 00:00:00 | |
| OE3JTB-15 | 2026-09-01 06:10:07 | 48.56303 | 18.38960 | 89° | 102km/h | 13404m | 4.1m/s | 0°C | 0% | 0hPa | 0V | 00:00:00 | 00:00:00 | 00:00:00 | |
| OM5KV | 2026-09-01 06:10:03 | 48.56302 | 18.38813 | 83° | 95km/h | 13392m | 3.3m/s | -54.0°C | 0% | 0hPa | 0V | 00:00:00 | 00:00:00 | 00:00:00 | |
| PETON7-10 | 2026-09-01 06:10:02 | 48.56299 | 18.38776 | 83° | 102km/h | 13384m | 3.4m/s | 0°C | 0% | 0hPa | 0V | 00:00:00 | 00:00:00 | 00:00:00 | |
| OM5KV | 2026-09-01 06:09:57 | 48.56297 | 18.38586 | 82° | 93km/h | 13366m | 4.4m/s | -53.8°C | 0% | 0hPa | 0V | 00:00:00 | 00:00:00 | 00:00:00 | |
| PETON7-10 | 2026-09-01 06:09:47 | 48.56280 | 18.38193 | 91° | 104km/h | 13318m | 3.6m/s | 0°C | 0% | 0hPa | 0V | 00:00:00 | 00:00:00 | 00:00:00 | |
| OE3JTB-15 | 2026-09-01 06:09:38 | 48.56262 | 18.37835 | 88° | 99km/h | 13276m | 5.3m/s | 0°C | 0% | 0hPa | 0V | 00:00:00 | 00:00:00 | 00:00:00 | |
| OM5KV | 2026-09-01 06:09:35 | 48.56251 | 18.37723 | 81° | 99km/h | 13266m | 4.7m/s | -53.7°C | 0% | 0hPa | 0V | 00:00:00 | 00:00:00 | 00:00:00 | |
| PETON7-10 | 2026-09-01 06:09:32 | 48.56242 | 18.37605 | 82° | 99km/h | 13249m | 4.8m/s | 0°C | 0% | 0hPa | 0V | 00:00:00 | 00:00:00 | 00:00:00 | |
| OM5KV | 2026-09-01 06:09:29 | 48.56231 | 18.37491 | 82° | 91km/h | 13240m | 5.0m/s | -53.6°C | 0% | 0hPa | 0V | 00:00:00 | 00:00:00 | 00:00:00 | |
| OM5KV | 2026-09-01 06:09:22 | 48.56214 | 18.37231 | 87° | 95km/h | 13210m | 4.2m/s | -53.5°C | 0% | 0hPa | 0V | 00:00:00 | 00:00:00 | 00:00:00 | |
| PETON7-10 | 2026-09-01 06:09:17 | 48.56206 | 18.37047 | 85° | 99km/h | 13185m | 3.3m/s | 0°C | 0% | 0hPa | 0V | 00:00:00 | 00:00:00 | 00:00:00 | |
| OM5KV | 2026-09-01 06:09:16 | 48.56203 | 18.37013 | 83° | 91km/h | 13185m | 3.3m/s | -53.7°C | 0% | 0hPa | 0V | 00:00:00 | 00:00:00 | 00:00:00 | |
| OE3JTB-15 | 2026-09-01 06:09:09 | 48.56181 | 18.36752 | 85° | 108km/h | 13151m | 4.9m/s | 0°C | 0% | 0hPa | 0V | 00:00:00 | 00:00:00 | 00:00:00 | |
| OM5KV | 2026-09-01 06:09:07 | 48.56177 | 18.36682 | 85° | 88km/h | 13146m | 4.3m/s | -53.5°C | 0% | 0hPa | 0V | 00:00:00 | 00:00:00 | 00:00:00 | |
| PETON7-10 | 2026-09-01 06:09:02 | 48.56155 | 18.36489 | 81° | 110km/h | 13118m | 5.9m/s | 0°C | 0% | 0hPa | 0V | 00:00:00 | 00:00:00 | 00:00:00 | |
| OE5WHR-10 | 2026-09-01 06:08:59 | 48.56147 | 18.36369 | 86° | 111km/h | 13104m | 3.2m/s | 0°C | 0% | 0hPa | 0V | 00:00:00 | 00:00:00 | 00:00:00 | |
| OM5KV | 2026-09-01 06:08:55 | 48.56127 | 18.36210 | 81° | 111km/h | 13089m | 4.8m/s | -53.6°C | 0% | 0hPa | 0V | 00:00:00 | 00:00:00 | 00:00:00 | |
| OM5KV | 2026-09-01 06:08:50 | 48.56108 | 18.36006 | 75° | 110km/h | 13064m | 4.5m/s | -54.0°C | 0% | 0hPa | 0V | 00:00:00 | 00:00:00 | 00:00:00 | |
| PETON7-10 | 2026-09-01 06:08:47 | 48.56092 | 18.35873 | 84° | 111km/h | 13047m | 4.5m/s | 0°C | 0% | 0hPa | 0V | 00:00:00 | 00:00:00 | 00:00:00 | |
| OM5KV | 2026-09-01 06:08:44 | 48.56077 | 18.35752 | 78° | 111km/h | 13038m | 4.4m/s | -54.0°C | 0% | 0hPa | 0V | 00:00:00 | 00:00:00 | 00:00:00 | |
| OE3JTB-15 | 2026-09-01 06:08:40 | 48.56050 | 18.35585 | 79° | 108km/h | 13017m | 3.0m/s | 0°C | 0% | 0hPa | 0V | 00:00:00 | 00:00:00 | 00:00:00 | |
| OM5KV | 2026-09-01 06:08:39 | 48.56044 | 18.35541 | 78° | 117km/h | 13017m | 3.1m/s | -53.9°C | 0% | 0hPa | 0V | 00:00:00 | 00:00:00 | 00:00:00 | |
| OE5WHR-10 | 2026-09-01 06:08:38 | 48.56036 | 18.35499 | 73° | 108km/h | 13008m | 3.8m/s | 0°C | 0% | 0hPa | 0V | 00:00:00 | 00:00:00 | 00:00:00 | |
| PETON7-10 | 2026-09-01 06:08:32 | 48.55993 | 18.35257 | 77° | 108km/h | 12986m | 3.3m/s | 0°C | 0% | 0hPa | 0V | 00:00:00 | 00:00:00 | 00:00:00 | |
| PETON7-10 | 2026-09-01 06:08:17 | 48.55878 | 18.34670 | 72° | 102km/h | 12923m | 3.7m/s | 0°C | 0% | 0hPa | 0V | 00:00:00 | 00:00:00 | 00:00:00 | |
| OE3JTB-15 | 2026-09-01 06:08:11 | 48.55835 | 18.34445 | 75° | 104km/h | 12897m | 3.6m/s | 0°C | 0% | 0hPa | 0V | 00:00:00 | 00:00:00 | 00:00:00 | |
| PETON7-10 | 2026-09-01 06:08:02 | 48.55774 | 18.34103 | 74° | 106km/h | 12859m | 5.0m/s | 0°C | 0% | 0hPa | 0V | 00:00:00 | 00:00:00 | 00:00:00 | |
| OE5WHR-10 | 2026-09-01 06:07:56 | 48.55729 | 18.33877 | 74° | 106km/h | 12832m | 4.9m/s | 0°C | 0% | 0hPa | 0V | 00:00:00 | 00:00:00 | 00:00:00 | |
| PETON7-10 | 2026-09-01 06:07:47 | 48.55650 | 18.33522 | 68° | 102km/h | 12793m | 3.7m/s | 0°C | 0% | 0hPa | 0V | 00:00:00 | 00:00:00 | 00:00:00 | |
| OE3JTB-15 | 2026-09-01 06:07:42 | 48.55610 | 18.33335 | 72° | 102km/h | 12766m | 4.2m/s | 0°C | 0% | 0hPa | 0V | 00:00:00 | 00:00:00 | 00:00:00 | |
| OE5WHR-10 | 2026-09-01 06:07:32 | 48.55534 | 18.32959 | 79° | 100km/h | 12724m | 4.0m/s | 0°C | 0% | 0hPa | 0V | 00:00:00 | 00:00:00 | 00:00:00 | |
| PETON7-10 | 2026-09-01 06:07:17 | 48.55435 | 18.32405 | 80° | 99km/h | 12662m | 4.5m/s | 0°C | 0% | 0hPa | 0V | 00:00:00 | 00:00:00 | 00:00:00 | |
| OE3JTB-15 | 2026-09-01 06:07:13 | 48.55418 | 18.32256 | 79° | 99km/h | 12645m | 4.4m/s | 0°C | 0% | 0hPa | 0V | 00:00:00 | 00:00:00 | 00:00:00 | |
| OE5WHR-10 | 2026-09-01 06:07:11 | 48.55406 | 18.32184 | 78° | 99km/h | 12632m | 3.8m/s | 0°C | 0% | 0hPa | 0V | 00:00:00 | 00:00:00 | 00:00:00 | |
| PETON7-10 | 2026-09-01 06:07:02 | 48.55380 | 18.31848 | 87° | 99km/h | 12600m | 4.3m/s | 0°C | 0% | 0hPa | 0V | 00:00:00 | 00:00:00 | 00:00:00 | |
| OE5WHR-10 | 2026-09-01 06:06:50 | 48.55355 | 18.31399 | 89° | 99km/h | 12529m | 3.8m/s | 0°C | 0% | 0hPa | 0V | 00:00:00 | 00:00:00 | 00:00:00 | |
| GYPAP8-17 | 2026-09-01 06:06:49 | 48.55355 | 18.31364 | 92° | 89km/h | 12549m | 3.7m/s | -54.7°C | 0% | 0hPa | 0V | 00:00:00 | 00:00:00 | 00:00:00 | |
| PETON7-10 | 2026-09-01 06:06:47 | 48.55356 | 18.31289 | 89° | 99km/h | 12542m | 3.5m/s | 0°C | 0% | 0hPa | 0V | 00:00:00 | 00:00:00 | 00:00:00 | |
| OE3JTB-15 | 2026-09-01 06:06:44 | 48.55350 | 18.31175 | 85° | 99km/h | 12529m | 3.8m/s | 0°C | 0% | 0hPa | 0V | 00:00:00 | 00:00:00 | 00:00:00 | |
| PETON7-10 | 2026-09-01 06:06:32 | 48.55344 | 18.30730 | 82° | 99km/h | 12494m | 3.7m/s | 0°C | 0% | 0hPa | 0V | 00:00:00 | 00:00:00 | 00:00:00 | |
| OE5WHR-10 | 2026-09-01 06:06:19 | 48.55340 | 18.30240 | 92° | 99km/h | 12420m | 4.6m/s | 0°C | 0% | 0hPa | 0V | 00:00:00 | 00:00:00 | 00:00:00 | |
| PETON7-10 | 2026-09-01 06:06:17 | 48.55341 | 18.30163 | 92° | 99km/h | 12416m | 2.8m/s | 0°C | 0% | 0hPa | 0V | 00:00:00 | 00:00:00 | 00:00:00 | |
| OE3JTB-15 | 2026-09-01 06:06:15 | 48.55343 | 18.30088 | 94° | 99km/h | 12404m | 4.4m/s | 0°C | 0% | 0hPa | 0V | 00:00:00 | 00:00:00 | 00:00:00 | |
| PETON7-10 | 2026-09-01 06:06:02 | 48.55356 | 18.29601 | 91° | 99km/h | 12355m | 3.3m/s | 0°C | 0% | 0hPa | 0V | 00:00:00 | 00:00:00 | 00:00:00 | |
| OE5WHR-10 | 2026-09-01 06:05:57 | 48.55364 | 18.29418 | 91° | 100km/h | 12331m | 4.4m/s | 0°C | 0% | 0hPa | 0V | 00:00:00 | 00:00:00 | 00:00:00 | |
| GYPAP8-17 | 2026-09-01 06:05:51 | 48.55376 | 18.29193 | 96° | 93km/h | 12311m | 4.1m/s | -54.4°C | 0% | 0hPa | 0V | 00:00:00 | 00:00:00 | 00:00:00 | |
| PETON7-10 | 2026-09-01 06:05:47 | 48.55383 | 18.29043 | 97° | 100km/h | 12290m | 4.7m/s | 0°C | 0% | 0hPa | 0V | 00:00:00 | 00:00:00 | 00:00:00 | |
| OE3JTB-15 | 2026-09-01 06:05:46 | 48.55387 | 18.29007 | 99° | 104km/h | 12286m | 3.1m/s | 0°C | 0% | 0hPa | 0V | 00:00:00 | 00:00:00 | 00:00:00 | |
| OE5WHR-10 | 2026-09-01 06:05:35 | 48.55428 | 18.28592 | 100° | 111km/h | 12238m | 3.4m/s | 0°C | 0% | 0hPa | 0V | 00:00:00 | 00:00:00 | 00:00:00 | |
| PETON7-10 | 2026-09-01 06:05:32 | 48.55441 | 18.28477 | 99° | 110km/h | 12233m | 4.6m/s | 0°C | 0% | 0hPa | 0V | 00:00:00 | 00:00:00 | 00:00:00 | |
| PETON7-10 | 2026-09-01 06:05:17 | 48.55501 | 18.27862 | 99° | 117km/h | 12176m | 4.4m/s | 0°C | 0% | 0hPa | 0V | 00:00:00 | 00:00:00 | 00:00:00 | |
| OE5WHR-10 | 2026-09-01 06:05:13 | 48.55516 | 18.27689 | 95° | 124km/h | 12160m | 3.5m/s | 0°C | 0% | 0hPa | 0V | 00:00:00 | 00:00:00 | 00:00:00 | |
| PETON7-10 | 2026-09-01 06:05:02 | 48.55547 | 18.27196 | 97° | 126km/h | 12117m | 3.6m/s | 0°C | 0% | 0hPa | 0V | 00:00:00 | 00:00:00 | 00:00:00 | |
| OE5WHR-10 | 2026-09-01 06:04:52 | 48.55582 | 18.26723 | 91° | 126km/h | 12080m | 3.9m/s | 0°C | 0% | 0hPa | 0V | 00:00:00 | 00:00:00 | 00:00:00 | |
| OE3JTB-15 | 2026-09-01 06:04:48 | 48.55592 | 18.26527 | 98° | 126km/h | 12068m | 3.0m/s | 0°C | 0% | 0hPa | 0V | 00:00:00 | 00:00:00 | 00:00:00 | |
| PETON7-10 | 2026-09-01 06:04:47 | 48.55595 | 18.26483 | 95° | 126km/h | 12061m | 3.7m/s | 0°C | 0% | 0hPa | 0V | 00:00:00 | 00:00:00 | 00:00:00 | |
| PETON7-10 | 2026-09-01 06:04:32 | 48.55621 | 18.25760 | 90° | 128km/h | 12003m | 4.5m/s | 0°C | 0% | 0hPa | 0V | 00:00:00 | 00:00:00 | 00:00:00 | |
| OE5WHR-10 | 2026-09-01 06:04:31 | 48.55627 | 18.25710 | 93° | 126km/h | 12003m | 4.5m/s | 0°C | 0% | 0hPa | 0V | 00:00:00 | 00:00:00 | 00:00:00 | |
| OE3JTB-15 | 2026-09-01 06:04:19 | 48.55639 | 18.25126 | 92° | 124km/h | 11949m | 4.3m/s | 0°C | 0% | 0hPa | 0V | 00:00:00 | 00:00:00 | 00:00:00 | |
| PETON7-10 | 2026-09-01 06:04:17 | 48.55640 | 18.25032 | 92° | 124km/h | 11941m | 3.6m/s | 0°C | 0% | 0hPa | 0V | 00:00:00 | 00:00:00 | 00:00:00 | |
| OE5WHR-10 | 2026-09-01 06:04:09 | 48.55649 | 18.24654 | 94° | 124km/h | 11905m | 4.1m/s | 0°C | 0% | 0hPa | 0V | 00:00:00 | 00:00:00 | 00:00:00 | |
| PETON7-10 | 2026-09-01 06:04:02 | 48.55660 | 18.24318 | 95° | 122km/h | 11881m | 4.1m/s | 0°C | 0% | 0hPa | 0V | 00:00:00 | 00:00:00 | 00:00:00 | |
| OE3JTB-15 | 2026-09-01 06:03:50 | 48.55674 | 18.23767 | 91° | 119km/h | 11836m | 4.8m/s | 0°C | 0% | 0hPa | 0V | 00:00:00 | 00:00:00 | 00:00:00 | |
| PETON7-10 | 2026-09-01 06:03:47 | 48.55677 | 18.23624 | 91° | 119km/h | 11819m | 3.7m/s | 0°C | 0% | 0hPa | 0V | 00:00:00 | 00:00:00 | 00:00:00 | |
| OE5WHR-10 | 2026-09-01 06:03:33 | 48.55670 | 18.22988 | 86° | 117km/h | 11764m | 3.9m/s | 0°C | 0% | 0hPa | 0V | 00:00:00 | 00:00:00 | 00:00:00 | |
| PETON7-10 | 2026-09-01 06:03:32 | 48.55670 | 18.22944 | 89° | 115km/h | 11755m | 3.5m/s | 0°C | 0% | 0hPa | 0V | 00:00:00 | 00:00:00 | 00:00:00 | |
| OE3JTB-15 | 2026-09-01 06:03:21 | 48.55656 | 18.22465 | 83° | 115km/h | 11710m | 4.3m/s | 0°C | 0% | 0hPa | 0V | 00:00:00 | 00:00:00 | 00:00:00 | |
| PETON7-10 | 2026-09-01 06:03:17 | 48.55648 | 18.22290 | 86° | 115km/h | 11695m | 3.9m/s | 0°C | 0% | 0hPa | 0V | 00:00:00 | 00:00:00 | 00:00:00 | |
| PETON7-10 | 2026-09-01 06:03:02 | 48.55631 | 18.21630 | 86° | 115km/h | 11635m | 4.8m/s | 0°C | 0% | 0hPa | 0V | 00:00:00 | 00:00:00 | 00:00:00 | |
| OE5WHR-10 | 2026-09-01 06:02:56 | 48.55627 | 18.21373 | 92° | 117km/h | 11607m | 3.7m/s | 0°C | 0% | 0hPa | 0V | 00:00:00 | 00:00:00 | 00:00:00 | |
| GYPAP8-17 | 2026-09-01 06:02:55 | 48.55628 | 18.21285 | 90° | 113km/h | 11607m | 3.8m/s | 0°C | 0% | 0hPa | 0V | 00:00:00 | 00:00:00 | 00:00:00 | |
| OE3JTB-15 | 2026-09-01 06:02:52 | 48.55629 | 18.21199 | 95° | 119km/h | 11599m | 3.7m/s | 0°C | 0% | 0hPa | 0V | 00:00:00 | 00:00:00 | 00:00:00 | |
| PETON7-10 | 2026-09-01 06:02:47 | 48.55636 | 18.20977 | 92° | 119km/h | 11574m | 3.5m/s | 0°C | 0% | 0hPa | 0V | 00:00:00 | 00:00:00 | 00:00:00 | |
| OE5WHR-10 | 2026-09-01 06:02:33 | 48.55660 | 18.20350 | 93° | 124km/h | 11522m | 4.1m/s | 0°C | 0% | 0hPa | 0V | 00:00:00 | 00:00:00 | 00:00:00 | |
| PETON7-10 | 2026-09-01 06:02:31 | 48.55664 | 18.20258 | 94° | 124km/h | 11510m | 4.1m/s | 0°C | 0% | 0hPa | 0V | 00:00:00 | 00:00:00 | 00:00:00 | |
| OE3JTB-15 | 2026-09-01 06:02:23 | 48.55679 | 18.19880 | 94° | 126km/h | 11477m | 3.6m/s | 0°C | 0% | 0hPa | 0V | 00:00:00 | 00:00:00 | 00:00:00 | |
| PETON7-10 | 2026-09-01 06:02:16 | 48.55692 | 18.19546 | 97° | 128km/h | 11450m | 4.0m/s | 0°C | 0% | 0hPa | 0V | 00:00:00 | 00:00:00 | 00:00:00 | |
| OE5WHR-10 | 2026-09-01 06:02:12 | 48.55699 | 18.19353 | 95° | 126km/h | 11429m | 4.2m/s | 0°C | 0% | 0hPa | 0V | 00:00:00 | 00:00:00 | 00:00:00 | |
| PETON7-10 | 2026-09-01 06:02:01 | 48.55723 | 18.18822 | 93° | 128km/h | 11390m | 3.6m/s | 0°C | 0% | 0hPa | 0V | 00:00:00 | 00:00:00 | 00:00:00 | |
| OE3JTB-15 | 2026-09-01 06:01:54 | 48.55734 | 18.18483 | 92° | 128km/h | 11366m | 4.7m/s | 0°C | 0% | 0hPa | 0V | 00:00:00 | 00:00:00 | 00:00:00 | |
| OE5WHR-10 | 2026-09-01 06:01:51 | 48.55735 | 18.18335 | 94° | 128km/h | 11350m | 3.6m/s | 0°C | 0% | 0hPa | 0V | 00:00:00 | 00:00:00 | 00:00:00 | |
| PETON7-10 | 2026-09-01 06:01:46 | 48.55745 | 18.18095 | 92° | 128km/h | 11329m | 3.4m/s | 0°C | 0% | 0hPa | 0V | 00:00:00 | 00:00:00 | 00:00:00 | |
| PETON7-10 | 2026-09-01 06:01:31 | 48.55775 | 18.17371 | 94° | 128km/h | 11270m | 3.8m/s | 0°C | 0% | 0hPa | 0V | 00:00:00 | 00:00:00 | 00:00:00 | |
| OE3JTB-15 | 2026-09-01 06:01:25 | 48.55787 | 18.17080 | 96° | 128km/h | 11242m | 4.3m/s | 0°C | 0% | 0hPa | 0V | 00:00:00 | 00:00:00 | 00:00:00 | |
| PETON7-10 | 2026-09-01 06:01:16 | 48.55805 | 18.16638 | 95° | 126km/h | 11211m | 3.5m/s | 0°C | 0% | 0hPa | 0V | 00:00:00 | 00:00:00 | 00:00:00 | |
| OE5WHR-10 | 2026-09-01 06:01:02 | 48.55844 | 18.15964 | 99° | 122km/h | 11158m | 3.5m/s | 0°C | 0% | 0hPa | 0V | 00:00:00 | 00:00:00 | 00:00:00 | |
| PETON7-10 | 2026-09-01 06:01:01 | 48.55847 | 18.15918 | 96° | 122km/h | 11150m | 3.3m/s | 0°C | 0% | 0hPa | 0V | 00:00:00 | 00:00:00 | 00:00:00 | |
| OE3JTB-15 | 2026-09-01 06:00:55 | 48.55866 | 18.15635 | 96° | 122km/h | 11127m | 4.0m/s | 0°C | 0% | 0hPa | 0V | 00:00:00 | 00:00:00 | 00:00:00 | |
| PETON7-10 | 2026-09-01 06:00:46 | 48.55891 | 18.15218 | 94° | 122km/h | 11091m | 3.8m/s | 0°C | 0% | 0hPa | 0V | 00:00:00 | 00:00:00 | 00:00:00 | |
| OE5WHR-10 | 2026-09-01 06:00:38 | 48.55910 | 18.14847 | 94° | 122km/h | 11058m | 3.4m/s | 0°C | 0% | 0hPa | 0V | 00:00:00 | 00:00:00 | 00:00:00 | |
| PETON7-10 | 2026-09-01 06:00:31 | 48.55930 | 18.14519 | 95° | 122km/h | 11031m | 3.6m/s | 0°C | 0% | 0hPa | 0V | 00:00:00 | 00:00:00 | 00:00:00 | |
| OE3JTB-15 | 2026-09-01 06:00:26 | 48.55947 | 18.14289 | 97° | 122km/h | 11012m | 4.0m/s | 0°C | 0% | 0hPa | 0V | 00:00:00 | 00:00:00 | 00:00:00 | |
| OE5WHR-10 | 2026-09-01 06:00:17 | 48.55979 | 18.13871 | 99° | 122km/h | 10981m | 4.0m/s | 0°C | 0% | 0hPa | 0V | 00:00:00 | 00:00:00 | 00:00:00 | |
| PETON7-10 | 2026-09-01 06:00:16 | 48.55982 | 18.13823 | 98° | 122km/h | 10973m | 3.1m/s | 0°C | 0% | 0hPa | 0V | 00:00:00 | 00:00:00 | 00:00:00 | |
| PETON7-10 | 2026-09-01 06:00:01 | 48.56031 | 18.13134 | 96° | 120km/h | 10914m | 3.1m/s | 0°C | 0% | 0hPa | 0V | 00:00:00 | 00:00:00 | 00:00:00 | |
| OE5WHR-10 | 2026-09-01 05:59:56 | 48.56051 | 18.12906 | 97° | 122km/h | 10887m | 3.6m/s | 0°C | 0% | 0hPa | 0V | 00:00:00 | 00:00:00 | 00:00:00 | |
| OE3JTB-15 | 2026-09-01 05:59:55 | 48.56055 | 18.12860 | 97° | 120km/h | 10880m | 3.1m/s | 0°C | 0% | 0hPa | 0V | 00:00:00 | 00:00:00 | 00:00:00 | |
| PETON7-10 | 2026-09-01 05:59:46 | 48.56086 | 18.12449 | 97° | 122km/h | 10857m | 4.4m/s | 0°C | 0% | 0hPa | 0V | 00:00:00 | 00:00:00 | 00:00:00 | |
| PETON7-10 | 2026-09-01 05:59:31 | 48.56139 | 18.11756 | 97° | 120km/h | 10800m | 3.8m/s | 0°C | 0% | 0hPa | 0V | 00:00:00 | 00:00:00 | 00:00:00 | |
| OE3JTB-15 | 2026-09-01 05:59:26 | 48.56158 | 18.11529 | 98° | 120km/h | 10755m | 4.1m/s | 0°C | 0% | 0hPa | 0V | 00:00:00 | 00:00:00 | 00:00:00 | |
| PETON7-10 | 2026-09-01 05:59:16 | 48.56201 | 18.11069 | 97° | 120km/h | 10744m | 3.8m/s | 0°C | 0% | 0hPa | 0V | 00:00:00 | 00:00:00 | 00:00:00 | |
| OE5WHR-10 | 2026-09-01 05:59:15 | 48.56205 | 18.11022 | 99° | 122km/h | 10740m | 3.2m/s | 0°C | 0% | 0hPa | 0V | 00:00:00 | 00:00:00 | 00:00:00 | |
| PETON7-10 | 2026-09-01 05:59:01 | 48.56266 | 18.10387 | 100° | 120km/h | 10689m | 4.1m/s | 0°C | 0% | 0hPa | 0V | 00:00:00 | 00:00:00 | 00:00:00 | |
| OE3JTB-15 | 2026-09-01 05:58:52 | 48.56302 | 18.09980 | 98° | 122km/h | 10641m | 3.8m/s | 0°C | 0% | 0hPa | 0V | 00:00:00 | 00:00:00 | 00:00:00 | |
| PETON7-10 | 2026-09-01 05:58:46 | 48.56328 | 18.09706 | 95° | 120km/h | 10635m | 3.1m/s | 0°C | 0% | 0hPa | 0V | 00:00:00 | 00:00:00 | 00:00:00 | |
| PETON7-10 | 2026-09-01 05:58:31 | 48.56392 | 18.09026 | 99° | 119km/h | 10580m | 3.6m/s | 0°C | 0% | 0hPa | 0V | 00:00:00 | 00:00:00 | 00:00:00 | |
| OE3JTB-15 | 2026-09-01 05:58:17 | 48.56455 | 18.08399 | 99° | 119km/h | 10512m | 2.9m/s | 0°C | 0% | 0hPa | 0V | 00:00:00 | 00:00:00 | 00:00:00 | |
| PETON7-10 | 2026-09-01 05:58:16 | 48.56460 | 18.08353 | 100° | 119km/h | 10527m | 4.7m/s | 0°C | 0% | 0hPa | 0V | 00:00:00 | 00:00:00 | 00:00:00 | |
| PETON7-10 | 2026-09-01 05:58:01 | 48.56533 | 18.07680 | 100° | 119km/h | 10474m | 2.9m/s | 0°C | 0% | 0hPa | 0V | 00:00:00 | 00:00:00 | 00:00:00 | |
| OE3JTB-15 | 2026-09-01 05:57:48 | 48.56594 | 18.07101 | 101° | 119km/h | 10428m | 2.7m/s | 0°C | 0% | 0hPa | 0V | 00:00:00 | 00:00:00 | 00:00:00 | |
| PETON7-10 | 2026-09-01 05:57:46 | 48.56606 | 18.07011 | 101° | 117km/h | 10421m | 3.9m/s | 0°C | 0% | 0hPa | 0V | 00:00:00 | 00:00:00 | 00:00:00 | |
| PETON7-10 | 2026-09-01 05:57:31 | 48.56673 | 18.06347 | 98° | 119km/h | 10367m | 3.7m/s | 0°C | 0% | 0hPa | 0V | 00:00:00 | 00:00:00 | 00:00:00 | |
| PETON7-10 | 2026-09-01 05:57:16 | 48.56739 | 18.05678 | 95° | 119km/h | 10317m | 3.2m/s | 0°C | 0% | 0hPa | 0V | 00:00:00 | 00:00:00 | 00:00:00 | |
| PETON7-10 | 2026-09-01 05:57:01 | 48.56800 | 18.05003 | 98° | 119km/h | 10265m | 3.8m/s | 0°C | 0% | 0hPa | 0V | 00:00:00 | 00:00:00 | 00:00:00 | |
| PETON7-10 | 2026-09-01 05:56:46 | 48.56863 | 18.04327 | 102° | 119km/h | 10212m | 3.5m/s | 0°C | 0% | 0hPa | 0V | 00:00:00 | 00:00:00 | 00:00:00 | |
| OE3JTB-15 | 2026-09-01 05:56:42 | 48.56877 | 18.04151 | 95° | 119km/h | 10199m | 2.8m/s | 0°C | 0% | 0hPa | 0V | 00:00:00 | 00:00:00 | 00:00:00 | |
| PETON7-10 | 2026-09-01 05:56:31 | 48.56912 | 18.03649 | 97° | 117km/h | 10160m | 3.8m/s | 0°C | 0% | 0hPa | 0V | 00:00:00 | 00:00:00 | 00:00:00 | |
| PETON7-10 | 2026-09-01 05:56:16 | 48.56951 | 18.02982 | 92° | 115km/h | 10106m | 3.0m/s | 0°C | 0% | 0hPa | 0V | 00:00:00 | 00:00:00 | 00:00:00 | |
| OE3JTB-15 | 2026-09-01 05:56:13 | 48.56956 | 18.02856 | 95° | 115km/h | 10092m | 3.4m/s | 0°C | 0% | 0hPa | 0V | 00:00:00 | 00:00:00 | 00:00:00 | |
| OE3OSB-13 | 2026-09-01 05:56:02 | 48.56983 | 18.02327 | 94° | 113km/h | 10053m | 3.6m/s | -46.0°C | -1.0% | -1.0hPa | 0V | 00:00:00 | 00:00:00 | 00:00:00 | |
| PETON7-10 | 2026-09-01 05:56:01 | 48.56983 | 18.02327 | 95° | 115km/h | 10054m | 3.5m/s | 0°C | 0% | 0hPa | 0V | 00:00:00 | 00:00:00 | 00:00:00 | |
| PETON7-10 | 2026-09-01 05:55:46 | 48.57021 | 18.01675 | 94° | 115km/h | 9998m | 2.7m/s | 0°C | 0% | 0hPa | 0V | 00:00:00 | 00:00:00 | 00:00:00 | |
| OE3JTB-15 | 2026-09-01 05:55:44 | 48.57024 | 18.01588 | 94° | 113km/h | 9987m | 4.3m/s | 0°C | 0% | 0hPa | 0V | 00:00:00 | 00:00:00 | 00:00:00 | |
| PETON7-10 | 2026-09-01 05:55:31 | 48.57063 | 18.01027 | 92° | 115km/h | 9937m | 3.8m/s | 0°C | 0% | 0hPa | 0V | 00:00:00 | 00:00:00 | 00:00:00 | |
| PETON7-10 | 2026-09-01 05:55:16 | 48.57103 | 18.00372 | 97° | 111km/h | 9882m | 4.2m/s | 0°C | 0% | 0hPa | 0V | 00:00:00 | 00:00:00 | 00:00:00 | |
| OE3JTB-15 | 2026-09-01 05:55:15 | 48.57106 | 18.00327 | 96° | 110km/h | 9878m | 3.0m/s | 0°C | 0% | 0hPa | 0V | 00:00:00 | 00:00:00 | 00:00:00 | |
| PETON7-10 | 2026-09-01 05:55:01 | 48.57136 | 17.99733 | 94° | 110km/h | 9823m | 4.9m/s | 0°C | 0% | 0hPa | 0V | 00:00:00 | 00:00:00 | 00:00:00 | |
| PETON7-10 | 2026-09-01 05:54:46 | 48.57173 | 17.99109 | 96° | 106km/h | 9762m | 3.9m/s | 0°C | 0% | 0hPa | 0V | 00:00:00 | 00:00:00 | 00:00:00 | |
| PETON7-10 | 2026-09-01 05:54:31 | 48.57216 | 17.98504 | 102° | 108km/h | 9698m | 4.6m/s | 0°C | 0% | 0hPa | 0V | 00:00:00 | 00:00:00 | 00:00:00 | |
| OE3JTB-15 | 2026-09-01 05:54:17 | 48.57264 | 17.97932 | 97° | 108km/h | 9644m | 3.5m/s | 0°C | 0% | 0hPa | 0V | 00:00:00 | 00:00:00 | 00:00:00 | |
| PETON7-10 | 2026-09-01 05:54:16 | 48.57267 | 17.97893 | 97° | 108km/h | 9635m | 3.9m/s | 0°C | 0% | 0hPa | 0V | 00:00:00 | 00:00:00 | 00:00:00 | |
| PETON7-10 | 2026-09-01 05:54:01 | 48.57327 | 17.97285 | 97° | 108km/h | 9570m | 3.8m/s | 0°C | 0% | 0hPa | 0V | 00:00:00 | 00:00:00 | 00:00:00 | |
| OE3JTB-15 | 2026-09-01 05:53:48 | 48.57377 | 17.96762 | 93° | 106km/h | 9513m | 4.0m/s | 0°C | 0% | 0hPa | 0V | 00:00:00 | 00:00:00 | 00:00:00 | |
| PETON7-10 | 2026-09-01 05:53:46 | 48.57382 | 17.96679 | 100° | 106km/h | 9504m | 4.5m/s | 0°C | 0% | 0hPa | 0V | 00:00:00 | 00:00:00 | 00:00:00 | |
| PETON7-10 | 2026-09-01 05:53:31 | 48.57433 | 17.96079 | 97° | 104km/h | 9436m | 4.1m/s | 0°C | 0% | 0hPa | 0V | 00:00:00 | 00:00:00 | 00:00:00 | |
| OE3JTB-15 | 2026-09-01 05:53:19 | 48.57464 | 17.95608 | 95° | 102km/h | 9388m | 4.9m/s | 0°C | 0% | 0hPa | 0V | 00:00:00 | 00:00:00 | 00:00:00 | |
| PETON7-10 | 2026-09-01 05:53:16 | 48.57469 | 17.95490 | 95° | 102km/h | 9369m | 4.2m/s | 0°C | 0% | 0hPa | 0V | 00:00:00 | 00:00:00 | 00:00:00 | |
| PETON7-10 | 2026-09-01 05:53:01 | 48.57505 | 17.94909 | 95° | 100km/h | 9300m | 5.3m/s | 0°C | 0% | 0hPa | 0V | 00:00:00 | 00:00:00 | 00:00:00 | |
| OE3JTB-15 | 2026-09-01 05:52:50 | 48.57529 | 17.94488 | 95° | 100km/h | 9250m | 4.4m/s | 0°C | 0% | 0hPa | 0V | 00:00:00 | 00:00:00 | 00:00:00 | |
| PETON7-10 | 2026-09-01 05:52:46 | 48.57538 | 17.94338 | 95° | 100km/h | 9232m | 4.8m/s | 0°C | 0% | 0hPa | 0V | 00:00:00 | 00:00:00 | 00:00:00 | |
| PETON7-10 | 2026-09-01 05:52:31 | 48.57577 | 17.93764 | 95° | 100km/h | 9161m | 5.0m/s | 0°C | 0% | 0hPa | 0V | 00:00:00 | 00:00:00 | 00:00:00 | |
| OE3JTB-15 | 2026-09-01 05:52:21 | 48.57605 | 17.93386 | 98° | 99km/h | 9119m | 3.9m/s | 0°C | 0% | 0hPa | 0V | 00:00:00 | 00:00:00 | 00:00:00 | |
| PETON7-10 | 2026-09-01 05:52:16 | 48.57620 | 17.93200 | 99° | 99km/h | 9091m | 4.7m/s | 0°C | 0% | 0hPa | 0V | 00:00:00 | 00:00:00 | 00:00:00 | |
| PETON7-10 | 2026-09-01 05:52:01 | 48.57669 | 17.92640 | 99° | 99km/h | 9019m | 5.1m/s | 0°C | 0% | 0hPa | 0V | 00:00:00 | 00:00:00 | 00:00:00 | |
| PETON7-10 | 2026-09-01 05:51:46 | 48.57717 | 17.92080 | 96° | 99km/h | 8948m | 4.3m/s | 0°C | 0% | 0hPa | 0V | 00:00:00 | 00:00:00 | 00:00:00 | |
| PETON7-10 | 2026-09-01 05:51:31 | 48.57768 | 17.91522 | 97° | 99km/h | 8879m | 3.9m/s | 0°C | 0% | 0hPa | 0V | 00:00:00 | 00:00:00 | 00:00:00 | |
| OE3JTB-15 | 2026-09-01 05:51:23 | 48.57798 | 17.91222 | 99° | 99km/h | 8848m | 4.6m/s | 0°C | 0% | 0hPa | 0V | 00:00:00 | 00:00:00 | 00:00:00 | |
| PETON7-10 | 2026-09-01 05:51:16 | 48.57825 | 17.90962 | 99° | 99km/h | 8816m | 4.6m/s | 0°C | 0% | 0hPa | 0V | 00:00:00 | 00:00:00 | 00:00:00 | |
| PETON7-10 | 2026-09-01 05:51:01 | 48.57887 | 17.90401 | 100° | 100km/h | 8747m | 4.3m/s | 0°C | 0% | 0hPa | 0V | 00:00:00 | 00:00:00 | 00:00:00 | |
| OE3JTB-15 | 2026-09-01 05:50:54 | 48.57921 | 17.90136 | 100° | 100km/h | 8711m | 4.4m/s | 0°C | 0% | 0hPa | 0V | 00:00:00 | 00:00:00 | 00:00:00 | |
| PETON7-10 | 2026-09-01 05:50:46 | 48.57956 | 17.89834 | 98° | 100km/h | 8679m | 4.5m/s | 0°C | 0% | 0hPa | 0V | 00:00:00 | 00:00:00 | 00:00:00 | |
| PETON7-10 | 2026-09-01 05:50:31 | 48.58023 | 17.89265 | 98° | 100km/h | 8612m | 4.9m/s | 0°C | 0% | 0hPa | 0V | 00:00:00 | 00:00:00 | 00:00:00 | |
| OE3JTB-15 | 2026-09-01 05:50:25 | 48.58050 | 17.89036 | 99° | 102km/h | 8586m | 4.7m/s | 0°C | 0% | 0hPa | 0V | 00:00:00 | 00:00:00 | 00:00:00 | |
| PETON7-10 | 2026-09-01 05:50:16 | 48.58084 | 17.88697 | 97° | 102km/h | 8547m | 3.5m/s | 0°C | 0% | 0hPa | 0V | 00:00:00 | 00:00:00 | 00:00:00 | |
| PETON7-10 | 2026-09-01 05:50:01 | 48.58136 | 17.88115 | 97° | 102km/h | 8483m | 3.9m/s | 0°C | 0% | 0hPa | 0V | 00:00:00 | 00:00:00 | 00:00:00 | |
| OE3JTB-15 | 2026-09-01 05:49:56 | 48.58151 | 17.87925 | 99° | 102km/h | 8457m | 4.2m/s | 0°C | 0% | 0hPa | 0V | 00:00:00 | 00:00:00 | 00:00:00 | |
| PETON7-10 | 2026-09-01 05:49:46 | 48.58179 | 17.87536 | 98° | 100km/h | 8418m | 3.9m/s | 0°C | 0% | 0hPa | 0V | 00:00:00 | 00:00:00 | 00:00:00 | |
| PETON7-10 | 2026-09-01 05:49:31 | 48.58212 | 17.86963 | 96° | 99km/h | 8352m | 4.5m/s | 0°C | 0% | 0hPa | 0V | 00:00:00 | 00:00:00 | 00:00:00 | |
| OE3JTB-15 | 2026-09-01 05:49:27 | 48.58218 | 17.86810 | 95° | 95km/h | 8330m | 4.2m/s | 0°C | 0% | 0hPa | 0V | 00:00:00 | 00:00:00 | 00:00:00 | |
| PETON7-10 | 2026-09-01 05:49:16 | 48.58228 | 17.86398 | 90° | 95km/h | 8284m | 3.7m/s | 0°C | 0% | 0hPa | 0V | 00:00:00 | 00:00:00 | 00:00:00 | |
| PETON7-10 | 2026-09-01 05:49:01 | 48.58235 | 17.85858 | 91° | 89km/h | 8223m | 3.6m/s | 0°C | 0% | 0hPa | 0V | 00:00:00 | 00:00:00 | 00:00:00 | |
| OE3JTB-15 | 2026-09-01 05:48:58 | 48.58236 | 17.85757 | 93° | 89km/h | 8207m | 4.0m/s | 0°C | 0% | 0hPa | 0V | 00:00:00 | 00:00:00 | 00:00:00 | |
| PETON7-10 | 2026-09-01 05:48:46 | 48.58236 | 17.85348 | 91° | 91km/h | 8162m | 4.5m/s | 0°C | 0% | 0hPa | 0V | 00:00:00 | 00:00:00 | 00:00:00 | |
| PETON7-10 | 2026-09-01 05:48:31 | 48.58245 | 17.84829 | 95° | 89km/h | 8107m | 3.7m/s | 0°C | 0% | 0hPa | 0V | 00:00:00 | 00:00:00 | 00:00:00 | |
| OE3JTB-15 | 2026-09-01 05:48:29 | 48.58248 | 17.84762 | 92° | 89km/h | 8099m | 4.1m/s | 0°C | 0% | 0hPa | 0V | 00:00:00 | 00:00:00 | 00:00:00 | |
| PETON7-10 | 2026-09-01 05:48:16 | 48.58256 | 17.84318 | 95° | 89km/h | 8050m | 3.7m/s | 0°C | 0% | 0hPa | 0V | 00:00:00 | 00:00:00 | 00:00:00 | |
| PETON7-10 | 2026-09-01 05:48:01 | 48.58269 | 17.83807 | 94° | 89km/h | 7996m | 3.8m/s | 0°C | 0% | 0hPa | 0V | 00:00:00 | 00:00:00 | 00:00:00 | |
| OE3JTB-15 | 2026-09-01 05:48:00 | 48.58270 | 17.83772 | 92° | 89km/h | 7996m | 3.8m/s | 0°C | 0% | 0hPa | 0V | 00:00:00 | 00:00:00 | 00:00:00 | |
| PETON7-10 | 2026-09-01 05:47:46 | 48.58282 | 17.83296 | 94° | 89km/h | 7943m | 4.0m/s | 0°C | 0% | 0hPa | 0V | 00:00:00 | 00:00:00 | 00:00:00 | |
| PETON7-10 | 2026-09-01 05:47:31 | 48.58297 | 17.82781 | 92° | 91km/h | 7890m | 4.1m/s | 0°C | 0% | 0hPa | 0V | 00:00:00 | 00:00:00 | 00:00:00 | |
| PETON7-10 | 2026-09-01 05:47:16 | 48.58312 | 17.82261 | 96° | 91km/h | 7835m | 3.3m/s | 0°C | 0% | 0hPa | 0V | 00:00:00 | 00:00:00 | 00:00:00 | |
| OE3OSB-13 | 2026-09-01 05:47:14 | 48.58313 | 17.82156 | 89° | 93km/h | 7828m | 4.2m/s | -28.3°C | -1.0% | -1.0hPa | 0V | 00:00:00 | 00:00:00 | 00:00:00 | |
| PETON7-10 | 2026-09-01 05:46:46 | 48.58328 | 17.81206 | 92° | 93km/h | 7734m | 4.0m/s | 0°C | 0% | 0hPa | 0V | 00:00:00 | 00:00:00 | 00:00:00 | |
| OE3JTB-15 | 2026-09-01 05:46:33 | 48.58338 | 17.80745 | 93° | 93km/h | 7689m | 4.0m/s | 0°C | 0% | 0hPa | 0V | 00:00:00 | 00:00:00 | 00:00:00 | |
| PETON7-10 | 2026-09-01 05:46:31 | 48.58338 | 17.80674 | 90° | 93km/h | 7683m | 3.6m/s | 0°C | 0% | 0hPa | 0V | 00:00:00 | 00:00:00 | 00:00:00 | |
| PETON7-10 | 2026-09-01 05:46:16 | 48.58348 | 17.80143 | 96° | 93km/h | 7632m | 3.0m/s | 0°C | 0% | 0hPa | 0V | 00:00:00 | 00:00:00 | 00:00:00 | |
| OE3JTB-15 | 2026-09-01 05:46:04 | 48.58359 | 17.79717 | 94° | 93km/h | 7594m | 3.7m/s | 0°C | 0% | 0hPa | 0V | 00:00:00 | 00:00:00 | 00:00:00 | |
| PETON7-10 | 2026-09-01 05:46:01 | 48.58363 | 17.79611 | 93° | 93km/h | 7580m | 3.7m/s | 0°C | 0% | 0hPa | 0V | 00:00:00 | 00:00:00 | 00:00:00 | |
| PETON7-10 | 2026-09-01 05:45:46 | 48.58382 | 17.79076 | 90° | 93km/h | 7529m | 2.8m/s | 0°C | 0% | 0hPa | 0V | 00:00:00 | 00:00:00 | 00:00:00 | |
| OE3JTB-15 | 2026-09-01 05:45:35 | 48.58398 | 17.78684 | 90° | 93km/h | 7491m | 3.9m/s | 0°C | 0% | 0hPa | 0V | 00:00:00 | 00:00:00 | 00:00:00 | |
| PETON7-10 | 2026-09-01 05:45:31 | 48.58402 | 17.78543 | 96° | 93km/h | 7478m | 2.6m/s | 0°C | 0% | 0hPa | 0V | 00:00:00 | 00:00:00 | 00:00:00 | |
| PETON7-10 | 2026-09-01 05:45:16 | 48.58425 | 17.78009 | 97° | 95km/h | 7429m | 3.3m/s | 0°C | 0% | 0hPa | 0V | 00:00:00 | 00:00:00 | 00:00:00 | |
| OE3JTB-15 | 2026-09-01 05:45:06 | 48.58442 | 17.77653 | 96° | 95km/h | 7398m | 4.3m/s | 0°C | 0% | 0hPa | 0V | 00:00:00 | 00:00:00 | 00:00:00 | |
| PETON7-10 | 2026-09-01 05:44:46 | 48.58483 | 17.76936 | 92° | 93km/h | 7323m | 3.6m/s | 0°C | 0% | 0hPa | 0V | 00:00:00 | 00:00:00 | 00:00:00 | |
| OE3JTB-15 | 2026-09-01 05:44:37 | 48.58502 | 17.76615 | 99° | 91km/h | 7294m | 3.4m/s | 0°C | 0% | 0hPa | 0V | 00:00:00 | 00:00:00 | 00:00:00 | |
| PETON7-10 | 2026-09-01 05:44:31 | 48.58513 | 17.76403 | 95° | 91km/h | 7272m | 3.7m/s | 0°C | 0% | 0hPa | 0V | 00:00:00 | 00:00:00 | 00:00:00 | |
| PETON7-10 | 2026-09-01 05:44:16 | 48.58545 | 17.75882 | 95° | 91km/h | 7219m | 4.0m/s | 0°C | 0% | 0hPa | 0V | 00:00:00 | 00:00:00 | 00:00:00 | |
| OE3JTB-15 | 2026-09-01 05:44:08 | 48.58560 | 17.75605 | 94° | 91km/h | 7188m | 3.9m/s | 0°C | 0% | 0hPa | 0V | 00:00:00 | 00:00:00 | 00:00:00 | |
| PETON7-10 | 2026-09-01 05:44:01 | 48.58571 | 17.75365 | 91° | 91km/h | 7161m | 3.9m/s | 0°C | 0% | 0hPa | 0V | 00:00:00 | 00:00:00 | 00:00:00 | |
| S52SK | 2026-09-01 05:43:49 | 48.58588 | 17.74947 | 94° | 93km/h | 7114m | 2.4m/s | -22.8°C | 0% | 0hPa | 0V | 00:00:00 | 00:00:00 | 00:00:00 | |
| PETON7-10 | 2026-09-01 05:43:46 | 48.58592 | 17.74842 | 95° | 91km/h | 7102m | 3.8m/s | 0°C | 0% | 0hPa | 0V | 00:00:00 | 00:00:00 | 00:00:00 | |
| OE3JTB-15 | 2026-09-01 05:43:39 | 48.58604 | 17.74599 | 93° | 93km/h | 7069m | 3.9m/s | 0°C | 0% | 0hPa | 0V | 00:00:00 | 00:00:00 | 00:00:00 | |
| PETON7-10 | 2026-09-01 05:43:31 | 48.58618 | 17.74319 | 99° | 93km/h | 7041m | 4.2m/s | 0°C | 0% | 0hPa | 0V | 00:00:00 | 00:00:00 | 00:00:00 | |
| PETON7-10 | 2026-09-01 05:43:16 | 48.58651 | 17.73789 | 98° | 91km/h | 6974m | 3.2m/s | 0°C | 0% | 0hPa | 0V | 00:00:00 | 00:00:00 | 00:00:00 | |
| OE3JTB-15 | 2026-09-01 05:43:10 | 48.58667 | 17.73582 | 97° | 91km/h | 6943m | 4.8m/s | 0°C | 0% | 0hPa | 0V | 00:00:00 | 00:00:00 | 00:00:00 | |
| PETON7-10 | 2026-09-01 05:43:01 | 48.58688 | 17.73266 | 96° | 91km/h | 6907m | 4.5m/s | 0°C | 0% | 0hPa | 0V | 00:00:00 | 00:00:00 | 00:00:00 | |
| S52SK | 2026-09-01 05:42:52 | 48.58715 | 17.72955 | 98° | 88km/h | 6865m | 4.2m/s | -20.7°C | 0% | 0hPa | 0V | 00:00:00 | 00:00:00 | 00:00:00 | |
| PETON7-10 | 2026-09-01 05:42:46 | 48.58734 | 17.72747 | 97° | 91km/h | 6837m | 4.7m/s | 0°C | 0% | 0hPa | 0V | 00:00:00 | 00:00:00 | 00:00:00 | |
| OE3JTB-15 | 2026-09-01 05:42:41 | 48.58749 | 17.72574 | 97° | 93km/h | 6810m | 4.1m/s | 0°C | 0% | 0hPa | 0V | 00:00:00 | 00:00:00 | 00:00:00 | |
| PETON7-10 | 2026-09-01 05:42:31 | 48.58778 | 17.72224 | 101° | 91km/h | 6768m | 4.1m/s | 0°C | 0% | 0hPa | 0V | 00:00:00 | 00:00:00 | 00:00:00 | |
| PETON7-10 | 2026-09-01 05:42:16 | 48.58815 | 17.71705 | 95° | 89km/h | 6697m | 3.6m/s | 0°C | 0% | 0hPa | 0V | 00:00:00 | 00:00:00 | 00:00:00 | |
| OE3JTB-15 | 2026-09-01 05:42:12 | 48.58828 | 17.71562 | 98° | 88km/h | 6672m | 5.3m/s | 0°C | 0% | 0hPa | 0V | 00:00:00 | 00:00:00 | 00:00:00 | |
| OE3OSB-13 | 2026-09-01 05:42:03 | 48.58851 | 17.71231 | 93° | 84km/h | 6627m | 5.0m/s | -18.2°C | -1.0% | -1.0hPa | 0V | 00:00:00 | 00:00:00 | 00:00:00 | |
| PETON7-10 | 2026-09-01 05:42:01 | 48.58853 | 17.71198 | 96° | 88km/h | 6622m | 4.6m/s | 0°C | 0% | 0hPa | 0V | 00:00:00 | 00:00:00 | 00:00:00 | |
| PETON7-10 | 2026-09-01 05:41:46 | 48.58892 | 17.70696 | 101° | 88km/h | 6539m | 5.6m/s | 0°C | 0% | 0hPa | 0V | 00:00:00 | 00:00:00 | 00:00:00 | |
| OE3JTB-15 | 2026-09-01 05:41:43 | 48.58899 | 17.70593 | 92° | 86km/h | 6523m | 5.2m/s | 0°C | 0% | 0hPa | 0V | 00:00:00 | 00:00:00 | 00:00:00 | |
| PETON7-10 | 2026-09-01 05:41:31 | 48.58930 | 17.70200 | 98° | 86km/h | 6461m | 5.0m/s | 0°C | 0% | 0hPa | 0V | 00:00:00 | 00:00:00 | 00:00:00 | |
| PETON7-10 | 2026-09-01 05:41:16 | 48.58961 | 17.69717 | 93° | 82km/h | 6384m | 4.8m/s | 0°C | 0% | 0hPa | 0V | 00:00:00 | 00:00:00 | 00:00:00 | |
| OE3JTB-15 | 2026-09-01 05:41:14 | 48.58962 | 17.69653 | 93° | 82km/h | 6373m | 5.5m/s | 0°C | 0% | 0hPa | 0V | 00:00:00 | 00:00:00 | 00:00:00 | |
| PETON7-10 | 2026-09-01 05:41:01 | 48.58989 | 17.69245 | 94° | 82km/h | 6307m | 5.0m/s | 0°C | 0% | 0hPa | 0V | 00:00:00 | 00:00:00 | 00:00:00 | |
| PETON7-10 | 2026-09-01 05:40:46 | 48.59014 | 17.68776 | 97° | 82km/h | 6231m | 5.4m/s | 0°C | 0% | 0hPa | 0V | 00:00:00 | 00:00:00 | 00:00:00 | |
| OE3JTB-15 | 2026-09-01 05:40:45 | 48.59016 | 17.68743 | 96° | 80km/h | 6231m | 5.4m/s | 0°C | 0% | 0hPa | 0V | 00:00:00 | 00:00:00 | 00:00:00 | |
| PETON7-10 | 2026-09-01 05:40:31 | 48.59037 | 17.68308 | 94° | 80km/h | 6159m | 5.3m/s | 0°C | 0% | 0hPa | 0V | 00:00:00 | 00:00:00 | 00:00:00 | |
| PETON7-10 | 2026-09-01 05:40:16 | 48.59051 | 17.67852 | 92° | 78km/h | 6088m | 5.2m/s | 0°C | 0% | 0hPa | 0V | 00:00:00 | 00:00:00 | 00:00:00 | |
| PETON7-10 | 2026-09-01 05:40:01 | 48.59068 | 17.67406 | 99° | 75km/h | 6016m | 4.7m/s | 0°C | 0% | 0hPa | 0V | 00:00:00 | 00:00:00 | 00:00:00 | |
| OE3JTB-15 | 2026-09-01 05:39:47 | 48.59095 | 17.67005 | 98° | 73km/h | 5959m | 3.9m/s | 0°C | 0% | 0hPa | 0V | 00:00:00 | 00:00:00 | 00:00:00 | |
| PETON7-10 | 2026-09-01 05:39:46 | 48.59097 | 17.66977 | 97° | 75km/h | 5950m | 3.3m/s | 0°C | 0% | 0hPa | 0V | 00:00:00 | 00:00:00 | 00:00:00 | |
| PETON7-10 | 2026-09-01 05:39:31 | 48.59119 | 17.66554 | 90° | 69km/h | 5887m | 3.5m/s | 0°C | 0% | 0hPa | 0V | 00:00:00 | 00:00:00 | 00:00:00 | |
| OE3JTB-15 | 2026-09-01 05:39:18 | 48.59128 | 17.66209 | 90° | 69km/h | 5835m | 3.6m/s | 0°C | 0% | 0hPa | 0V | 00:00:00 | 00:00:00 | 00:00:00 | |
| PETON7-10 | 2026-09-01 05:39:16 | 48.59130 | 17.66160 | 95° | 69km/h | 5827m | 4.3m/s | 0°C | 0% | 0hPa | 0V | 00:00:00 | 00:00:00 | 00:00:00 | |
| PETON7-10 | 2026-09-01 05:39:01 | 48.59125 | 17.65762 | 88° | 69km/h | 5772m | 3.1m/s | 0°C | 0% | 0hPa | 0V | 00:00:00 | 00:00:00 | 00:00:00 | |
| OE3JTB-15 | 2026-09-01 05:38:49 | 48.59113 | 17.65448 | 85° | 71km/h | 5731m | 3.1m/s | 0°C | 0% | 0hPa | 0V | 00:00:00 | 00:00:00 | 00:00:00 | |
| PETON7-10 | 2026-09-01 05:38:46 | 48.59110 | 17.65367 | 86° | 71km/h | 5718m | 3.5m/s | 0°C | 0% | 0hPa | 0V | 00:00:00 | 00:00:00 | 00:00:00 | |
| PETON7-10 | 2026-09-01 05:38:31 | 48.59082 | 17.64962 | 85° | 71km/h | 5674m | 4.0m/s | 0°C | 0% | 0hPa | 0V | 00:00:00 | 00:00:00 | 00:00:00 | |
| OE3JTB-15 | 2026-09-01 05:38:20 | 48.59062 | 17.64664 | 84° | 69km/h | 5641m | 2.8m/s | 0°C | 0% | 0hPa | 0V | 00:00:00 | 00:00:00 | 00:00:00 | |
| PETON7-10 | 2026-09-01 05:38:16 | 48.59059 | 17.64560 | 85° | 69km/h | 5630m | 2.5m/s | 0°C | 0% | 0hPa | 0V | 00:00:00 | 00:00:00 | 00:00:00 | |
| PETON7-10 | 2026-09-01 05:38:01 | 48.59048 | 17.64163 | 89° | 69km/h | 5591m | 2.5m/s | 0°C | 0% | 0hPa | 0V | 00:00:00 | 00:00:00 | 00:00:00 | |
| OE3JTB-15 | 2026-09-01 05:37:51 | 48.59045 | 17.63898 | 87° | 69km/h | 5570m | 2.5m/s | 0°C | 0% | 0hPa | 0V | 00:00:00 | 00:00:00 | 00:00:00 | |
| PETON7-10 | 2026-09-01 05:37:46 | 48.59045 | 17.63767 | 89° | 68km/h | 5557m | 2.2m/s | 0°C | 0% | 0hPa | 0V | 00:00:00 | 00:00:00 | 00:00:00 | |
| PETON7-10 | 2026-09-01 05:37:31 | 48.59046 | 17.63377 | 87° | 73km/h | 5528m | 1.2m/s | 0°C | 0% | 0hPa | 0V | 00:00:00 | 00:00:00 | 00:00:00 | |
| OE3JTB-15 | 2026-09-01 05:37:22 | 48.59041 | 17.63131 | 89° | 73km/h | 5513m | 1.4m/s | 0°C | 0% | 0hPa | 0V | 00:00:00 | 00:00:00 | 00:00:00 | |
| PETON7-10 | 2026-09-01 05:37:16 | 48.59037 | 17.62963 | 89° | 73km/h | 5507m | 1.9m/s | 0°C | 0% | 0hPa | 0V | 00:00:00 | 00:00:00 | 00:00:00 | |
| PETON7-10 | 2026-09-01 05:37:01 | 48.59031 | 17.62541 | 91° | 75km/h | 5486m | 0.7m/s | 0°C | 0% | 0hPa | 0V | 00:00:00 | 00:00:00 | 00:00:00 | |
| OE3JTB-15 | 2026-09-01 05:36:53 | 48.59027 | 17.62312 | 92° | 75km/h | 5478m | 1.9m/s | 0°C | 0% | 0hPa | 0V | 00:00:00 | 00:00:00 | 00:00:00 | |
| PETON7-10 | 2026-09-01 05:36:46 | 48.59029 | 17.62109 | 91° | 75km/h | 5472m | 1.4m/s | 0°C | 0% | 0hPa | 0V | 00:00:00 | 00:00:00 | 00:00:00 | |
| PETON7-10 | 2026-09-01 05:36:31 | 48.59027 | 17.61679 | 92° | 75km/h | 5462m | -0.2m/s | 0°C | 0% | 0hPa | 0V | 00:00:00 | 00:00:00 | 00:00:00 | |
| OE3JTB-15 | 2026-09-01 05:36:24 | 48.59029 | 17.61478 | 92° | 73km/h | 5460m | 0.9m/s | 0°C | 0% | 0hPa | 0V | 00:00:00 | 00:00:00 | 00:00:00 | |
| PETON7-10 | 2026-09-01 05:36:16 | 48.59033 | 17.61250 | 95° | 75km/h | 5459m | -0.1m/s | 0°C | 0% | 0hPa | 0V | 00:00:00 | 00:00:00 | 00:00:00 | |
| PETON7-10 | 2026-09-01 05:36:01 | 48.59034 | 17.60826 | 89° | 71km/h | 5454m | 0.8m/s | 0°C | 0% | 0hPa | 0V | 00:00:00 | 00:00:00 | 00:00:00 | |
| OE3JTB-15 | 2026-09-01 05:35:55 | 48.59034 | 17.60661 | 92° | 69km/h | 5452m | -0.0m/s | 0°C | 0% | 0hPa | 0V | 00:00:00 | 00:00:00 | 00:00:00 | |
| PETON7-10 | 2026-09-01 05:35:46 | 48.59035 | 17.60418 | 89° | 71km/h | 5447m | -0.5m/s | 0°C | 0% | 0hPa | 0V | 00:00:00 | 00:00:00 | 00:00:00 | |
| PETON7-10 | 2026-09-01 05:35:31 | 48.59032 | 17.60016 | 84° | 68km/h | 5440m | 0.3m/s | 0°C | 0% | 0hPa | 0V | 00:00:00 | 00:00:00 | 00:00:00 | |
| OE3JTB-15 | 2026-09-01 05:35:26 | 48.59036 | 17.59886 | 91° | 68km/h | 5435m | 0.8m/s | 0°C | 0% | 0hPa | 0V | 00:00:00 | 00:00:00 | 00:00:00 | |
| PETON7-10 | 2026-09-01 05:35:16 | 48.59031 | 17.59630 | 94° | 68km/h | 5431m | -1.4m/s | 0°C | 0% | 0hPa | 0V | 00:00:00 | 00:00:00 | 00:00:00 | |
| PETON7-10 | 2026-09-01 05:35:01 | 48.59029 | 17.59247 | 96° | 66km/h | 5403m | 1.2m/s | 0°C | 0% | 0hPa | 0V | 00:00:00 | 00:00:00 | 00:00:00 | |
| OE3JTB-15 | 2026-09-01 05:34:57 | 48.59025 | 17.59141 | 87° | 62km/h | 5397m | 0.8m/s | 0°C | 0% | 0hPa | 0V | 00:00:00 | 00:00:00 | 00:00:00 | |
| PETON7-10 | 2026-09-01 05:34:46 | 48.59010 | 17.58876 | 82° | 62km/h | 5381m | 0.9m/s | 0°C | 0% | 0hPa | 0V | 00:00:00 | 00:00:00 | 00:00:00 | |
| PETON7-10 | 2026-09-01 05:34:31 | 48.58985 | 17.58526 | 86° | 60km/h | 5357m | 1.1m/s | 0°C | 0% | 0hPa | 0V | 00:00:00 | 00:00:00 | 00:00:00 | |
| OE3JTB-15 | 2026-09-01 05:34:28 | 48.58977 | 17.58457 | 83° | 60km/h | 5354m | 0.7m/s | 0°C | 0% | 0hPa | 0V | 00:00:00 | 00:00:00 | 00:00:00 | |
| PETON7-10 | 2026-09-01 05:34:16 | 48.58951 | 17.58186 | 80° | 58km/h | 5329m | 1.8m/s | 0°C | 0% | 0hPa | 0V | 00:00:00 | 00:00:00 | 00:00:00 | |
| PETON7-10 | 2026-09-01 05:34:01 | 48.58907 | 17.57856 | 79° | 58km/h | 5296m | 1.7m/s | 0°C | 0% | 0hPa | 0V | 00:00:00 | 00:00:00 | 00:00:00 | |
| OE3JTB-15 | 2026-09-01 05:33:59 | 48.58903 | 17.57811 | 82° | 57km/h | 5291m | 1.8m/s | 0°C | 0% | 0hPa | 0V | 00:00:00 | 00:00:00 | 00:00:00 | |
| PETON7-10 | 2026-09-01 05:33:46 | 48.58857 | 17.57532 | 77° | 57km/h | 5260m | 3.2m/s | 0°C | 0% | 0hPa | 0V | 00:00:00 | 00:00:00 | 00:00:00 | |
| PETON7-10 | 2026-09-01 05:33:31 | 48.58804 | 17.57217 | 77° | 55km/h | 5219m | 2.2m/s | 0°C | 0% | 0hPa | 0V | 00:00:00 | 00:00:00 | 00:00:00 | |
| OE3JTB-15 | 2026-09-01 05:33:30 | 48.58801 | 17.57195 | 79° | 55km/h | 5219m | 2.2m/s | 0°C | 0% | 0hPa | 0V | 00:00:00 | 00:00:00 | 00:00:00 | |
| PETON7-10 | 2026-09-01 05:33:16 | 48.58743 | 17.56913 | 71° | 55km/h | 5174m | 2.9m/s | 0°C | 0% | 0hPa | 0V | 00:00:00 | 00:00:00 | 00:00:00 | |
| PETON7-10 | 2026-09-01 05:33:01 | 48.58679 | 17.56612 | 79° | 55km/h | 5126m | 2.6m/s | 0°C | 0% | 0hPa | 0V | 00:00:00 | 00:00:00 | 00:00:00 | |
| PETON7-10 | 2026-09-01 05:32:46 | 48.58619 | 17.56317 | 73° | 55km/h | 5076m | 3.0m/s | 0°C | 0% | 0hPa | 0V | 00:00:00 | 00:00:00 | 00:00:00 | |
| OE3JTB-15 | 2026-09-01 05:32:32 | 48.58551 | 17.56039 | 63° | 53km/h | 5023m | 5.7m/s | 0°C | 0% | 0hPa | 0V | 00:00:00 | 00:00:00 | 00:00:00 | |
| PETON7-10 | 2026-09-01 05:32:31 | 48.58545 | 17.56020 | 67° | 53km/h | 5013m | 4.8m/s | 0°C | 0% | 0hPa | 0V | 00:00:00 | 00:00:00 | 00:00:00 | |
| OE3JTB-15 | 2026-09-01 05:32:03 | 48.58395 | 17.55500 | 71° | 49km/h | 4906m | 3.2m/s | 0°C | 0% | 0hPa | 0V | 00:00:00 | 00:00:00 | 00:00:00 | |
| PETON7-10 | 2026-09-01 05:32:01 | 48.58384 | 17.55464 | 60° | 51km/h | 4899m | 3.8m/s | 0°C | 0% | 0hPa | 0V | 00:00:00 | 00:00:00 | 00:00:00 | |
| PETON7-10 | 2026-09-01 05:31:46 | 48.58296 | 17.55209 | 55° | 49km/h | 4845m | 3.0m/s | 0°C | 0% | 0hPa | 0V | 00:00:00 | 00:00:00 | 00:00:00 | |
| OE3JTB-15 | 2026-09-01 05:31:34 | 48.58224 | 17.55012 | 67° | 49km/h | 4806m | 3.0m/s | 0°C | 0% | 0hPa | 0V | 00:00:00 | 00:00:00 | 00:00:00 | |
| PETON7-10 | 2026-09-01 05:31:31 | 48.58206 | 17.54960 | 60° | 49km/h | 4791m | 3.2m/s | 0°C | 0% | 0hPa | 0V | 00:00:00 | 00:00:00 | 00:00:00 | |
| PETON7-10 | 2026-09-01 05:31:16 | 48.58118 | 17.54710 | 66° | 46km/h | 4723m | 6.3m/s | 0°C | 0% | 0hPa | 0V | 00:00:00 | 00:00:00 | 00:00:00 | |
| OE3JTB-15 | 2026-09-01 05:31:05 | 48.58058 | 17.54539 | 64° | 46km/h | 4683m | 4.1m/s | 0°C | 0% | 0hPa | 0V | 00:00:00 | 00:00:00 | 00:00:00 | |
| PETON7-10 | 2026-09-01 05:31:01 | 48.58036 | 17.54476 | 62° | 46km/h | 4668m | 3.3m/s | 0°C | 0% | 0hPa | 0V | 00:00:00 | 00:00:00 | 00:00:00 | |
| PETON7-10 | 2026-09-01 05:30:46 | 48.57966 | 17.54239 | 76° | 46km/h | 4609m | 4.4m/s | 0°C | 0% | 0hPa | 0V | 00:00:00 | 00:00:00 | 00:00:00 | |
| OE3JTB-15 | 2026-09-01 05:30:36 | 48.57922 | 17.54083 | 62° | 44km/h | 4570m | 4.8m/s | 0°C | 0% | 0hPa | 0V | 00:00:00 | 00:00:00 | 00:00:00 | |
| PETON7-10 | 2026-09-01 05:30:31 | 48.57899 | 17.54002 | 73° | 44km/h | 4545m | 4.5m/s | 0°C | 0% | 0hPa | 0V | 00:00:00 | 00:00:00 | 00:00:00 | |
| PETON7-10 | 2026-09-01 05:30:16 | 48.57841 | 17.53765 | 74° | 44km/h | 4483m | 4.7m/s | 0°C | 0% | 0hPa | 0V | 00:00:00 | 00:00:00 | 00:00:00 | |
| OE3JTB-15 | 2026-09-01 05:30:07 | 48.57811 | 17.53621 | 68° | 44km/h | 4440m | 4.1m/s | 0°C | 0% | 0hPa | 0V | 00:00:00 | 00:00:00 | 00:00:00 | |
| PETON7-10 | 2026-09-01 05:30:01 | 48.57794 | 17.53523 | 68° | 44km/h | 4419m | 4.1m/s | 0°C | 0% | 0hPa | 0V | 00:00:00 | 00:00:00 | 00:00:00 | |
| PETON7-10 | 2026-09-01 05:29:46 | 48.57752 | 17.53282 | 77° | 42km/h | 4352m | 4.9m/s | 0°C | 0% | 0hPa | 0V | 00:00:00 | 00:00:00 | 00:00:00 | |
| OE3JTB-15 | 2026-09-01 05:29:38 | 48.57734 | 17.53149 | 76° | 38km/h | 4313m | 5.4m/s | 0°C | 0% | 0hPa | 0V | 00:00:00 | 00:00:00 | 00:00:00 | |
| PETON7-10 | 2026-09-01 05:29:31 | 48.57719 | 17.53042 | 76° | 40km/h | 4285m | 5.4m/s | 0°C | 0% | 0hPa | 0V | 00:00:00 | 00:00:00 | 00:00:00 | |
| PETON7-10 | 2026-09-01 05:29:16 | 48.57687 | 17.52822 | 80° | 38km/h | 4218m | 4.4m/s | 0°C | 0% | 0hPa | 0V | 00:00:00 | 00:00:00 | 00:00:00 | |
| OE3JTB-15 | 2026-09-01 05:29:09 | 48.57675 | 17.52727 | 82° | 38km/h | 4184m | 3.9m/s | 0°C | 0% | 0hPa | 0V | 00:00:00 | 00:00:00 | 00:00:00 | |
| PETON7-10 | 2026-09-01 05:29:01 | 48.57663 | 17.52609 | 77° | 38km/h | 4153m | 4.3m/s | 0°C | 0% | 0hPa | 0V | 00:00:00 | 00:00:00 | 00:00:00 | |
| PETON7-10 | 2026-09-01 05:28:46 | 48.57644 | 17.52392 | 81° | 38km/h | 4086m | 4.7m/s | 0°C | 0% | 0hPa | 0V | 00:00:00 | 00:00:00 | 00:00:00 | |
| OE3JTB-15 | 2026-09-01 05:28:40 | 48.57640 | 17.52302 | 83° | 38km/h | 4056m | 4.6m/s | 0°C | 0% | 0hPa | 0V | 00:00:00 | 00:00:00 | 00:00:00 | |
| PETON7-10 | 2026-09-01 05:28:31 | 48.57632 | 17.52172 | 79° | 38km/h | 4016m | 3.2m/s | 0°C | 0% | 0hPa | 0V | 00:00:00 | 00:00:00 | 00:00:00 | |
| PETON7-10 | 2026-09-01 05:28:16 | 48.57618 | 17.51948 | 84° | 40km/h | 3952m | 4.9m/s | 0°C | 0% | 0hPa | 0V | 00:00:00 | 00:00:00 | 00:00:00 | |
| OE3JTB-15 | 2026-09-01 05:28:11 | 48.57615 | 17.51873 | 93° | 40km/h | 3924m | 4.8m/s | 0°C | 0% | 0hPa | 0V | 00:00:00 | 00:00:00 | 00:00:00 | |
| OE3OSB-13 | 2026-09-01 05:28:04 | 48.57609 | 17.51752 | 85° | 37km/h | 3893m | 4.1m/s | -2.0°C | -1.0% | -1.0hPa | 0V | 00:00:00 | 00:00:00 | 00:00:00 | |
| PETON7-10 | 2026-09-01 05:28:01 | 48.57608 | 17.51722 | 84° | 40km/h | 3884m | 4.5m/s | 0°C | 0% | 0hPa | 0V | 00:00:00 | 00:00:00 | 00:00:00 | |
| PETON7-10 | 2026-09-01 05:27:46 | 48.57600 | 17.51490 | 80° | 38km/h | 3814m | 3.8m/s | 0°C | 0% | 0hPa | 0V | 00:00:00 | 00:00:00 | 00:00:00 | |
| OE3JTB-15 | 2026-09-01 05:27:42 | 48.57599 | 17.51432 | 92° | 40km/h | 3795m | 3.9m/s | 0°C | 0% | 0hPa | 0V | 00:00:00 | 00:00:00 | 00:00:00 | |
| PETON7-10 | 2026-09-01 05:27:31 | 48.57592 | 17.51267 | 89° | 40km/h | 3747m | 4.8m/s | 0°C | 0% | 0hPa | 0V | 00:00:00 | 00:00:00 | 00:00:00 | |
| OE3JTB-15 | 2026-09-01 05:27:13 | 48.57589 | 17.50992 | 84° | 42km/h | 3673m | 3.9m/s | 0°C | 0% | 0hPa | 0V | 00:00:00 | 00:00:00 | 00:00:00 | |
| PETON7-10 | 2026-09-01 05:27:01 | 48.57590 | 17.50806 | 90° | 42km/h | 3620m | 3.8m/s | 0°C | 0% | 0hPa | 0V | 00:00:00 | 00:00:00 | 00:00:00 | |
| PETON7-10 | 2026-09-01 05:26:46 | 48.57587 | 17.50565 | 92° | 44km/h | 3559m | 3.7m/s | 0°C | 0% | 0hPa | 0V | 00:00:00 | 00:00:00 | 00:00:00 | |
| OE3JTB-15 | 2026-09-01 05:26:44 | 48.57588 | 17.50532 | 90° | 44km/h | 3551m | 3.2m/s | 0°C | 0% | 0hPa | 0V | 00:00:00 | 00:00:00 | 00:00:00 | |
| PETON7-10 | 2026-09-01 05:26:31 | 48.57594 | 17.50312 | 98° | 46km/h | 3500m | 4.5m/s | 0°C | 0% | 0hPa | 0V | 00:00:00 | 00:00:00 | 00:00:00 | |
| PETON7-10 | 2026-09-01 05:26:16 | 48.57606 | 17.50057 | 93° | 44km/h | 3440m | 3.2m/s | 0°C | 0% | 0hPa | 0V | 00:00:00 | 00:00:00 | 00:00:00 | |
| OE3JTB-15 | 2026-09-01 05:26:15 | 48.57606 | 17.50040 | 94° | 44km/h | 3440m | 3.2m/s | 0°C | 0% | 0hPa | 0V | 00:00:00 | 00:00:00 | 00:00:00 | |
| PETON7-10 | 2026-09-01 05:26:01 | 48.57620 | 17.49806 | 92° | 44km/h | 3383m | 3.9m/s | 0°C | 0% | 0hPa | 0V | 00:00:00 | 00:00:00 | 00:00:00 | |
| PETON7-10 | 2026-09-01 05:25:46 | 48.57641 | 17.49561 | 102° | 42km/h | 3328m | 2.7m/s | 0°C | 0% | 0hPa | 0V | 00:00:00 | 00:00:00 | 00:00:00 | |
| PETON7-10 | 2026-09-01 05:25:31 | 48.57673 | 17.49328 | 107° | 40km/h | 3277m | 3.4m/s | 0°C | 0% | 0hPa | 0V | 00:00:00 | 00:00:00 | 00:00:00 | |
| OE3JTB-15 | 2026-09-01 05:25:17 | 48.57703 | 17.49114 | 99° | 42km/h | 3233m | 3.1m/s | 0°C | 0% | 0hPa | 0V | 00:00:00 | 00:00:00 | 00:00:00 | |
| PETON7-10 | 2026-09-01 05:25:16 | 48.57705 | 17.49100 | 108° | 42km/h | 3226m | 3.5m/s | 0°C | 0% | 0hPa | 0V | 00:00:00 | 00:00:00 | 00:00:00 | |
| PETON7-10 | 2026-09-01 05:25:01 | 48.57753 | 17.48873 | 109° | 42km/h | 3176m | 2.4m/s | 0°C | 0% | 0hPa | 0V | 00:00:00 | 00:00:00 | 00:00:00 | |
| OE3JTB-15 | 2026-09-01 05:24:48 | 48.57791 | 17.48675 | 104° | 40km/h | 3135m | 3.0m/s | 0°C | 0% | 0hPa | 0V | 00:00:00 | 00:00:00 | 00:00:00 | |
| PETON7-10 | 2026-09-01 05:24:46 | 48.57797 | 17.48644 | 109° | 40km/h | 3128m | 2.4m/s | 0°C | 0% | 0hPa | 0V | 00:00:00 | 00:00:00 | 00:00:00 | |
| PETON7-10 | 2026-09-01 05:24:31 | 48.57832 | 17.48420 | 101° | 40km/h | 3080m | 2.6m/s | 0°C | 0% | 0hPa | 0V | 00:00:00 | 00:00:00 | 00:00:00 | |
| OE3JTB-15 | 2026-09-01 05:24:19 | 48.57857 | 17.48235 | 100° | 42km/h | 3046m | 3.5m/s | 0°C | 0% | 0hPa | 0V | 00:00:00 | 00:00:00 | 00:00:00 | |
| PETON7-10 | 2026-09-01 05:24:16 | 48.57864 | 17.48192 | 106° | 42km/h | 3034m | 1.6m/s | 0°C | 0% | 0hPa | 0V | 00:00:00 | 00:00:00 | 00:00:00 | |
| PETON7-10 | 2026-09-01 05:24:01 | 48.57898 | 17.47961 | 107° | 44km/h | 2986m | 2.5m/s | 0°C | 0% | 0hPa | 0V | 00:00:00 | 00:00:00 | 00:00:00 | |
| OE3JTB-15 | 2026-09-01 05:23:50 | 48.57935 | 17.47788 | 114° | 46km/h | 2953m | 3.5m/s | 0°C | 0% | 0hPa | 0V | 00:00:00 | 00:00:00 | 00:00:00 | |
| PETON7-10 | 2026-09-01 05:23:46 | 48.57951 | 17.47723 | 107° | 46km/h | 2941m | 2.1m/s | 0°C | 0% | 0hPa | 0V | 00:00:00 | 00:00:00 | 00:00:00 | |
| PETON7-10 | 2026-09-01 05:23:31 | 48.58014 | 17.47480 | 112° | 47km/h | 2899m | 2.3m/s | 0°C | 0% | 0hPa | 0V | 00:00:00 | 00:00:00 | 00:00:00 | |
| OE3JTB-15 | 2026-09-01 05:23:21 | 48.58056 | 17.47310 | 108° | 53km/h | 2875m | 3.1m/s | 0°C | 0% | 0hPa | 0V | 00:00:00 | 00:00:00 | 00:00:00 | |
| PETON7-10 | 2026-09-01 05:23:16 | 48.58076 | 17.47223 | 112° | 53km/h | 2862m | 3.1m/s | 0°C | 0% | 0hPa | 0V | 00:00:00 | 00:00:00 | 00:00:00 | |
| PETON7-10 | 2026-09-01 05:23:01 | 48.58150 | 17.46938 | 110° | 53km/h | 2825m | 2.0m/s | 0°C | 0% | 0hPa | 0V | 00:00:00 | 00:00:00 | 00:00:00 | |
| OE3JTB-15 | 2026-09-01 05:22:52 | 48.58193 | 17.46766 | 114° | 51km/h | 2803m | 2.3m/s | 0°C | 0% | 0hPa | 0V | 00:00:00 | 00:00:00 | 00:00:00 | |
| PETON7-10 | 2026-09-01 05:22:46 | 48.58221 | 17.46655 | 108° | 51km/h | 2790m | 1.4m/s | 0°C | 0% | 0hPa | 0V | 00:00:00 | 00:00:00 | 00:00:00 | |
| PETON7-10 | 2026-09-01 05:22:31 | 48.58286 | 17.46375 | 108° | 51km/h | 2757m | 1.9m/s | 0°C | 0% | 0hPa | 0V | 00:00:00 | 00:00:00 | 00:00:00 | |
| OE3JTB-15 | 2026-09-01 05:22:23 | 48.58318 | 17.46227 | 108° | 53km/h | 2737m | 2.9m/s | 0°C | 0% | 0hPa | 0V | 00:00:00 | 00:00:00 | 00:00:00 | |
| PETON7-10 | 2026-09-01 05:22:16 | 48.58343 | 17.46092 | 116° | 49km/h | 2722m | 1.0m/s | 0°C | 0% | 0hPa | 0V | 00:00:00 | 00:00:00 | 00:00:00 | |
| PETON7-10 | 2026-09-01 05:22:01 | 48.58416 | 17.45848 | 101° | 60km/h | 2663m | 6.4m/s | 0°C | 0% | 0hPa | 0V | 00:00:00 | 00:00:00 | 00:00:00 | |
| OE3JTB-15 | 2026-09-01 05:21:54 | 48.58451 | 17.45689 | 119° | 60km/h | 2629m | 3.2m/s | 0°C | 0% | 0hPa | 0V | 00:00:00 | 00:00:00 | 00:00:00 | |
| PETON7-10 | 2026-09-01 05:21:46 | 48.58509 | 17.45527 | 125° | 60km/h | 2611m | 1.4m/s | 0°C | 0% | 0hPa | 0V | 00:00:00 | 00:00:00 | 00:00:00 | |
| PETON7-10 | 2026-09-01 05:21:31 | 48.58623 | 17.45224 | 121° | 62km/h | 2579m | 2.3m/s | 0°C | 0% | 0hPa | 0V | 00:00:00 | 00:00:00 | 00:00:00 | |
| OE3JTB-15 | 2026-09-01 05:21:25 | 48.58670 | 17.45102 | 124° | 64km/h | 2565m | 2.0m/s | 0°C | 0% | 0hPa | 0V | 00:00:00 | 00:00:00 | 00:00:00 | |
| PETON7-10 | 2026-09-01 05:21:16 | 48.58743 | 17.44914 | 118° | 66km/h | 2541m | 2.0m/s | 0°C | 0% | 0hPa | 0V | 00:00:00 | 00:00:00 | 00:00:00 | |
| PETON7-10 | 2026-09-01 05:21:01 | 48.58867 | 17.44586 | 117° | 64km/h | 2502m | 3.6m/s | 0°C | 0% | 0hPa | 0V | 00:00:00 | 00:00:00 | 00:00:00 | |
| OE3JTB-15 | 2026-09-01 05:20:56 | 48.58906 | 17.44482 | 123° | 64km/h | 2490m | 2.9m/s | 0°C | 0% | 0hPa | 0V | 00:00:00 | 00:00:00 | 00:00:00 | |
| PETON7-10 | 2026-09-01 05:20:46 | 48.58981 | 17.44270 | 116° | 62km/h | 2461m | 3.2m/s | 0°C | 0% | 0hPa | 0V | 00:00:00 | 00:00:00 | 00:00:00 | |
| OE3JTB-15 | 2026-09-01 05:20:27 | 48.59117 | 17.43859 | 121° | 62km/h | 2406m | 3.4m/s | 0°C | 0% | 0hPa | 0V | 00:00:00 | 00:00:00 | 00:00:00 | |
| PETON7-10 | 2026-09-01 05:20:16 | 48.59201 | 17.43625 | 114° | 62km/h | 2372m | 3.2m/s | 0°C | 0% | 0hPa | 0V | 00:00:00 | 00:00:00 | 00:00:00 | |
| PETON7-10 | 2026-09-01 05:20:01 | 48.59316 | 17.43316 | 115° | 60km/h | 2321m | 4.2m/s | 0°C | 0% | 0hPa | 0V | 00:00:00 | 00:00:00 | 00:00:00 | |
| OE3JTB-15 | 2026-09-01 05:19:58 | 48.59341 | 17.43259 | 126° | 60km/h | 2313m | 4.3m/s | 0°C | 0% | 0hPa | 0V | 00:00:00 | 00:00:00 | 00:00:00 | |
| PETON7-10 | 2026-09-01 05:19:46 | 48.59432 | 17.43014 | 124° | 58km/h | 2259m | 4.5m/s | 0°C | 0% | 0hPa | 0V | 00:00:00 | 00:00:00 | 00:00:00 | |
| PETON7-10 | 2026-09-01 05:19:31 | 48.59543 | 17.42727 | 118° | 57km/h | 2202m | 3.1m/s | 0°C | 0% | 0hPa | 0V | 00:00:00 | 00:00:00 | 00:00:00 | |
| OE3JTB-15 | 2026-09-01 05:19:29 | 48.59556 | 17.42687 | 117° | 57km/h | 2193m | 4.6m/s | 0°C | 0% | 0hPa | 0V | 00:00:00 | 00:00:00 | 00:00:00 | |
| PETON7-10 | 2026-09-01 05:19:16 | 48.59641 | 17.42445 | 119° | 57km/h | 2145m | 3.7m/s | 0°C | 0% | 0hPa | 0V | 00:00:00 | 00:00:00 | 00:00:00 | |
| PETON7-10 | 2026-09-01 05:19:01 | 48.59745 | 17.42159 | 119° | 57km/h | 2087m | 3.3m/s | 0°C | 0% | 0hPa | 0V | 00:00:00 | 00:00:00 | 00:00:00 | |
| OE3JTB-15 | 2026-09-01 05:19:00 | 48.59752 | 17.42137 | 113° | 57km/h | 2087m | 3.3m/s | 0°C | 0% | 0hPa | 0V | 00:00:00 | 00:00:00 | 00:00:00 | |
| PETON7-10 | 2026-09-01 05:18:46 | 48.59849 | 17.41874 | 130° | 57km/h | 2022m | 5.8m/s | 0°C | 0% | 0hPa | 0V | 00:00:00 | 00:00:00 | 00:00:00 | |
| OE3JTB-15 | 2026-09-01 05:18:31 | 48.59956 | 17.41600 | 127° | 53km/h | 1955m | 5.0m/s | 0°C | 0% | 0hPa | 0V | 00:00:00 | 00:00:00 | 00:00:00 | |
| PETON7-10 | 2026-09-01 05:18:31 | 48.59956 | 17.41600 | 127° | 53km/h | 1955m | 5.0m/s | 0°C | 0% | 0hPa | 0V | 00:00:00 | 00:00:00 | 00:00:00 | |
| PETON7-10 | 2026-09-01 05:18:16 | 48.60053 | 17.41334 | 133° | 51km/h | 1891m | 3.8m/s | 0°C | 0% | 0hPa | 0V | 00:00:00 | 00:00:00 | 00:00:00 | |
| OE3JTB-15 | 2026-09-01 05:18:02 | 48.60132 | 17.41087 | 121° | 49km/h | 1828m | 6.9m/s | 0°C | 0% | 0hPa | 0V | 00:00:00 | 00:00:00 | 00:00:00 | |
| PETON7-10 | 2026-09-01 05:18:01 | 48.60138 | 17.41070 | 109° | 49km/h | 1815m | 5.9m/s | 0°C | 0% | 0hPa | 0V | 00:00:00 | 00:00:00 | 00:00:00 | |
| PETON7-10 | 2026-09-01 05:17:46 | 48.60224 | 17.40823 | 118° | 49km/h | 1745m | 4.9m/s | 0°C | 0% | 0hPa | 0V | 00:00:00 | 00:00:00 | 00:00:00 | |
| OE3JTB-15 | 2026-09-01 05:17:33 | 48.60304 | 17.40609 | 121° | 49km/h | 1684m | 3.1m/s | 0°C | 0% | 0hPa | 0V | 00:00:00 | 00:00:00 | 00:00:00 | |
| PETON7-10 | 2026-09-01 05:17:31 | 48.60314 | 17.40577 | 122° | 49km/h | 1675m | 4.3m/s | 0°C | 0% | 0hPa | 0V | 00:00:00 | 00:00:00 | 00:00:00 | |
| PETON7-10 | 2026-09-01 05:17:16 | 48.60411 | 17.40336 | 127° | 51km/h | 1606m | 5.1m/s | 0°C | 0% | 0hPa | 0V | 00:00:00 | 00:00:00 | 00:00:00 | |
| OE3JTB-15 | 2026-09-01 05:17:04 | 48.60485 | 17.40131 | 120° | 57km/h | 1551m | 4.6m/s | 0°C | 0% | 0hPa | 0V | 00:00:00 | 00:00:00 | 00:00:00 | |
| PETON7-10 | 2026-09-01 05:17:01 | 48.60504 | 17.40080 | 125° | 57km/h | 1532m | 4.1m/s | 0°C | 0% | 0hPa | 0V | 00:00:00 | 00:00:00 | 00:00:00 | |
| PETON7-10 | 2026-09-01 05:16:46 | 48.60614 | 17.39810 | 111° | 57km/h | 1464m | 5.8m/s | 0°C | 0% | 0hPa | 0V | 00:00:00 | 00:00:00 | 00:00:00 | |
| OE3JTB-15 | 2026-09-01 05:16:35 | 48.60700 | 17.39613 | 125° | 57km/h | 1413m | 4.7m/s | 0°C | 0% | 0hPa | 0V | 00:00:00 | 00:00:00 | 00:00:00 | |
| PETON7-10 | 2026-09-01 05:16:32 | 48.60734 | 17.39544 | 134° | 57km/h | 1395m | 5.2m/s | 0°C | 0% | 0hPa | 0V | 00:00:00 | 00:00:00 | 00:00:00 | |
| PETON7-10 | 2026-09-01 05:16:16 | 48.60854 | 17.39277 | 124° | 57km/h | 1327m | 5.0m/s | 0°C | 0% | 0hPa | 0V | 00:00:00 | 00:00:00 | 00:00:00 | |
| PETON7-10 | 2026-09-01 05:16:01 | 48.60974 | 17.39021 | 126° | 57km/h | 1260m | 5.5m/s | 0°C | 0% | 0hPa | 0V | 00:00:00 | 00:00:00 | 00:00:00 | |
| PETON7-10 | 2026-09-01 05:15:46 | 48.61095 | 17.38762 | 132° | 58km/h | 1192m | 3.2m/s | 0°C | 0% | 0hPa | 0V | 00:00:00 | 00:00:00 | 00:00:00 | |
| OE3JTB-15 | 2026-09-01 05:15:37 | 48.61175 | 17.38597 | 113° | 58km/h | 1155m | 4.8m/s | 0°C | 0% | 0hPa | 0V | 00:00:00 | 00:00:00 | 00:00:00 | |
| PETON7-10 | 2026-09-01 05:15:31 | 48.61228 | 17.38495 | 127° | 58km/h | 1128m | 3.9m/s | 0°C | 0% | 0hPa | 0V | 00:00:00 | 00:00:00 | 00:00:00 | |
| PETON7-10 | 2026-09-01 05:15:16 | 48.61362 | 17.38229 | 143° | 57km/h | 1065m | 3.8m/s | 0°C | 0% | 0hPa | 0V | 00:00:00 | 00:00:00 | 00:00:00 | |
| OE3JTB-15 | 2026-09-01 05:15:08 | 48.61433 | 17.38092 | 123° | 57km/h | 1031m | 3.0m/s | 0°C | 0% | 0hPa | 0V | 00:00:00 | 00:00:00 | 00:00:00 | |
| PETON7-10 | 2026-09-01 05:15:01 | 48.61492 | 17.37969 | 134° | 57km/h | 1002m | 4.0m/s | 0°C | 0% | 0hPa | 0V | 00:00:00 | 00:00:00 | 00:00:00 | |
| PETON7-10 | 2026-09-01 05:14:46 | 48.61630 | 17.37730 | 133° | 57km/h | 940m | 4.9m/s | 0°C | 0% | 0hPa | 0V | 00:00:00 | 00:00:00 | 00:00:00 | |
| OE3JTB-15 | 2026-09-01 05:14:39 | 48.61694 | 17.37604 | 140° | 57km/h | 913m | 4.4m/s | 0°C | 0% | 0hPa | 0V | 00:00:00 | 00:00:00 | 00:00:00 | |
| OE3OSB-13 | 2026-09-01 05:14:37 | 48.61722 | 17.37553 | 131° | 60km/h | 905m | 4.2m/s | 15.4°C | -1.0% | -1.0hPa | 0V | 00:00:00 | 00:00:00 | 00:00:00 | |
| PETON7-10 | 2026-09-01 05:14:31 | 48.61769 | 17.37471 | 121° | 57km/h | 881m | 3.7m/s | 0°C | 0% | 0hPa | 0V | 00:00:00 | 00:00:00 | 00:00:00 | |
| PETON7-10 | 2026-09-01 05:14:16 | 48.61906 | 17.37230 | 143° | 55km/h | 821m | 4.2m/s | 0°C | 0% | 0hPa | 0V | 00:00:00 | 00:00:00 | 00:00:00 | |
| OE3JTB-15 | 2026-09-01 05:14:10 | 48.61963 | 17.37142 | 135° | 57km/h | 797m | 4.3m/s | 0°C | 0% | 0hPa | 0V | 00:00:00 | 00:00:00 | 00:00:00 | |
| OE3OSB-13 | 2026-09-01 05:14:06 | 48.62013 | 17.37070 | 135° | 49km/h | 780m | 4.7m/s | 16.4°C | -1.0% | -1.0hPa | 0V | 00:00:00 | 00:00:00 | 00:00:00 | |
| PETON7-10 | 2026-09-01 05:14:01 | 48.62050 | 17.37010 | 136° | 55km/h | 761m | 4.9m/s | 0°C | 0% | 0hPa | 0V | 00:00:00 | 00:00:00 | 00:00:00 | |
| PETON7-10 | 2026-09-01 05:13:46 | 48.62197 | 17.36794 | 142° | 55km/h | 703m | 4.0m/s | 0°C | 0% | 0hPa | 0V | 00:00:00 | 00:00:00 | 00:00:00 |